Darstellungsparameter: Aktuell verwendete Einstellungen:
Skalierung der Graphiken ... ?
xyx+y,   Skalierungsfaktor:      Skalierung: Modus: x, Faktor: 1
Darstellungszeitraum ... ?
Vom - - bis: - -   Zeitraum: 04.07.2009 - 03.10.2009
Min/Max/Avg-Anzeige ... ?
Zeige MMA aktuell
Zeige MMA Monat
Zeige MMA alles
Zeige --A aktuell
Zeige --A Monat
Zeige --A alles
Keine MMA-Anzeige
MMA:
Minimum Maximum Average (ber die Originaldaten)
MMA-Basis: 14.04.2020 - 16.05.2020
Quicknavigation für Darstellung... ?
Tage:      1T, 2T, 3T, 5T -1T -2T -3T -5T +1T +2T +3T +5T
Wochen: 1W, 2W, 3W -1W -2W -3W +1W +2W +3W
Monate: 1M, 3M, 6M -1M -3M -6M +1M +3M +6M
Jahre:    1J, 3J, 5J, 10J -1J -3J -5J -10J +1J +3J +5J +10J
Nutze für die Darstellung ... ?
Originaldaten oder Mittelwerte auf ...
Stundenbasis Tagesbasis Wochenbasis
Monatsbasis Jahresbasis      Datenbasis: Original-Daten
Darstellen als:
Statistik (Auto) Statistik J:M      Darstellung:
Zur Graphik,    zurück zur Übersicht aller Sensoren.
 
Tabellarische Datenbersicht: ?
 
Sensor: Nr:Datum:Temp:Abs-Feuchte:Windchill:Wind:
Aussen-T/F 1 04-07-2009 00:11:57 20.4 C 14.51 g/m*3 20.4 C 0 km/h
2 04-07-2009 00:23:57 20.3 C 14.42 g/m*3 20.3 C 0 km/h
3 04-07-2009 00:35:57 20.2 C 14.34 g/m*3 20.2 C 0 km/h
4 04-07-2009 00:47:57 20.1 C 14.25 g/m*3 20.1 C 0 km/h
5 04-07-2009 00:59:57 19.8 C 14.35 g/m*3 19.8 C 0 km/h
6 04-07-2009 01:11:57 19.5 C 14.43 g/m*3 19.5 C 0 km/h
7 04-07-2009 01:23:58 19.5 C 14.43 g/m*3 19.5 C 0 km/h
8 04-07-2009 01:35:58 19.4 C 14.68 g/m*3 19.4 C 0 km/h
9 04-07-2009 01:47:58 19.3 C 14.6 g/m*3 19.3 C 0 km/h
10 04-07-2009 01:59:58 19.3 C 14.6 g/m*3 19.3 C 0 km/h
11 04-07-2009 02:11:58 19.2 C 14.51 g/m*3 19.2 C 0 km/h
12 04-07-2009 02:23:58 19.1 C 14.43 g/m*3 19.1 C 0 km/h
13 04-07-2009 02:35:58 19.1 C 14.43 g/m*3 19.1 C 0 km/h
14 04-07-2009 02:47:58 19.2 C 14.51 g/m*3 19.2 C 0 km/h
15 04-07-2009 02:59:58 19.1 C 14.43 g/m*3 19.1 C 0 km/h
16 04-07-2009 03:11:58 18.9 C 14.42 g/m*3 18.9 C 0 km/h
17 04-07-2009 03:23:58 18.8 C 14.33 g/m*3 18.8 C 0 km/h
18 04-07-2009 03:35:58 18.7 C 14.25 g/m*3 18.7 C 0 km/h
19 04-07-2009 03:47:58 18.9 C 14.42 g/m*3 18.9 C 0 km/h
20 04-07-2009 03:59:58 18.9 C 14.42 g/m*3 18.9 C 0 km/h
21 04-07-2009 04:11:58 18.7 C 14.09 g/m*3 18.7 C 0 km/h
22 04-07-2009 04:23:58 18.8 C 14.17 g/m*3 18.8 C 0 km/h
23 04-07-2009 04:35:58 18.9 C 14.26 g/m*3 18.9 C 0 km/h
24 04-07-2009 04:47:58 18.9 C 14.26 g/m*3 18.9 C 0 km/h
25 04-07-2009 04:59:58 18.8 C 14.01 g/m*3 18.8 C 0 km/h
Sensor: Nr:Datum:Temp:Abs-Feuchte:Windchill:Wind:
Aussen-T/F 26 04-07-2009 05:11:59 18.6 C 13.69 g/m*3 18.6 C 0 km/h
27 04-07-2009 05:23:59 18.4 C 13.37 g/m*3 18.4 C 0 km/h
28 04-07-2009 05:35:59 18.3 C 13.13 g/m*3 18.3 C 0 km/h
29 04-07-2009 05:47:59 18.1 C 12.98 g/m*3 18.1 C 0 km/h
30 04-07-2009 05:59:59 17.7 C 12.98 g/m*3 17.7 C 0 km/h
31 04-07-2009 06:11:59 17.6 C 12.9 g/m*3 17.6 C 0 km/h
32 04-07-2009 06:23:59 17.6 C 12.9 g/m*3 17.6 C 0 km/h
33 04-07-2009 06:35:59 17.5 C 12.82 g/m*3 17.5 C 0 km/h
34 04-07-2009 06:47:59 17.5 C 12.97 g/m*3 17.5 C 0 km/h
35 04-07-2009 06:59:59 17.4 C 13.04 g/m*3 17.4 C 0 km/h
36 04-07-2009 07:11:59 17.7 C 13.28 g/m*3 17.7 C 0 km/h
37 04-07-2009 07:23:59 17.9 C 13.28 g/m*3 17.9 C 0 km/h
38 04-07-2009 07:35:59 18 C 13.06 g/m*3 18 C 0 km/h
39 04-07-2009 07:47:59 18 C 12.9 g/m*3 18 C 0 km/h
40 04-07-2009 07:59:59 18.2 C 12.75 g/m*3 18.2 C 0 km/h
41 04-07-2009 08:11:57 18.5 C 12.66 g/m*3 18.5 C 0 km/h
42 04-07-2009 08:23:57 18.8 C 12.24 g/m*3 18.8 C 0 km/h
43 04-07-2009 08:35:57 19.1 C 11.8 g/m*3 19.1 C 0 km/h
44 04-07-2009 08:47:56 19.5 C 11.24 g/m*3 19.5 C 0 km/h
45 04-07-2009 08:59:56 19.7 C 10.87 g/m*3 19.7 C 0 km/h
46 04-07-2009 09:11:56 20 C 10.89 g/m*3 20 C 0 km/h
47 04-07-2009 09:23:56 20.4 C 10.61 g/m*3 20.4 C 0 km/h
48 04-07-2009 09:35:56 21.3 C 10.25 g/m*3 21.3 C 0 km/h
49 04-07-2009 09:47:55 22.2 C 10.41 g/m*3 22.2 C 0 km/h
50 04-07-2009 09:59:55 22.1 C 10.54 g/m*3 22.1 C 0 km/h
Sensor: Nr:Datum:Temp:Abs-Feuchte:Windchill:Wind:
Aussen-T/F 51 04-07-2009 10:11:56 22.3 C 10.47 g/m*3 22.3 C 0 km/h
52 04-07-2009 10:23:56 22.7 C 10.51 g/m*3 22.7 C 0 km/h
53 04-07-2009 10:35:55 23.5 C 10.79 g/m*3 23.5 C 0 km/h
54 04-07-2009 10:47:56 24.3 C 10.62 g/m*3 24.3 C 0 km/h
55 04-07-2009 10:59:56 24.7 C 10.19 g/m*3 24.7 C 0 km/h
56 04-07-2009 11:11:55 25.3 C 9.83 g/m*3 25.3 C 0 km/h
57 04-07-2009 11:23:55 25.6 C 9.76 g/m*3 25.6 C 0 km/h
58 04-07-2009 11:35:54 26.2 C 9.6 g/m*3 26.2 C 0 km/h
59 04-07-2009 11:47:55 26.7 C 9.87 g/m*3 26.7 C 0 km/h
60 04-07-2009 11:59:55 27.8 C 9.95 g/m*3 27.8 C 0 km/h
61 04-07-2009 12:11:54 28.3 C 9.95 g/m*3 28.3 C 0 km/h
62 04-07-2009 12:23:54 27.8 C 9.41 g/m*3 27.8 C 0 km/h
63 04-07-2009 12:35:55 27.1 C 9.58 g/m*3 27.1 C 0 km/h
64 04-07-2009 12:47:54 26.7 C 9.62 g/m*3 26.7 C 0 km/h
65 04-07-2009 12:59:54 25.8 C 10.11 g/m*3 25.8 C 0 km/h
66 04-07-2009 13:11:54 27.3 C 9.68 g/m*3 27.3 C 0 km/h
67 04-07-2009 13:23:53 27.7 C 9.9 g/m*3 27.7 C 0 km/h
68 04-07-2009 13:35:54 30.6 C 9.08 g/m*3 30.6 C 0 km/h
69 04-07-2009 13:47:53 31.3 C 8.13 g/m*3 31.3 C 0 km/h
70 04-07-2009 13:59:53 30.6 C 8.77 g/m*3 30.6 C 0 km/h
71 04-07-2009 14:11:53 30 C 9.4 g/m*3 30 C 0 km/h
72 04-07-2009 14:23:54 29.6 C 8.9 g/m*3 29.6 C 0 km/h
73 04-07-2009 14:35:53 27.9 C 8.65 g/m*3 27.9 C 0 km/h
74 04-07-2009 14:47:53 28.9 C 8.86 g/m*3 28.9 C 0 km/h
75 04-07-2009 14:59:53 30.3 C 8.63 g/m*3 30.3 C 0 km/h
Sensor: Nr:Datum:Temp:Abs-Feuchte:Windchill:Wind:
Aussen-T/F 76 04-07-2009 15:11:53 29.9 C 9.05 g/m*3 29.9 C 0 km/h
77 04-07-2009 15:23:53 30.2 C 9.2 g/m*3 30.2 C 0 km/h
78 04-07-2009 15:35:52 29.6 C 8.31 g/m*3 29.6 C 0 km/h
79 04-07-2009 15:47:53 30.4 C 8.06 g/m*3 30.4 C 0 km/h
80 04-07-2009 15:59:53 30 C 8.49 g/m*3 30 C 0 km/h
81 04-07-2009 16:11:52 31.2 C 7.12 g/m*3 31.2 C 0 km/h
82 04-07-2009 16:23:52 31 C 7.04 g/m*3 31 C 0 km/h
83 04-07-2009 16:35:52 30.8 C 7.28 g/m*3 30.8 C 0 km/h
84 04-07-2009 16:47:52 31.1 C 6.76 g/m*3 31.1 C 0 km/h
85 04-07-2009 16:59:52 30.9 C 6.68 g/m*3 30.9 C 0 km/h
86 04-07-2009 17:11:52 30.4 C 6.82 g/m*3 30.4 C 0 km/h
87 04-07-2009 17:23:51 31.2 C 6.79 g/m*3 31.2 C 0 km/h
88 04-07-2009 17:35:52 30.6 C 6.58 g/m*3 30.6 C 0 km/h
89 04-07-2009 17:47:51 30.4 C 7.13 g/m*3 30.4 C 0 km/h
90 04-07-2009 17:59:51 31.5 C 6.57 g/m*3 31.5 C 0 km/h
91 04-07-2009 18:11:51 31.2 C 6.47 g/m*3 31.2 C 0 km/h
92 04-07-2009 18:23:50 30.6 C 6.26 g/m*3 30.6 C 0 km/h
93 04-07-2009 18:35:51 31 C 6.4 g/m*3 31 C 0 km/h
94 04-07-2009 18:47:50 30.3 C 6.78 g/m*3 30.3 C 0 km/h
95 04-07-2009 18:59:50 30.6 C 6.58 g/m*3 30.6 C 0 km/h
96 04-07-2009 19:11:50 30.5 C 7.48 g/m*3 30.5 C 0 km/h
97 04-07-2009 19:23:51 30.6 C 7.2 g/m*3 30.6 C 0 km/h
98 04-07-2009 19:35:50 30.7 C 7.24 g/m*3 30.7 C 0 km/h
99 04-07-2009 19:47:50 31 C 7.36 g/m*3 31 C 0 km/h
100 04-07-2009 19:59:50 31.2 C 7.12 g/m*3 31.2 C 0 km/h
Sensor: Nr:Datum:Temp:Abs-Feuchte:Windchill:Wind:
Aussen-T/F 101 04-07-2009 20:11:50 30.9 C 7.32 g/m*3 30.9 C 0 km/h
102 04-07-2009 20:23:50 30.3 C 8.01 g/m*3 30.3 C 0 km/h
103 04-07-2009 20:35:49 30.1 C 8.84 g/m*3 30.1 C 0 km/h
104 04-07-2009 20:47:49 29.2 C 8.71 g/m*3 29.2 C 0 km/h
105 04-07-2009 20:59:49 28.6 C 9.27 g/m*3 28.6 C 0 km/h
106 04-07-2009 21:11:49 27.3 C 9.42 g/m*3 27.3 C 0 km/h
107 04-07-2009 21:23:49 25.9 C 9.68 g/m*3 25.9 C 0 km/h
108 04-07-2009 21:35:49 25.1 C 9.49 g/m*3 25.1 C 0 km/h
109 04-07-2009 21:47:49 24.4 C 9.35 g/m*3 24.4 C 0 km/h
110 04-07-2009 21:59:49 24.1 C 9.41 g/m*3 24.1 C 0 km/h
111 04-07-2009 22:11:48 24.1 C 9.41 g/m*3 24.1 C 0 km/h
112 04-07-2009 22:23:49 23.6 C 9.57 g/m*3 23.6 C 0 km/h
113 04-07-2009 22:35:49 23.2 C 9.77 g/m*3 23.2 C 0 km/h
114 04-07-2009 22:47:48 23 C 9.66 g/m*3 23 C 0 km/h
115 04-07-2009 22:59:48 22.5 C 9.79 g/m*3 22.5 C 0 km/h
116 04-07-2009 23:12:49 22.2 C 9.62 g/m*3 22.2 C 0 km/h
117 04-07-2009 23:24:49 21.7 C 10.3 g/m*3 21.7 C 0 km/h
118 04-07-2009 23:36:49 21.5 C 10.18 g/m*3 21.5 C 0 km/h
119 04-07-2009 23:48:49 21.3 C 10.25 g/m*3 21.3 C 0 km/h
120 05-07-2009 00:00:49 20.9 C 10.38 g/m*3 20.9 C 0 km/h
121 05-07-2009 00:12:49 20.8 C 10.5 g/m*3 20.8 C 0 km/h
122 05-07-2009 00:24:49 20.7 C 10.44 g/m*3 20.7 C 0 km/h
123 05-07-2009 00:36:49 20.5 C 10.32 g/m*3 20.5 C 0 km/h
124 05-07-2009 00:48:49 20.3 C 10.38 g/m*3 20.3 C 0 km/h
125 05-07-2009 01:00:49 19.9 C 10.48 g/m*3 19.9 C 0 km/h
Sensor: Nr:Datum:Temp:Abs-Feuchte:Windchill:Wind:
Aussen-T/F 126 05-07-2009 01:12:49 19.7 C 10.7 g/m*3 19.7 C 0 km/h
127 05-07-2009 01:24:49 19.3 C 10.78 g/m*3 19.3 C 0 km/h
128 05-07-2009 01:36:49 19.3 C 10.78 g/m*3 19.3 C 0 km/h
129 05-07-2009 01:48:49 19 C 10.92 g/m*3 19 C 0 km/h
130 05-07-2009 02:00:49 18.8 C 11.11 g/m*3 18.8 C 0 km/h
131 05-07-2009 02:12:49 18.6 C 11.14 g/m*3 18.6 C 0 km/h
132 05-07-2009 02:24:49 18.5 C 11.08 g/m*3 18.5 C 0 km/h
133 05-07-2009 02:36:49 18.5 C 11.08 g/m*3 18.5 C 0 km/h
134 05-07-2009 02:48:49 18.4 C 11.17 g/m*3 18.4 C 0 km/h
135 05-07-2009 03:00:50 18.4 C 11.17 g/m*3 18.4 C 0 km/h
136 05-07-2009 03:12:50 18.1 C 10.97 g/m*3 18.1 C 0 km/h
137 05-07-2009 03:24:50 18 C 10.91 g/m*3 18 C 0 km/h
138 05-07-2009 03:36:50 17.9 C 11.15 g/m*3 17.9 C 0 km/h
139 05-07-2009 03:48:50 17.7 C 11.16 g/m*3 17.7 C 0 km/h
140 05-07-2009 04:00:50 17.6 C 11.25 g/m*3 17.6 C 0 km/h
141 05-07-2009 04:12:50 17.5 C 11.18 g/m*3 17.5 C 0 km/h
142 05-07-2009 04:24:50 17.4 C 11.12 g/m*3 17.4 C 0 km/h
143 05-07-2009 04:36:50 17.2 C 10.98 g/m*3 17.2 C 0 km/h
144 05-07-2009 04:48:50 17.2 C 10.98 g/m*3 17.2 C 0 km/h
145 05-07-2009 05:00:50 17.2 C 11.13 g/m*3 17.2 C 0 km/h
146 05-07-2009 05:12:50 16.9 C 11.08 g/m*3 16.9 C 0 km/h
147 05-07-2009 05:24:50 16.8 C 11.01 g/m*3 16.8 C 0 km/h
148 05-07-2009 05:36:50 16.8 C 11.15 g/m*3 16.8 C 0 km/h
149 05-07-2009 05:48:49 16.9 C 11.22 g/m*3 16.9 C 0 km/h
150 05-07-2009 06:00:49 17.3 C 11.34 g/m*3 17.3 C 0 km/h
Sensor: Nr:Datum:Temp:Abs-Feuchte:Windchill:Wind:
Aussen-T/F 151 05-07-2009 06:12:49 17.3 C 11.2 g/m*3 17.3 C 0 km/h
152 05-07-2009 06:24:48 17.4 C 11.26 g/m*3 17.4 C 0 km/h
153 05-07-2009 06:36:48 17.4 C 11.26 g/m*3 17.4 C 0 km/h
154 05-07-2009 06:48:49 17.4 C 11.26 g/m*3 17.4 C 0 km/h
155 05-07-2009 07:00:02 17.5 C 11.33 g/m*3 17.5 C 0 km/h
156 05-07-2009 07:12:02 17.8 C 11.54 g/m*3 17.8 C 0 km/h
157 05-07-2009 07:24:02 17.7 C 11.47 g/m*3 17.7 C 0 km/h
158 05-07-2009 07:36:02 17.9 C 11.45 g/m*3 17.9 C 0 km/h
159 05-07-2009 07:48:02 18 C 11.21 g/m*3 18 C 0 km/h
160 05-07-2009 08:00:02 18.5 C 11.55 g/m*3 18.5 C 0 km/h
161 05-07-2009 08:12:01 19.2 C 11.54 g/m*3 19.2 C 0 km/h
162 05-07-2009 08:24:02 19.7 C 11.38 g/m*3 19.7 C 0 km/h
163 05-07-2009 08:36:02 20.4 C 11.32 g/m*3 20.4 C 0 km/h
164 05-07-2009 08:48:01 21.1 C 11.24 g/m*3 21.1 C 0 km/h
165 05-07-2009 09:00:01 21.9 C 11.39 g/m*3 21.9 C 0 km/h
166 05-07-2009 09:12:01 22.2 C 11.19 g/m*3 22.2 C 0 km/h
167 05-07-2009 09:24:02 22.7 C 11.31 g/m*3 22.7 C 0 km/h
168 05-07-2009 09:36:01 22.8 C 11.18 g/m*3 22.8 C 0 km/h
169 05-07-2009 09:48:01 22.9 C 11.24 g/m*3 22.9 C 0 km/h
170 05-07-2009 10:00:01 23 C 11.3 g/m*3 23 C 0 km/h
171 05-07-2009 10:12:00 23.2 C 11.64 g/m*3 23.2 C 0 km/h
172 05-07-2009 10:24:01 23.1 C 11.58 g/m*3 23.1 C 0 km/h
173 05-07-2009 10:36:00 22.9 C 11.65 g/m*3 22.9 C 0 km/h
174 05-07-2009 10:48:00 23.2 C 11.43 g/m*3 23.2 C 0 km/h
175 05-07-2009 11:00:00 23.9 C 11.25 g/m*3 23.9 C 0 km/h
Sensor: Nr:Datum:Temp:Abs-Feuchte:Windchill:Wind:
Aussen-T/F 176 05-07-2009 11:12:00 24.1 C 10.94 g/m*3 24.1 C 0 km/h
177 05-07-2009 11:24:00 24.3 C 11.06 g/m*3 24.3 C 0 km/h
178 05-07-2009 11:36:00 24.8 C 11.15 g/m*3 24.8 C 0 km/h
179 05-07-2009 11:48:00 24.8 C 10.93 g/m*3 24.8 C 0 km/h
180 05-07-2009 12:00:00 25.7 C 11.25 g/m*3 25.7 C 0 km/h
181 05-07-2009 12:12:59 26.8 C 11.2 g/m*3 26.8 C 0 km/h
182 05-07-2009 12:24:59 26.5 C 10.76 g/m*3 26.5 C 0 km/h
183 05-07-2009 12:36:59 27.4 C 10.52 g/m*3 27.4 C 0 km/h
184 05-07-2009 12:48:01 28.1 C 9.84 g/m*3 28.1 C 0 km/h
185 05-07-2009 13:00:01 28.5 C 9.22 g/m*3 28.5 C 0 km/h
186 05-07-2009 13:12:59 29.6 C 8.9 g/m*3 29.6 C 0 km/h
187 05-07-2009 13:24:58 29.2 C 9.29 g/m*3 29.2 C 0 km/h
188 05-07-2009 13:36:00 29 C 8.62 g/m*3 29 C 0 km/h
189 05-07-2009 13:48:59 30.5 C 8.72 g/m*3 30.5 C 0 km/h
190 05-07-2009 13:59:59 30 C 8.49 g/m*3 30 C 0 km/h
191 05-07-2009 14:11:59 30.7 C 7.87 g/m*3 30.7 C 0 km/h
192 05-07-2009 14:24:58 30.9 C 8.59 g/m*3 30.9 C 0 km/h
193 05-07-2009 14:36:58 31 C 8.32 g/m*3 31 C 0 km/h
194 05-07-2009 14:48:57 31.7 C 7.97 g/m*3 31.7 C 0 km/h
195 05-07-2009 15:00:58 30.8 C 7.28 g/m*3 30.8 C 0 km/h
196 05-07-2009 15:12:58 31.5 C 7.56 g/m*3 31.5 C 0 km/h
197 05-07-2009 15:24:57 31.9 C 7.05 g/m*3 31.9 C 0 km/h
198 05-07-2009 15:36:57 32.1 C 7.13 g/m*3 32.1 C 0 km/h
199 05-07-2009 15:48:57 32.7 C 7.01 g/m*3 32.7 C 0 km/h
200 05-07-2009 16:00:57 33 C 7.12 g/m*3 33 C 0 km/h
Sensor: Nr:Datum:Temp:Abs-Feuchte:Windchill:Wind:
Aussen-T/F 201 05-07-2009 16:12:57 32.1 C 6.79 g/m*3 32.1 C 0 km/h
202 05-07-2009 16:24:02 31.5 C 6.57 g/m*3 31.5 C 0 km/h
203 05-07-2009 16:36:02 31.5 C 6.57 g/m*3 31.5 C 0 km/h
204 05-07-2009 16:48:01 31.2 C 8.09 g/m*3 31.2 C 0 km/h
205 05-07-2009 17:00:01 30.9 C 8.91 g/m*3 30.9 C 0 km/h
206 05-07-2009 17:12:02 30.6 C 7.83 g/m*3 30.6 C 0 km/h
207 05-07-2009 17:24:01 30.4 C 9.3 g/m*3 30.4 C 0 km/h
208 05-07-2009 17:36:01 29.8 C 9.9 g/m*3 29.8 C 0 km/h
209 05-07-2009 17:48:01 27.9 C 8.92 g/m*3 27.9 C 0 km/h
210 05-07-2009 18:00:01 26.6 C 9.31 g/m*3 26.6 C 0 km/h
211 05-07-2009 18:12:01 26.9 C 9.73 g/m*3 26.9 C 0 km/h
212 05-07-2009 18:24:01 26.9 C 9.47 g/m*3 26.9 C 0 km/h
213 05-07-2009 18:36:00 28 C 9.52 g/m*3 28 C 0 km/h
214 05-07-2009 18:48:01 29 C 8.9 g/m*3 29 C 0 km/h
215 05-07-2009 19:00:01 29.2 C 9 g/m*3 29.2 C 0 km/h
216 05-07-2009 19:12:00 30.4 C 9.3 g/m*3 30.4 C 0 km/h
217 05-07-2009 19:24:00 30.6 C 8.46 g/m*3 30.6 C 0 km/h
218 05-07-2009 19:36:00 29.8 C 8.4 g/m*3 29.8 C 0 km/h
219 05-07-2009 19:48:00 30 C 8.79 g/m*3 30 C 0 km/h
220 05-07-2009 20:00:00 30 C 9.1 g/m*3 30 C 0 km/h
221 05-07-2009 20:12:00 29.4 C 9.1 g/m*3 29.4 C 0 km/h
222 05-07-2009 20:24:59 28.9 C 9.71 g/m*3 28.9 C 0 km/h
223 05-07-2009 20:36:00 27.5 C 10.05 g/m*3 27.5 C 0 km/h
224 05-07-2009 20:48:59 26.9 C 10.24 g/m*3 26.9 C 0 km/h
225 05-07-2009 20:59:59 26.5 C 10.51 g/m*3 26.5 C 0 km/h
Sensor: Nr:Datum:Temp:Abs-Feuchte:Windchill:Wind:
Aussen-T/F 226 05-07-2009 21:11:59 26 C 10.23 g/m*3 26 C 0 km/h
227 05-07-2009 21:24:59 25.4 C 10.36 g/m*3 25.4 C 0 km/h
228 05-07-2009 21:36:59 25 C 10.36 g/m*3 25 C 0 km/h
229 05-07-2009 21:48:58 24.6 C 10.35 g/m*3 24.6 C 0 km/h
230 05-07-2009 22:00:59 24.3 C 10.62 g/m*3 24.3 C 0 km/h
231 05-07-2009 22:13:00 24 C 10.66 g/m*3 24 C 0 km/h
232 05-07-2009 22:25:59 23.8 C 10.97 g/m*3 23.8 C 0 km/h
233 05-07-2009 22:37:59 23.7 C 10.91 g/m*3 23.7 C 0 km/h
234 05-07-2009 22:49:59 23.4 C 10.93 g/m*3 23.4 C 0 km/h
235 05-07-2009 23:01:59 23.4 C 11.14 g/m*3 23.4 C 0 km/h
236 05-07-2009 23:13:59 23 C 11.3 g/m*3 23 C 0 km/h
237 05-07-2009 23:25:59 22.2 C 12.96 g/m*3 22.2 C 0 km/h
238 05-07-2009 23:37:59 20 C 13.48 g/m*3 20 C 0 km/h
239 05-07-2009 23:49:59 19.8 C 14.18 g/m*3 19.8 C 0 km/h
240 06-07-2009 00:02:00 19.3 C 14.43 g/m*3 19.3 C 0 km/h
241 06-07-2009 00:14:00 18.8 C 14.33 g/m*3 18.8 C 0 km/h
242 06-07-2009 00:26:00 18.5 C 14.24 g/m*3 18.5 C 0 km/h
243 06-07-2009 00:38:00 18.4 C 14.16 g/m*3 18.4 C 0 km/h
244 06-07-2009 00:49:00 18.7 C 14.57 g/m*3 18.7 C 0 km/h
245 06-07-2009 01:01:00 18.5 C 14.4 g/m*3 18.5 C 0 km/h
246 06-07-2009 01:13:00 18.6 C 14.64 g/m*3 18.6 C 0 km/h
247 06-07-2009 01:25:00 18.8 C 14.82 g/m*3 18.8 C 0 km/h
248 06-07-2009 01:37:00 18.8 C 14.82 g/m*3 18.8 C 0 km/h
249 06-07-2009 01:49:00 18.8 C 14.82 g/m*3 18.8 C 0 km/h
250 06-07-2009 02:01:00 18.6 C 14.64 g/m*3 18.6 C 0 km/h
Sensor: Nr:Datum:Temp:Abs-Feuchte:Windchill:Wind:
Aussen-T/F 251 06-07-2009 02:13:00 18.3 C 14.23 g/m*3 18.3 C 0 km/h
252 06-07-2009 02:25:00 18.3 C 14.23 g/m*3 18.3 C 0 km/h
253 06-07-2009 02:37:00 18.4 C 14.16 g/m*3 18.4 C 0 km/h
254 06-07-2009 02:49:00 18.5 C 14.24 g/m*3 18.5 C 0 km/h
255 06-07-2009 03:01:00 18.6 C 14.17 g/m*3 18.6 C 0 km/h
256 06-07-2009 03:13:00 18.5 C 13.77 g/m*3 18.5 C 0 km/h
257 06-07-2009 03:25:00 18.3 C 13.6 g/m*3 18.3 C 0 km/h
258 06-07-2009 03:37:00 18 C 13.52 g/m*3 18 C 0 km/h
259 06-07-2009 03:49:00 17.8 C 13.66 g/m*3 17.8 C 0 km/h
260 06-07-2009 04:01:01 17.7 C 13.58 g/m*3 17.7 C 0 km/h
261 06-07-2009 04:13:01 17.6 C 13.5 g/m*3 17.6 C 0 km/h
262 06-07-2009 04:25:01 17.7 C 13.58 g/m*3 17.7 C 0 km/h
263 06-07-2009 04:37:01 17.6 C 13.5 g/m*3 17.6 C 0 km/h
264 06-07-2009 04:49:01 17.6 C 13.5 g/m*3 17.6 C 0 km/h
265 06-07-2009 05:01:01 17.5 C 13.42 g/m*3 17.5 C 0 km/h
266 06-07-2009 05:13:01 17.5 C 13.42 g/m*3 17.5 C 0 km/h
267 06-07-2009 05:25:01 17.5 C 13.27 g/m*3 17.5 C 0 km/h
268 06-07-2009 05:37:01 17.5 C 13.12 g/m*3 17.5 C 0 km/h
269 06-07-2009 05:49:01 17.4 C 13.04 g/m*3 17.4 C 0 km/h
270 06-07-2009 06:01:01 17.3 C 12.96 g/m*3 17.3 C 0 km/h
271 06-07-2009 06:13:01 17.4 C 13.04 g/m*3 17.4 C 0 km/h
272 06-07-2009 06:25:01 17.4 C 13.04 g/m*3 17.4 C 0 km/h
273 06-07-2009 06:37:01 17.3 C 12.96 g/m*3 17.3 C 0 km/h
274 06-07-2009 06:49:01 17.4 C 13.04 g/m*3 17.4 C 0 km/h
275 06-07-2009 07:01:59 17.7 C 13.28 g/m*3 17.7 C 0 km/h
Sensor: Nr:Datum:Temp:Abs-Feuchte:Windchill:Wind:
Aussen-T/F 276 06-07-2009 07:13:59 18 C 13.36 g/m*3 18 C 0 km/h
277 06-07-2009 07:25:59 18.7 C 13.77 g/m*3 18.7 C 0 km/h
278 06-07-2009 07:37:59 18.6 C 13.37 g/m*3 18.6 C 0 km/h
279 06-07-2009 07:49:58 19 C 13.53 g/m*3 19 C 0 km/h
280 06-07-2009 08:01:59 18.6 C 12.73 g/m*3 18.6 C 0 km/h
281 06-07-2009 08:13:59 18.7 C 12.97 g/m*3 18.7 C 0 km/h
282 06-07-2009 08:25:58 18.7 C 12.81 g/m*3 18.7 C 0 km/h
283 06-07-2009 08:37:58 19 C 12.71 g/m*3 19 C 0 km/h
284 06-07-2009 08:49:58 19.7 C 13.08 g/m*3 19.7 C 0 km/h
285 06-07-2009 09:01:58 20.5 C 12.46 g/m*3 20.5 C 0 km/h
286 06-07-2009 09:13:58 20.8 C 11.77 g/m*3 20.8 C 0 km/h
287 06-07-2009 09:25:58 21.1 C 11.98 g/m*3 21.1 C 0 km/h
288 06-07-2009 09:37:57 21.2 C 11.12 g/m*3 21.2 C 0 km/h
289 06-07-2009 09:49:58 21.9 C 11.19 g/m*3 21.9 C 0 km/h
290 06-07-2009 10:01:57 22.6 C 10.04 g/m*3 22.6 C 0 km/h
291 06-07-2009 10:13:57 22.8 C 10.16 g/m*3 22.8 C 0 km/h
292 06-07-2009 10:25:57 23 C 9.45 g/m*3 23 C 0 km/h
293 06-07-2009 10:37:57 24.1 C 10.06 g/m*3 24.1 C 0 km/h
294 06-07-2009 10:49:57 25.2 C 9.78 g/m*3 25.2 C 0 km/h
295 06-07-2009 11:01:56 25.3 C 8.66 g/m*3 25.3 C 0 km/h
296 06-07-2009 11:13:56 26 C 9.74 g/m*3 26 C 0 km/h
297 06-07-2009 11:25:57 25.4 C 8.95 g/m*3 25.4 C 0 km/h
298 06-07-2009 11:37:57 26.4 C 9.21 g/m*3 26.4 C 0 km/h
299 06-07-2009 11:49:56 26.8 C 9.16 g/m*3 26.8 C 0 km/h
300 06-07-2009 12:01:56 28.6 C 8.71 g/m*3 28.6 C 0 km/h
Sensor: Nr:Datum:Temp:Abs-Feuchte:Windchill:Wind:
Aussen-T/F 301 06-07-2009 12:13:56 27.6 C 7.45 g/m*3 27.6 C 0 km/h
302 06-07-2009 12:25:02 26.3 C 8.66 g/m*3 26.3 C 0 km/h
303 06-07-2009 12:37:02 24.3 C 9.52 g/m*3 24.3 C 0 km/h
304 06-07-2009 12:49:01 21.2 C 11.12 g/m*3 21.2 C 0 km/h
305 06-07-2009 13:01:01 21 C 11.91 g/m*3 21 C 0 km/h
306 06-07-2009 13:13:01 22.3 C 11.26 g/m*3 22.3 C 0 km/h
307 06-07-2009 13:25:01 24.7 C 10.41 g/m*3 24.7 C 0 km/h
308 06-07-2009 13:37:01 25.2 C 9.78 g/m*3 25.2 C 0 km/h
309 06-07-2009 13:49:01 25.1 C 8.57 g/m*3 25.1 C 0 km/h
310 06-07-2009 14:01:01 26.7 C 8.86 g/m*3 26.7 C 0 km/h
311 06-07-2009 14:13:01 26.6 C 8.05 g/m*3 26.6 C 0 km/h
312 06-07-2009 14:25:01 26.3 C 8.66 g/m*3 26.3 C 0 km/h
313 06-07-2009 14:37:00 26.6 C 8.81 g/m*3 26.6 C 0 km/h
314 06-07-2009 14:49:01 27.9 C 9.2 g/m*3 27.9 C 0 km/h
315 06-07-2009 15:01:00 28.5 C 8.94 g/m*3 28.5 C 0 km/h
316 06-07-2009 15:13:00 28.2 C 7.97 g/m*3 28.2 C 0 km/h
317 06-07-2009 15:25:00 28.4 C 8.34 g/m*3 28.4 C 0 km/h
318 06-07-2009 15:37:00 29 C 7.47 g/m*3 29 C 0 km/h
319 06-07-2009 15:49:00 29 C 6.61 g/m*3 29 C 0 km/h
320 06-07-2009 16:01:00 29.1 C 6.64 g/m*3 29.1 C 0 km/h
321 06-07-2009 16:13:00 28.8 C 6.82 g/m*3 28.8 C 0 km/h
322 06-07-2009 16:25:59 26.5 C 7.76 g/m*3 26.5 C 0 km/h
323 06-07-2009 16:37:00 23.6 C 8.51 g/m*3 23.6 C 0 km/h
324 06-07-2009 16:49:59 23.9 C 8.65 g/m*3 23.9 C 0 km/h
325 06-07-2009 17:01:59 24.8 C 8.65 g/m*3 24.8 C 0 km/h
Sensor: Nr:Datum:Temp:Abs-Feuchte:Windchill:Wind:
Aussen-T/F 326 06-07-2009 17:13:59 25.5 C 8.29 g/m*3 25.5 C 0 km/h
327 06-07-2009 17:25:59 26.5 C 8.26 g/m*3 26.5 C 0 km/h
328 06-07-2009 17:37:59 26.8 C 8.14 g/m*3 26.8 C 0 km/h
329 06-07-2009 17:49:58 27.5 C 7.94 g/m*3 27.5 C 0 km/h
330 06-07-2009 18:01:58 27.4 C 8.95 g/m*3 27.4 C 0 km/h
331 06-07-2009 18:13:58 26.7 C 8.86 g/m*3 26.7 C 0 km/h
332 06-07-2009 18:25:59 27.6 C 9.04 g/m*3 27.6 C 0 km/h
333 06-07-2009 18:37:58 28.1 C 8.75 g/m*3 28.1 C 0 km/h
334 06-07-2009 18:49:58 28 C 8.43 g/m*3 28 C 0 km/h
335 06-07-2009 19:01:58 29.3 C 8.76 g/m*3 29.3 C 0 km/h
336 06-07-2009 19:13:58 28.6 C 8.71 g/m*3 28.6 C 0 km/h
337 06-07-2009 19:25:58 27.9 C 9.2 g/m*3 27.9 C 0 km/h
338 06-07-2009 19:37:58 26.8 C 9.67 g/m*3 26.8 C 0 km/h
339 06-07-2009 19:49:57 25.2 C 8.15 g/m*3 25.2 C 0 km/h
340 06-07-2009 20:01:58 24.4 C 8.23 g/m*3 24.4 C 0 km/h
341 06-07-2009 20:13:58 23.7 C 8.13 g/m*3 23.7 C 0 km/h
342 06-07-2009 20:25:57 23.3 C 8.78 g/m*3 23.3 C 0 km/h
343 06-07-2009 20:37:57 21.3 C 9.69 g/m*3 21.3 C 0 km/h
344 06-07-2009 20:49:57 19.9 C 11.51 g/m*3 19.9 C 0 km/h
345 06-07-2009 21:01:56 18.6 C 11.62 g/m*3 18.6 C 0 km/h
346 06-07-2009 21:13:56 18.5 C 12.34 g/m*3 18.5 C 0 km/h
347 06-07-2009 21:25:57 18.4 C 12.27 g/m*3 18.4 C 0 km/h
348 06-07-2009 21:37:57 18.5 C 12.18 g/m*3 18.5 C 0 km/h
349 06-07-2009 21:49:56 18.8 C 11.76 g/m*3 18.8 C 0 km/h
350 06-07-2009 22:01:57 18.4 C 11.8 g/m*3 18.4 C 0 km/h
Sensor: Nr:Datum:Temp:Abs-Feuchte:Windchill:Wind:
Aussen-T/F 351 06-07-2009 22:13:57 18.2 C 11.35 g/m*3 18.2 C 0 km/h
352 06-07-2009 22:25:56 18 C 11.21 g/m*3 18 C 0 km/h
353 06-07-2009 22:37:56 17.9 C 11.45 g/m*3 17.9 C 0 km/h
354 06-07-2009 22:49:56 17.5 C 11.48 g/m*3 17.5 C 0 km/h
355 06-07-2009 23:01:56 17.4 C 11.41 g/m*3 17.4 C 0 km/h
356 06-07-2009 23:13:56 17.5 C 11.48 g/m*3 17.5 C 0 km/h
357 06-07-2009 23:26:56 17.9 C 11.3 g/m*3 17.9 C 0 km/h
358 06-07-2009 23:38:56 18 C 11.21 g/m*3 18 C 0 km/h
359 06-07-2009 23:50:56 17.8 C 11.69 g/m*3 17.8 C 0 km/h
360 07-07-2009 00:02:56 17.5 C 11.93 g/m*3 17.5 C 0 km/h
361 07-07-2009 00:14:56 17.5 C 11.93 g/m*3 17.5 C 0 km/h
362 07-07-2009 00:26:56 17.5 C 11.93 g/m*3 17.5 C 0 km/h
363 07-07-2009 00:38:56 17.5 C 11.78 g/m*3 17.5 C 0 km/h
364 07-07-2009 00:50:56 17.5 C 11.78 g/m*3 17.5 C 0 km/h
365 07-07-2009 01:02:56 17.6 C 11.85 g/m*3 17.6 C 0 km/h
366 07-07-2009 01:14:56 17.6 C 11.7 g/m*3 17.6 C 0 km/h
367 07-07-2009 01:26:56 17.6 C 11.7 g/m*3 17.6 C 0 km/h
368 07-07-2009 01:38:57 17.7 C 11.62 g/m*3 17.7 C 0 km/h
369 07-07-2009 01:50:57 17.5 C 11.48 g/m*3 17.5 C 0 km/h
370 07-07-2009 02:02:57 17.3 C 11.34 g/m*3 17.3 C 0 km/h
371 07-07-2009 02:14:57 17.2 C 11.42 g/m*3 17.2 C 0 km/h
372 07-07-2009 02:26:57 16.8 C 11.29 g/m*3 16.8 C 0 km/h
373 07-07-2009 02:38:57 16.8 C 11.58 g/m*3 16.8 C 0 km/h
374 07-07-2009 02:50:57 16.8 C 11.72 g/m*3 16.8 C 0 km/h
375 07-07-2009 03:02:57 16.8 C 11.58 g/m*3 16.8 C 0 km/h
Sensor: Nr:Datum:Temp:Abs-Feuchte:Windchill:Wind:
Aussen-T/F 376 07-07-2009 03:14:57 16.8 C 11.58 g/m*3 16.8 C 0 km/h
377 07-07-2009 03:26:57 16.8 C 11.58 g/m*3 16.8 C 0 km/h
378 07-07-2009 03:38:57 16.8 C 11.72 g/m*3 16.8 C 0 km/h
379 07-07-2009 03:50:57 16.7 C 11.65 g/m*3 16.7 C 0 km/h
380 07-07-2009 04:02:57 16.8 C 11.72 g/m*3 16.8 C 0 km/h
381 07-07-2009 04:14:57 16.8 C 11.72 g/m*3 16.8 C 0 km/h
382 07-07-2009 04:26:57 16.7 C 11.65 g/m*3 16.7 C 0 km/h
383 07-07-2009 04:38:57 16.6 C 11.44 g/m*3 16.6 C 0 km/h
384 07-07-2009 04:50:57 16.2 C 11.31 g/m*3 16.2 C 0 km/h
385 07-07-2009 05:02:57 16 C 11.17 g/m*3 16 C 0 km/h
386 07-07-2009 05:14:57 16 C 11.31 g/m*3 16 C 0 km/h
387 07-07-2009 05:26:58 16.1 C 11.65 g/m*3 16.1 C 0 km/h
388 07-07-2009 05:38:58 16.1 C 11.51 g/m*3 16.1 C 0 km/h
389 07-07-2009 05:50:58 16 C 11.44 g/m*3 16 C 0 km/h
390 07-07-2009 06:02:58 16 C 11.44 g/m*3 16 C 0 km/h
391 07-07-2009 06:14:58 15.9 C 11.38 g/m*3 15.9 C 0 km/h
392 07-07-2009 06:26:58 16 C 11.31 g/m*3 16 C 0 km/h
393 07-07-2009 06:38:58 16.2 C 11.31 g/m*3 16.2 C 0 km/h
394 07-07-2009 06:50:56 16.4 C 11.31 g/m*3 16.4 C 0 km/h
395 07-07-2009 07:02:57 16.4 C 11.31 g/m*3 16.4 C 0 km/h
396 07-07-2009 07:14:56 16.6 C 11.44 g/m*3 16.6 C 0 km/h
397 07-07-2009 07:26:56 16.2 C 11.31 g/m*3 16.2 C 0 km/h
398 07-07-2009 07:38:56 16 C 11.44 g/m*3 16 C 0 km/h
399 07-07-2009 07:50:56 16 C 11.44 g/m*3 16 C 0 km/h
400 07-07-2009 08:02:56 16.4 C 11.72 g/m*3 16.4 C 0 km/h
Sensor: Nr:Datum:Temp:Abs-Feuchte:Windchill:Wind:
Aussen-T/F 401 07-07-2009 08:14:56 17 C 11.72 g/m*3 17 C 0 km/h
402 07-07-2009 08:26:56 17.5 C 11.48 g/m*3 17.5 C 0 km/h
403 07-07-2009 08:38:55 17.7 C 11.62 g/m*3 17.7 C 0 km/h
404 07-07-2009 08:50:55 17.7 C 11.01 g/m*3 17.7 C 0 km/h
405 07-07-2009 09:02:55 17.9 C 10.99 g/m*3 17.9 C 0 km/h
406 07-07-2009 09:14:55 17.3 C 10.75 g/m*3 17.3 C 0 km/h
407 07-07-2009 09:26:55 17.4 C 10.97 g/m*3 17.4 C 0 km/h
408 07-07-2009 09:38:55 18 C 10.75 g/m*3 18 C 0 km/h
409 07-07-2009 09:50:55 18.4 C 10.54 g/m*3 18.4 C 0 km/h
410 07-07-2009 10:02:55 18.2 C 10.1 g/m*3 18.2 C 0 km/h
411 07-07-2009 10:14:54 17.9 C 10.38 g/m*3 17.9 C 0 km/h
412 07-07-2009 10:26:54 18.2 C 10.1 g/m*3 18.2 C 0 km/h
413 07-07-2009 10:38:54 18 C 9.68 g/m*3 18 C 0 km/h
414 07-07-2009 10:50:54 18.6 C 9.87 g/m*3 18.6 C 0 km/h
415 07-07-2009 11:02:54 19.1 C 9.84 g/m*3 19.1 C 0 km/h
416 07-07-2009 11:14:53 19.7 C 9.68 g/m*3 19.7 C 0 km/h
417 07-07-2009 11:26:53 20.1 C 9.39 g/m*3 20.1 C 0 km/h
418 07-07-2009 11:38:54 20.7 C 9 g/m*3 20.7 C 0 km/h
419 07-07-2009 11:50:53 20.2 C 9.09 g/m*3 20.2 C 0 km/h
420 07-07-2009 12:02:53 20.5 C 8.54 g/m*3 20.5 C 0 km/h
421 07-07-2009 12:14:54 20 C 8.64 g/m*3 20 C 0 km/h
422 07-07-2009 12:26:54 18.8 C 9.99 g/m*3 18.8 C 0 km/h
423 07-07-2009 12:38:53 19.1 C 10.33 g/m*3 19.1 C 0 km/h
424 07-07-2009 12:50:53 19.9 C 9.62 g/m*3 19.9 C 0 km/h
425 07-07-2009 13:02:52 20.5 C 9.07 g/m*3 20.5 C 0 km/h
Sensor: Nr:Datum:Temp:Abs-Feuchte:Windchill:Wind:
Aussen-T/F 426 07-07-2009 13:14:53 22.4 C 8.34 g/m*3 22.4 C 0 km/h
427 07-07-2009 13:26:53 23 C 7.6 g/m*3 23 C 0 km/h
428 07-07-2009 13:38:53 22.8 C 8.13 g/m*3 22.8 C 0 km/h
429 07-07-2009 13:50:52 23.5 C 7.4 g/m*3 23.5 C 0 km/h
430 07-07-2009 14:02:53 22.5 C 7.39 g/m*3 22.5 C 0 km/h
431 07-07-2009 14:14:52 23.2 C 6.65 g/m*3 23.2 C 0 km/h
432 07-07-2009 14:26:52 23.3 C 7.11 g/m*3 23.3 C 0 km/h
433 07-07-2009 14:38:52 23.3 C 7.32 g/m*3 23.3 C 0 km/h
434 07-07-2009 14:50:52 23.5 C 7.19 g/m*3 23.5 C 0 km/h
435 07-07-2009 15:02:52 24 C 6.96 g/m*3 24 C 0 km/h
436 07-07-2009 15:14:51 23.9 C 6.92 g/m*3 23.9 C 0 km/h
437 07-07-2009 15:26:51 23.3 C 6.27 g/m*3 23.3 C 0 km/h
438 07-07-2009 15:38:51 23.1 C 6.82 g/m*3 23.1 C 0 km/h
439 07-07-2009 15:50:51 23.5 C 6.77 g/m*3 23.5 C 0 km/h
440 07-07-2009 16:02:51 23.3 C 6.48 g/m*3 23.3 C 0 km/h
441 07-07-2009 16:14:51 21.7 C 6.29 g/m*3 21.7 C 0 km/h
442 07-07-2009 16:26:51 21.5 C 6.6 g/m*3 21.5 C 0 km/h
443 07-07-2009 16:38:51 22 C 6.79 g/m*3 22 C 0 km/h
444 07-07-2009 16:50:51 23.5 C 6.56 g/m*3 23.5 C 0 km/h
445 07-07-2009 17:02:50 24.3 C 6.2 g/m*3 24.3 C 0 km/h
446 07-07-2009 17:14:50 24.4 C 6.68 g/m*3 24.4 C 0 km/h
447 07-07-2009 17:26:50 24.3 C 6.64 g/m*3 24.3 C 0 km/h
448 07-07-2009 17:38:51 24.9 C 6.87 g/m*3 24.9 C 0 km/h
449 07-07-2009 17:50:50 25.2 C 6.98 g/m*3 25.2 C 0 km/h
450 07-07-2009 18:02:50 23 C 6.99 g/m*3 23 C 0 km/h
Sensor: Nr:Datum:Temp:Abs-Feuchte:Windchill:Wind:
Aussen-T/F 451 07-07-2009 18:14:50 22.2 C 6.87 g/m*3 22.2 C 0 km/h
452 07-07-2009 18:26:50 23.8 C 7.31 g/m*3 23.8 C 0 km/h
453 07-07-2009 18:38:50 23.8 C 6.88 g/m*3 23.8 C 0 km/h
454 07-07-2009 18:50:49 23.2 C 7.07 g/m*3 23.2 C 0 km/h
455 07-07-2009 19:02:50 24.4 C 6.9 g/m*3 24.4 C 0 km/h
456 07-07-2009 19:14:49 24.1 C 6.78 g/m*3 24.1 C 0 km/h
457 07-07-2009 19:26:49 23.7 C 6.84 g/m*3 23.7 C 0 km/h
458 07-07-2009 19:38:49 22.7 C 7.07 g/m*3 22.7 C 0 km/h
459 07-07-2009 19:50:48 21.6 C 7.4 g/m*3 21.6 C 0 km/h
460 07-07-2009 20:02:49 18.1 C 7.26 g/m*3 18.1 C 0 km/h
461 07-07-2009 20:14:49 15.6 C 10.37 g/m*3 15.6 C 0 km/h
462 07-07-2009 20:26:49 15.4 C 10.64 g/m*3 15.4 C 0 km/h
463 07-07-2009 20:38:48 15.6 C 10.64 g/m*3 15.6 C 0 km/h
464 07-07-2009 20:50:49 16.2 C 10.62 g/m*3 16.2 C 0 km/h
465 07-07-2009 21:02:48 16.5 C 10.81 g/m*3 16.5 C 0 km/h
466 07-07-2009 21:14:48 16.4 C 10.33 g/m*3 16.4 C 0 km/h
467 07-07-2009 21:26:48 16.1 C 10.14 g/m*3 16.1 C 0 km/h
468 07-07-2009 21:38:48 15.8 C 9.83 g/m*3 15.8 C 0 km/h
469 07-07-2009 21:50:48 15.5 C 9.78 g/m*3 15.5 C 0 km/h
470 07-07-2009 22:02:47 15 C 9.49 g/m*3 15 C 0 km/h
471 07-07-2009 22:14:47 14.8 C 9.5 g/m*3 14.8 C 0 km/h
472 07-07-2009 22:26:47 14.7 C 9.44 g/m*3 14.7 C 0 km/h
473 07-07-2009 22:38:48 14.4 C 9.39 g/m*3 14.4 C 0 km/h
474 07-07-2009 22:50:47 14.1 C 9.22 g/m*3 14.1 C 0 km/h
475 07-07-2009 23:03:49 14 C 9.29 g/m*3 14 C 0 km/h
Sensor: Nr:Datum:Temp:Abs-Feuchte:Windchill:Wind:
Aussen-T/F 476 07-07-2009 23:15:49 14 C 9.41 g/m*3 14 C 0 km/h
477 07-07-2009 23:27:49 14.1 C 9.47 g/m*3 14.1 C 0 km/h
478 07-07-2009 23:39:49 14.1 C 9.47 g/m*3 14.1 C 0 km/h
479 07-07-2009 23:51:49 14.1 C 9.47 g/m*3 14.1 C 0 km/h
480 08-07-2009 00:03:49 14.3 C 9.46 g/m*3 14.3 C 0 km/h
481 08-07-2009 00:15:49 14.4 C 9.39 g/m*3 14.4 C 0 km/h
482 08-07-2009 00:27:49 14.4 C 9.27 g/m*3 14.4 C 0 km/h
483 08-07-2009 00:39:49 14.5 C 9.33 g/m*3 14.5 C 0 km/h
484 08-07-2009 00:51:49 14.7 C 9.32 g/m*3 14.7 C 0 km/h
485 08-07-2009 01:03:50 14.7 C 9.57 g/m*3 14.7 C 0 km/h
486 08-07-2009 01:15:50 14.5 C 9.58 g/m*3 14.5 C 0 km/h
487 08-07-2009 01:27:50 14.8 C 9.63 g/m*3 14.8 C 0 km/h
488 08-07-2009 01:39:50 14.8 C 9.5 g/m*3 14.8 C 0 km/h
489 08-07-2009 01:51:50 14.9 C 9.43 g/m*3 14.9 C 0 km/h
490 08-07-2009 02:03:50 15 C 9.23 g/m*3 15 C 0 km/h
491 08-07-2009 02:15:50 15 C 9.1 g/m*3 15 C 0 km/h
492 08-07-2009 02:27:50 15.1 C 9.16 g/m*3 15.1 C 0 km/h
493 08-07-2009 02:39:50 15.2 C 9.22 g/m*3 15.2 C 0 km/h
494 08-07-2009 02:51:50 15.2 C 9.22 g/m*3 15.2 C 0 km/h
495 08-07-2009 03:03:50 15.1 C 9.29 g/m*3 15.1 C 0 km/h
496 08-07-2009 03:15:50 14.4 C 9.77 g/m*3 14.4 C 0 km/h
497 08-07-2009 03:27:50 14.5 C 10.07 g/m*3 14.5 C 0 km/h
498 08-07-2009 03:39:50 14.5 C 10.07 g/m*3 14.5 C 0 km/h
499 08-07-2009 03:51:50 14.5 C 10.07 g/m*3 14.5 C 0 km/h
500 08-07-2009 04:03:50 14.2 C 10.01 g/m*3 14.2 C 0 km/h
Sensor: Nr:Datum:Temp:Abs-Feuchte:Windchill:Wind:
Aussen-T/F 501 08-07-2009 04:15:50 14 C 10.13 g/m*3 14 C 0 km/h
502 08-07-2009 04:27:50 13.9 C 10.19 g/m*3 13.9 C 0 km/h
503 08-07-2009 04:39:50 14 C 10.25 g/m*3 14 C 0 km/h
504 08-07-2009 04:51:51 13.7 C 10.3 g/m*3 13.7 C 0 km/h
505 08-07-2009 05:03:51 13.6 C 10.36 g/m*3 13.6 C 0 km/h
506 08-07-2009 05:15:51 13.7 C 10.42 g/m*3 13.7 C 0 km/h
507 08-07-2009 05:27:51 13.9 C 10.43 g/m*3 13.9 C 0 km/h
508 08-07-2009 05:39:51 14 C 10.13 g/m*3 14 C 0 km/h
509 08-07-2009 05:51:51 14 C 10.13 g/m*3 14 C 0 km/h
510 08-07-2009 06:03:51 13.8 C 10.13 g/m*3 13.8 C 0 km/h
511 08-07-2009 06:15:51 13.7 C 10.3 g/m*3 13.7 C 0 km/h
512 08-07-2009 06:27:51 13.6 C 10.36 g/m*3 13.6 C 0 km/h
513 08-07-2009 06:39:51 13.7 C 10.3 g/m*3 13.7 C 0 km/h
514 08-07-2009 06:51:51 14 C 10.49 g/m*3 14 C 0 km/h
515 08-07-2009 07:03:49 14.2 C 10.5 g/m*3 14.2 C 0 km/h
516 08-07-2009 07:15:48 14.4 C 10.38 g/m*3 14.4 C 0 km/h
517 08-07-2009 07:27:48 14.6 C 10.26 g/m*3 14.6 C 0 km/h
518 08-07-2009 07:39:49 14.7 C 10.2 g/m*3 14.7 C 0 km/h
519 08-07-2009 07:51:49 14.9 C 10.2 g/m*3 14.9 C 0 km/h
520 08-07-2009 08:03:49 15.2 C 10.38 g/m*3 15.2 C 0 km/h
521 08-07-2009 08:15:48 15.2 C 10.25 g/m*3 15.2 C 0 km/h
522 08-07-2009 08:27:48 15.2 C 10.25 g/m*3 15.2 C 0 km/h
523 08-07-2009 08:39:48 14.9 C 10.45 g/m*3 14.9 C 0 km/h
524 08-07-2009 08:51:48 15 C 10.39 g/m*3 15 C 0 km/h
525 08-07-2009 09:03:48 15 C 10.51 g/m*3 15 C 0 km/h
Sensor: Nr:Datum:Temp:Abs-Feuchte:Windchill:Wind:
Aussen-T/F 526 08-07-2009 09:15:47 16 C 10.63 g/m*3 16 C 0 km/h
527 08-07-2009 09:27:47 16.6 C 10.59 g/m*3 16.6 C 0 km/h
528 08-07-2009 09:39:48 17 C 10.56 g/m*3 17 C 0 km/h
529 08-07-2009 09:51:47 17 C 10.13 g/m*3 17 C 0 km/h
530 08-07-2009 10:03:47 16.7 C 10.09 g/m*3 16.7 C 0 km/h
531 08-07-2009 10:15:47 17.2 C 9.81 g/m*3 17.2 C 0 km/h
532 08-07-2009 10:27:47 16.8 C 9.87 g/m*3 16.8 C 0 km/h
533 08-07-2009 10:39:47 16.4 C 10.05 g/m*3 16.4 C 0 km/h
534 08-07-2009 10:51:47 16.6 C 10.31 g/m*3 16.6 C 0 km/h
535 08-07-2009 11:03:46 17 C 10.56 g/m*3 17 C 0 km/h
536 08-07-2009 11:15:47 18.1 C 10.2 g/m*3 18.1 C 0 km/h
537 08-07-2009 11:27:47 18.5 C 9.97 g/m*3 18.5 C 0 km/h
538 08-07-2009 11:39:47 18.1 C 10.51 g/m*3 18.1 C 0 km/h
539 08-07-2009 11:51:46 19.2 C 10.06 g/m*3 19.2 C 0 km/h
540 08-07-2009 12:03:46 18.7 C 9.77 g/m*3 18.7 C 0 km/h
541 08-07-2009 12:15:46 20 C 9.85 g/m*3 20 C 0 km/h
542 08-07-2009 12:27:46 22 C 9.12 g/m*3 22 C 0 km/h
543 08-07-2009 12:39:46 21.4 C 8.81 g/m*3 21.4 C 0 km/h
544 08-07-2009 12:51:45 21.5 C 8.49 g/m*3 21.5 C 0 km/h
545 08-07-2009 13:03:46 22 C 8.15 g/m*3 22 C 0 km/h
546 08-07-2009 13:15:45 22.7 C 7.88 g/m*3 22.7 C 0 km/h
547 08-07-2009 13:27:45 17 C 6.8 g/m*3 17 C 0 km/h
548 08-07-2009 13:39:45 14.7 C 10.07 g/m*3 14.7 C 0 km/h
549 08-07-2009 13:51:45 15.4 C 10.77 g/m*3 15.4 C 0 km/h
550 08-07-2009 14:03:45 15.9 C 10.56 g/m*3 15.9 C 0 km/h
Sensor: Nr:Datum:Temp:Abs-Feuchte:Windchill:Wind:
Aussen-T/F 551 08-07-2009 14:15:45 16.5 C 10.53 g/m*3 16.5 C 0 km/h
552 08-07-2009 14:27:45 16.8 C 10.44 g/m*3 16.8 C 0 km/h
553 08-07-2009 14:39:44 16.7 C 11.08 g/m*3 16.7 C 0 km/h
554 08-07-2009 14:51:45 17.7 C 11.32 g/m*3 17.7 C 0 km/h
555 08-07-2009 15:03:44 17.7 C 10.71 g/m*3 17.7 C 0 km/h
556 08-07-2009 15:15:44 16.8 C 10.29 g/m*3 16.8 C 0 km/h
557 08-07-2009 15:27:44 16.2 C 10.2 g/m*3 16.2 C 0 km/h
558 08-07-2009 15:39:45 17.9 C 10.38 g/m*3 17.9 C 0 km/h
559 08-07-2009 15:51:44 19 C 9.29 g/m*3 19 C 0 km/h
560 08-07-2009 16:03:44 20 C 9.51 g/m*3 20 C 0 km/h
561 08-07-2009 16:15:43 20.4 C 9.2 g/m*3 20.4 C 0 km/h
562 08-07-2009 16:27:43 19.6 C 8.44 g/m*3 19.6 C 0 km/h
563 08-07-2009 16:39:44 19.5 C 7.55 g/m*3 19.5 C 0 km/h
564 08-07-2009 16:51:43 19.7 C 7.81 g/m*3 19.7 C 0 km/h
565 08-07-2009 17:03:43 19.5 C 8.22 g/m*3 19.5 C 0 km/h
566 08-07-2009 17:15:43 19 C 8.96 g/m*3 19 C 0 km/h
567 08-07-2009 17:27:43 18.7 C 9.45 g/m*3 18.7 C 0 km/h
568 08-07-2009 17:39:43 18.4 C 7.55 g/m*3 18.4 C 0 km/h
569 08-07-2009 17:51:43 18.3 C 7.82 g/m*3 18.3 C 0 km/h
570 08-07-2009 18:03:42 18.1 C 7.88 g/m*3 18.1 C 0 km/h
571 08-07-2009 18:15:43 17.7 C 8.3 g/m*3 17.7 C 0 km/h
572 08-07-2009 18:27:43 17.7 C 8.15 g/m*3 17.7 C 0 km/h
573 08-07-2009 18:39:42 17.7 C 8.3 g/m*3 17.7 C 0 km/h
574 08-07-2009 18:51:42 17.5 C 8.05 g/m*3 17.5 C 0 km/h
575 08-07-2009 19:03:42 17.3 C 8.1 g/m*3 17.3 C 0 km/h
Sensor: Nr:Datum:Temp:Abs-Feuchte:Windchill:Wind:
Aussen-T/F 576 08-07-2009 19:15:42 17.2 C 8.35 g/m*3 17.2 C 0 km/h
577 08-07-2009 19:27:42 17 C 8.39 g/m*3 17 C 0 km/h
578 08-07-2009 19:39:42 17.2 C 8.2 g/m*3 17.2 C 0 km/h
579 08-07-2009 19:51:42 17.1 C 8.3 g/m*3 17.1 C 0 km/h
580 08-07-2009 20:03:42 17 C 8.25 g/m*3 17 C 0 km/h
581 08-07-2009 20:15:41 16.8 C 8.58 g/m*3 16.8 C 0 km/h
582 08-07-2009 20:27:41 16.8 C 8.72 g/m*3 16.8 C 0 km/h
583 08-07-2009 20:39:41 16.7 C 8.67 g/m*3 16.7 C 0 km/h
584 08-07-2009 20:51:41 16.6 C 8.76 g/m*3 16.6 C 0 km/h
585 08-07-2009 21:03:41 16.5 C 8.85 g/m*3 16.5 C 0 km/h
586 08-07-2009 21:15:40 16.5 C 8.71 g/m*3 16.5 C 0 km/h
587 08-07-2009 21:27:40 16.5 C 8.71 g/m*3 16.5 C 0 km/h
588 08-07-2009 21:39:41 16.4 C 8.51 g/m*3 16.4 C 0 km/h
589 08-07-2009 21:51:40 16.4 C 8.65 g/m*3 16.4 C 0 km/h
590 08-07-2009 22:03:40 16.3 C 8.74 g/m*3 16.3 C 0 km/h
591 08-07-2009 22:15:40 16.2 C 8.83 g/m*3 16.2 C 0 km/h
592 08-07-2009 22:27:40 16.1 C 8.91 g/m*3 16.1 C 0 km/h
593 08-07-2009 22:39:40 16 C 8.99 g/m*3 16 C 0 km/h
594 08-07-2009 22:52:41 15.9 C 9.07 g/m*3 15.9 C 0 km/h
595 08-07-2009 23:04:41 15.9 C 9.21 g/m*3 15.9 C 0 km/h
596 08-07-2009 23:16:41 15.9 C 9.21 g/m*3 15.9 C 0 km/h
597 08-07-2009 23:28:41 15.8 C 9.15 g/m*3 15.8 C 0 km/h
598 08-07-2009 23:40:41 15.8 C 8.88 g/m*3 15.8 C 0 km/h
599 08-07-2009 23:52:41 15.7 C 8.83 g/m*3 15.7 C 0 km/h
600 09-07-2009 00:04:41 15.6 C 8.78 g/m*3 15.6 C 0 km/h
Sensor: Nr:Datum:Temp:Abs-Feuchte:Windchill:Wind:
Aussen-T/F 601 09-07-2009 00:16:41 15.6 C 8.78 g/m*3 15.6 C 0 km/h
602 09-07-2009 00:28:41 15.6 C 8.78 g/m*3 15.6 C 0 km/h
603 09-07-2009 00:40:41 15.5 C 8.99 g/m*3 15.5 C 0 km/h
604 09-07-2009 00:52:41 15.2 C 9.22 g/m*3 15.2 C 0 km/h
605 09-07-2009 01:04:41 14.8 C 9.5 g/m*3 14.8 C 0 km/h
606 09-07-2009 01:16:41 14.8 C 9.88 g/m*3 14.8 C 0 km/h
607 09-07-2009 01:28:42 14.5 C 9.83 g/m*3 14.5 C 0 km/h
608 09-07-2009 01:40:42 14.3 C 9.58 g/m*3 14.3 C 0 km/h
609 09-07-2009 01:52:42 13.8 C 9.53 g/m*3 13.8 C 0 km/h
610 09-07-2009 02:04:42 13.5 C 9.59 g/m*3 13.5 C 0 km/h
611 09-07-2009 02:16:42 13.2 C 9.53 g/m*3 13.2 C 0 km/h
612 09-07-2009 02:28:42 13.3 C 9.47 g/m*3 13.3 C 0 km/h
613 09-07-2009 02:40:42 13.5 C 9.36 g/m*3 13.5 C 0 km/h
614 09-07-2009 02:52:42 13.4 C 9.3 g/m*3 13.4 C 0 km/h
615 09-07-2009 03:04:42 13.4 C 9.42 g/m*3 13.4 C 0 km/h
616 09-07-2009 03:16:42 13.4 C 9.53 g/m*3 13.4 C 0 km/h
617 09-07-2009 03:28:42 13.4 C 9.53 g/m*3 13.4 C 0 km/h
618 09-07-2009 03:40:42 13.5 C 9.59 g/m*3 13.5 C 0 km/h
619 09-07-2009 03:52:42 13.5 C 9.71 g/m*3 13.5 C 0 km/h
620 09-07-2009 04:04:42 13.4 C 9.53 g/m*3 13.4 C 0 km/h
621 09-07-2009 04:16:42 13.4 C 9.53 g/m*3 13.4 C 0 km/h
622 09-07-2009 04:28:42 13.4 C 9.53 g/m*3 13.4 C 0 km/h
623 09-07-2009 04:40:42 13.3 C 9.47 g/m*3 13.3 C 0 km/h
624 09-07-2009 04:52:42 13.2 C 9.42 g/m*3 13.2 C 0 km/h
625 09-07-2009 05:04:42 13.2 C 9.3 g/m*3 13.2 C 0 km/h
Sensor: Nr:Datum:Temp:Abs-Feuchte:Windchill:Wind:
Aussen-T/F 626 09-07-2009 05:16:42 13.2 C 9.07 g/m*3 13.2 C 0 km/h
627 09-07-2009 05:28:42 13.1 C 8.9 g/m*3 13.1 C 0 km/h
628 09-07-2009 05:40:43 13.1 C 8.9 g/m*3 13.1 C 0 km/h
629 09-07-2009 05:52:43 13.1 C 8.67 g/m*3 13.1 C 0 km/h
630 09-07-2009 06:04:43 13.1 C 8.44 g/m*3 13.1 C 0 km/h
631 09-07-2009 06:16:43 13.2 C 8.38 g/m*3 13.2 C 0 km/h
632 09-07-2009 06:28:43 13.2 C 8.38 g/m*3 13.2 C 0 km/h
633 09-07-2009 06:40:43 13.3 C 8.43 g/m*3 13.3 C 0 km/h
634 09-07-2009 06:52:43 13.4 C 8.37 g/m*3 13.4 C 0 km/h
635 09-07-2009 07:04:40 13.5 C 8.54 g/m*3 13.5 C 0 km/h
636 09-07-2009 07:16:41 13.7 C 8.76 g/m*3 13.7 C 0 km/h
637 09-07-2009 07:28:41 13.6 C 8.71 g/m*3 13.6 C 0 km/h
638 09-07-2009 07:40:40 13.5 C 8.66 g/m*3 13.5 C 0 km/h
639 09-07-2009 07:52:40 13.6 C 8.83 g/m*3 13.6 C 0 km/h
640 09-07-2009 08:04:40 13.9 C 8.99 g/m*3 13.9 C 0 km/h
641 09-07-2009 08:16:40 14.3 C 9.09 g/m*3 14.3 C 0 km/h
642 09-07-2009 08:28:40 14.7 C 9.07 g/m*3 14.7 C 0 km/h
643 09-07-2009 08:40:39 15.1 C 8.9 g/m*3 15.1 C 0 km/h
644 09-07-2009 08:52:40 15.2 C 8.83 g/m*3 15.2 C 0 km/h
645 09-07-2009 09:04:39 15.1 C 8.64 g/m*3 15.1 C 0 km/h
646 09-07-2009 09:16:39 14.4 C 8.78 g/m*3 14.4 C 0 km/h
647 09-07-2009 09:28:39 14.1 C 8.74 g/m*3 14.1 C 0 km/h
648 09-07-2009 09:40:39 14.2 C 8.67 g/m*3 14.2 C 0 km/h
649 09-07-2009 09:52:39 14.8 C 8.74 g/m*3 14.8 C 0 km/h
650 09-07-2009 10:04:39 15 C 8.59 g/m*3 15 C 0 km/h
Sensor: Nr:Datum:Temp:Abs-Feuchte:Windchill:Wind:
Aussen-T/F 651 09-07-2009 10:16:38 15.5 C 8.59 g/m*3 15.5 C 0 km/h
652 09-07-2009 10:28:38 16.1 C 8.36 g/m*3 16.1 C 0 km/h
653 09-07-2009 10:40:39 16.8 C 7.72 g/m*3 16.8 C 0 km/h
654 09-07-2009 10:52:38 16.8 C 7.43 g/m*3 16.8 C 0 km/h
655 09-07-2009 11:04:38 16.7 C 6.82 g/m*3 16.7 C 0 km/h
656 09-07-2009 11:16:38 17.1 C 6.99 g/m*3 17.1 C 0 km/h
657 09-07-2009 11:28:38 17.1 C 6.7 g/m*3 17.1 C 0 km/h
658 09-07-2009 11:40:38 17.6 C 6.75 g/m*3 17.6 C 0 km/h
659 09-07-2009 11:52:38 18.7 C 6.24 g/m*3 18.7 C 0 km/h
660 09-07-2009 12:04:37 19.6 C 6.25 g/m*3 19.6 C 0 km/h
661 09-07-2009 12:16:38 20.5 C 6.05 g/m*3 20.5 C 0 km/h
662 09-07-2009 12:28:38 20.3 C 6.16 g/m*3 20.3 C 0 km/h
663 09-07-2009 12:40:37 19.9 C 5.84 g/m*3 19.9 C 0 km/h
664 09-07-2009 12:52:37 19.1 C 6.07 g/m*3 19.1 C 0 km/h
665 09-07-2009 13:04:37 18.7 C 5.92 g/m*3 18.7 C 0 km/h
666 09-07-2009 13:16:37 20.3 C 7.21 g/m*3 20.3 C 0 km/h
667 09-07-2009 13:28:37 22.5 C 5.79 g/m*3 22.5 C 0 km/h
668 09-07-2009 13:40:37 20.9 C 5.65 g/m*3 20.9 C 0 km/h
669 09-07-2009 13:52:37 20.8 C 6.34 g/m*3 20.8 C 0 km/h
670 09-07-2009 14:04:37 21.7 C 5.53 g/m*3 21.7 C 0 km/h
671 09-07-2009 14:16:36 21.3 C 5.59 g/m*3 21.3 C 0 km/h
672 09-07-2009 14:28:36 21.5 C 5.66 g/m*3 21.5 C 0 km/h
673 09-07-2009 14:40:36 21.9 C 6.18 g/m*3 21.9 C 0 km/h
674 09-07-2009 14:52:36 21.4 C 5.81 g/m*3 21.4 C 0 km/h
675 09-07-2009 15:04:36 21.2 C 5.74 g/m*3 21.2 C 0 km/h
Sensor: Nr:Datum:Temp:Abs-Feuchte:Windchill:Wind:
Aussen-T/F 676 09-07-2009 15:16:35 21.5 C 6.22 g/m*3 21.5 C 0 km/h
677 09-07-2009 15:28:35 22.7 C 5.86 g/m*3 22.7 C 0 km/h
678 09-07-2009 15:40:36 23.3 C 5.44 g/m*3 23.3 C 0 km/h
679 09-07-2009 15:52:35 23.2 C 5.82 g/m*3 23.2 C 0 km/h
680 09-07-2009 16:04:35 23.4 C 5.68 g/m*3 23.4 C 0 km/h
681 09-07-2009 16:16:36 22.9 C 5.72 g/m*3 22.9 C 0 km/h
682 09-07-2009 16:28:36 23 C 5.96 g/m*3 23 C 0 km/h
683 09-07-2009 16:40:35 23.6 C 5.96 g/m*3 23.6 C 0 km/h
684 09-07-2009 16:52:35 22.8 C 5.89 g/m*3 22.8 C 0 km/h
685 09-07-2009 17:04:35 22.1 C 6.05 g/m*3 22.1 C 0 km/h
686 09-07-2009 17:16:35 22 C 5.82 g/m*3 22 C 0 km/h
687 09-07-2009 17:28:35 22 C 6.02 g/m*3 22 C 0 km/h
688 09-07-2009 17:40:34 22.4 C 6.36 g/m*3 22.4 C 0 km/h
689 09-07-2009 17:52:34 21.5 C 6.6 g/m*3 21.5 C 0 km/h
690 09-07-2009 18:04:35 21 C 6.96 g/m*3 21 C 0 km/h
691 09-07-2009 18:16:34 19.2 C 7.09 g/m*3 19.2 C 0 km/h
692 09-07-2009 18:28:34 18.8 C 7.57 g/m*3 18.8 C 0 km/h
693 09-07-2009 18:40:34 18.1 C 7.88 g/m*3 18.1 C 0 km/h
694 09-07-2009 18:52:34 17.2 C 8.05 g/m*3 17.2 C 0 km/h
695 09-07-2009 19:04:34 16.1 C 8.91 g/m*3 16.1 C 0 km/h
696 09-07-2009 19:16:33 15.2 C 9.48 g/m*3 15.2 C 0 km/h
697 09-07-2009 19:28:33 14.6 C 9.64 g/m*3 14.6 C 0 km/h
698 09-07-2009 19:40:33 14.4 C 9.64 g/m*3 14.4 C 0 km/h
699 09-07-2009 19:52:33 14.5 C 9.83 g/m*3 14.5 C 0 km/h
700 09-07-2009 20:04:33 14.4 C 9.39 g/m*3 14.4 C 0 km/h
Sensor: Nr:Datum:Temp:Abs-Feuchte:Windchill:Wind:
Aussen-T/F 701 09-07-2009 20:16:33 14.5 C 9.83 g/m*3 14.5 C 0 km/h
702 09-07-2009 20:28:33 14.5 C 9.83 g/m*3 14.5 C 0 km/h
703 09-07-2009 20:40:33 14.6 C 10.01 g/m*3 14.6 C 0 km/h
704 09-07-2009 20:52:33 14.3 C 9.95 g/m*3 14.3 C 0 km/h
705 09-07-2009 21:04:33 14.1 C 9.95 g/m*3 14.1 C 0 km/h
706 09-07-2009 21:16:32 14.1 C 9.95 g/m*3 14.1 C 0 km/h
707 09-07-2009 21:28:32 14.1 C 9.59 g/m*3 14.1 C 0 km/h
708 09-07-2009 21:40:32 14.2 C 9.28 g/m*3 14.2 C 0 km/h
709 09-07-2009 21:52:32 14.2 C 9.04 g/m*3 14.2 C 0 km/h
710 09-07-2009 22:04:32 14.4 C 9.02 g/m*3 14.4 C 0 km/h
711 09-07-2009 22:16:32 14.3 C 8.97 g/m*3 14.3 C 0 km/h
712 09-07-2009 22:28:32 14.4 C 8.9 g/m*3 14.4 C 0 km/h
713 09-07-2009 22:40:31 14.1 C 8.86 g/m*3 14.1 C 0 km/h
714 09-07-2009 22:53:33 14.1 C 8.74 g/m*3 14.1 C 0 km/h
715 09-07-2009 23:05:33 14.3 C 8.72 g/m*3 14.3 C 0 km/h
716 09-07-2009 23:17:33 14.7 C 9.07 g/m*3 14.7 C 0 km/h
717 09-07-2009 23:29:33 14.5 C 8.95 g/m*3 14.5 C 0 km/h
718 09-07-2009 23:41:33 14.1 C 8.86 g/m*3 14.1 C 0 km/h
719 09-07-2009 23:53:33 13.8 C 9.06 g/m*3 13.8 C 0 km/h
720 10-07-2009 00:05:33 13.7 C 8.76 g/m*3 13.7 C 0 km/h
721 10-07-2009 00:17:33 13.6 C 8.59 g/m*3 13.6 C 0 km/h
722 10-07-2009 00:29:33 13.5 C 8.66 g/m*3 13.5 C 0 km/h
723 10-07-2009 00:41:33 13.2 C 8.61 g/m*3 13.2 C 0 km/h
724 10-07-2009 00:53:33 13.2 C 8.61 g/m*3 13.2 C 0 km/h
725 10-07-2009 01:05:33 13.4 C 8.6 g/m*3 13.4 C 0 km/h
Sensor: Nr:Datum:Temp:Abs-Feuchte:Windchill:Wind:
Aussen-T/F 726 10-07-2009 01:17:34 13.4 C 8.6 g/m*3 13.4 C 0 km/h
727 10-07-2009 01:29:34 13.4 C 8.6 g/m*3 13.4 C 0 km/h
728 10-07-2009 01:41:34 13.2 C 8.38 g/m*3 13.2 C 0 km/h
729 10-07-2009 01:53:34 13 C 8.39 g/m*3 13 C 0 km/h
730 10-07-2009 02:05:34 13.2 C 8.61 g/m*3 13.2 C 0 km/h
731 10-07-2009 02:17:34 13.3 C 8.55 g/m*3 13.3 C 0 km/h
732 10-07-2009 02:29:34 13.3 C 8.55 g/m*3 13.3 C 0 km/h
733 10-07-2009 02:41:34 13.4 C 8.6 g/m*3 13.4 C 0 km/h
734 10-07-2009 02:53:34 13.2 C 8.61 g/m*3 13.2 C 0 km/h
735 10-07-2009 03:05:34 13.2 C 8.73 g/m*3 13.2 C 0 km/h
736 10-07-2009 03:17:34 13.3 C 8.66 g/m*3 13.3 C 0 km/h
737 10-07-2009 03:29:34 13.4 C 8.6 g/m*3 13.4 C 0 km/h
738 10-07-2009 03:41:34 13.4 C 8.49 g/m*3 13.4 C 0 km/h
739 10-07-2009 03:53:34 13.5 C 8.54 g/m*3 13.5 C 0 km/h
740 10-07-2009 04:05:34 13.5 C 8.54 g/m*3 13.5 C 0 km/h
741 10-07-2009 04:17:34 13.5 C 8.54 g/m*3 13.5 C 0 km/h
742 10-07-2009 04:29:34 13.5 C 8.66 g/m*3 13.5 C 0 km/h
743 10-07-2009 04:41:34 13.5 C 8.66 g/m*3 13.5 C 0 km/h
744 10-07-2009 04:53:34 13.4 C 8.72 g/m*3 13.4 C 0 km/h
745 10-07-2009 05:05:34 13.4 C 8.6 g/m*3 13.4 C 0 km/h
746 10-07-2009 05:17:34 13.3 C 8.66 g/m*3 13.3 C 0 km/h
747 10-07-2009 05:29:35 13.2 C 8.73 g/m*3 13.2 C 0 km/h
748 10-07-2009 05:41:35 13.1 C 8.56 g/m*3 13.1 C 0 km/h
749 10-07-2009 05:53:35 12.9 C 8.68 g/m*3 12.9 C 0 km/h
750 10-07-2009 06:05:35 13 C 8.62 g/m*3 13 C 0 km/h
Sensor: Nr:Datum:Temp:Abs-Feuchte:Windchill:Wind:
Aussen-T/F 751 10-07-2009 06:17:35 13.1 C 8.44 g/m*3 13.1 C 0 km/h
752 10-07-2009 06:29:35 13.2 C 8.38 g/m*3 13.2 C 0 km/h
753 10-07-2009 06:41:35 13.2 C 8.38 g/m*3 13.2 C 0 km/h
754 10-07-2009 06:53:35 13.2 C 8.38 g/m*3 13.2 C 0 km/h
755 10-07-2009 07:05:32 13.2 C 8.27 g/m*3 13.2 C 0 km/h
756 10-07-2009 07:17:32 13.2 C 8.38 g/m*3 13.2 C 0 km/h
757 10-07-2009 07:29:32 13.4 C 8.49 g/m*3 13.4 C 0 km/h
758 10-07-2009 07:41:31 13.3 C 8.2 g/m*3 13.3 C 0 km/h
759 10-07-2009 07:53:32 13.4 C 8.02 g/m*3 13.4 C 0 km/h
760 10-07-2009 08:05:31 13.4 C 8.02 g/m*3 13.4 C 0 km/h
761 10-07-2009 08:17:31 13.5 C 8.07 g/m*3 13.5 C 0 km/h
762 10-07-2009 08:29:32 13.5 C 8.07 g/m*3 13.5 C 0 km/h
763 10-07-2009 08:41:31 14.2 C 8.18 g/m*3 14.2 C 0 km/h
764 10-07-2009 08:53:31 14.2 C 8.06 g/m*3 14.2 C 0 km/h
765 10-07-2009 09:05:31 14.7 C 8.18 g/m*3 14.7 C 0 km/h
766 10-07-2009 09:17:31 14.8 C 7.85 g/m*3 14.8 C 0 km/h
767 10-07-2009 09:29:31 15.1 C 7.87 g/m*3 15.1 C 0 km/h
768 10-07-2009 09:41:31 15.7 C 8.3 g/m*3 15.7 C 0 km/h
769 10-07-2009 09:53:30 16.2 C 7.45 g/m*3 16.2 C 0 km/h
770 10-07-2009 10:05:30 15.8 C 7.81 g/m*3 15.8 C 0 km/h
771 10-07-2009 10:17:30 16.3 C 7.77 g/m*3 16.3 C 0 km/h
772 10-07-2009 10:29:30 16 C 7.77 g/m*3 16 C 0 km/h
773 10-07-2009 10:41:30 15.8 C 8.21 g/m*3 15.8 C 0 km/h
774 10-07-2009 10:53:29 15.6 C 7.45 g/m*3 15.6 C 0 km/h
775 10-07-2009 11:05:30 15.6 C 7.05 g/m*3 15.6 C 0 km/h
Sensor: Nr:Datum:Temp:Abs-Feuchte:Windchill:Wind:
Aussen-T/F 776 10-07-2009 11:17:30 15.9 C 7.18 g/m*3 15.9 C 0 km/h
777 10-07-2009 11:29:30 14.3 C 7.74 g/m*3 14.3 C 0 km/h
778 10-07-2009 11:41:29 15.2 C 8.44 g/m*3 15.2 C 0 km/h
779 10-07-2009 11:53:29 17.4 C 8.6 g/m*3 17.4 C 0 km/h
780 10-07-2009 12:05:29 18 C 7.22 g/m*3 18 C 0 km/h
781 10-07-2009 12:17:29 18.3 C 7.19 g/m*3 18.3 C 0 km/h
782 10-07-2009 12:29:29 17.5 C 6.26 g/m*3 17.5 C 0 km/h
783 10-07-2009 12:41:28 17.5 C 6.26 g/m*3 17.5 C 0 km/h
784 10-07-2009 12:53:29 17.5 C 6.11 g/m*3 17.5 C 0 km/h
785 10-07-2009 13:05:29 17.3 C 6.04 g/m*3 17.3 C 0 km/h
786 10-07-2009 13:17:28 16.8 C 6.43 g/m*3 16.8 C 0 km/h
787 10-07-2009 13:29:28 16.8 C 6.43 g/m*3 16.8 C 0 km/h
788 10-07-2009 13:41:28 17.6 C 6.3 g/m*3 17.6 C 0 km/h
789 10-07-2009 13:53:28 17.9 C 6.11 g/m*3 17.9 C 0 km/h
790 10-07-2009 14:05:28 17.9 C 6.11 g/m*3 17.9 C 0 km/h
791 10-07-2009 14:17:27 17.8 C 6.22 g/m*3 17.8 C 0 km/h
792 10-07-2009 14:29:27 17.8 C 6.07 g/m*3 17.8 C 0 km/h
793 10-07-2009 14:41:28 17.7 C 6.19 g/m*3 17.7 C 0 km/h
794 10-07-2009 14:53:27 17.3 C 5.89 g/m*3 17.3 C 0 km/h
795 10-07-2009 15:05:27 17.2 C 5.86 g/m*3 17.2 C 0 km/h
796 10-07-2009 15:17:27 17.2 C 6 g/m*3 17.2 C 0 km/h
797 10-07-2009 15:29:27 17.2 C 6 g/m*3 17.2 C 0 km/h
798 10-07-2009 15:41:27 17.1 C 5.97 g/m*3 17.1 C 0 km/h
799 10-07-2009 15:53:27 17.4 C 6.37 g/m*3 17.4 C 0 km/h
800 10-07-2009 16:05:26 17 C 6.08 g/m*3 17 C 0 km/h
Sensor: Nr:Datum:Temp:Abs-Feuchte:Windchill:Wind:
Aussen-T/F 801 10-07-2009 16:17:27 17 C 5.93 g/m*3 17 C 0 km/h
802 10-07-2009 16:29:27 17.1 C 6.26 g/m*3 17.1 C 0 km/h
803 10-07-2009 16:41:27 15.8 C 7 g/m*3 15.8 C 0 km/h
804 10-07-2009 16:53:26 15.8 C 6.87 g/m*3 15.8 C 0 km/h
805 10-07-2009 17:05:27 16.3 C 6.66 g/m*3 16.3 C 0 km/h
806 10-07-2009 17:17:26 16.5 C 6.32 g/m*3 16.5 C 0 km/h
807 10-07-2009 17:29:26 16.6 C 6.36 g/m*3 16.6 C 0 km/h
808 10-07-2009 17:41:26 16.6 C 6.36 g/m*3 16.6 C 0 km/h
809 10-07-2009 17:53:26 16.6 C 6.5 g/m*3 16.6 C 0 km/h
810 10-07-2009 18:05:26 16.5 C 6.46 g/m*3 16.5 C 0 km/h
811 10-07-2009 18:17:25 16.5 C 6.46 g/m*3 16.5 C 0 km/h
812 10-07-2009 18:29:25 16.5 C 6.6 g/m*3 16.5 C 0 km/h
813 10-07-2009 18:41:25 16.5 C 6.6 g/m*3 16.5 C 0 km/h
814 10-07-2009 18:53:25 16.6 C 6.64 g/m*3 16.6 C 0 km/h
815 10-07-2009 19:05:25 16.5 C 6.74 g/m*3 16.5 C 0 km/h
816 10-07-2009 19:17:25 16.6 C 6.78 g/m*3 16.6 C 0 km/h
817 10-07-2009 19:29:25 16.7 C 6.96 g/m*3 16.7 C 0 km/h
818 10-07-2009 19:41:24 16.6 C 6.78 g/m*3 16.6 C 0 km/h
819 10-07-2009 19:53:25 16.6 C 6.92 g/m*3 16.6 C 0 km/h
820 10-07-2009 20:05:24 16.6 C 6.78 g/m*3 16.6 C 0 km/h
821 10-07-2009 20:17:24 16.6 C 6.78 g/m*3 16.6 C 0 km/h
822 10-07-2009 20:29:24 16.6 C 6.78 g/m*3 16.6 C 0 km/h
823 10-07-2009 20:41:25 16.4 C 6.98 g/m*3 16.4 C 0 km/h
824 10-07-2009 20:53:24 16.1 C 7.26 g/m*3 16.1 C 0 km/h
825 10-07-2009 21:05:24 15.7 C 7.89 g/m*3 15.7 C 0 km/h
Sensor: Nr:Datum:Temp:Abs-Feuchte:Windchill:Wind:
Aussen-T/F 826 10-07-2009 21:17:23 15.4 C 8.15 g/m*3 15.4 C 0 km/h
827 10-07-2009 21:29:23 15.2 C 8.18 g/m*3 15.2 C 0 km/h
828 10-07-2009 21:41:24 15.1 C 8.26 g/m*3 15.1 C 0 km/h
829 10-07-2009 21:53:23 15 C 8.46 g/m*3 15 C 0 km/h
830 10-07-2009 22:05:23 14.8 C 8.49 g/m*3 14.8 C 0 km/h
831 10-07-2009 22:18:24 14.8 C 8.61 g/m*3 14.8 C 0 km/h
832 10-07-2009 22:30:24 14.8 C 8.61 g/m*3 14.8 C 0 km/h
833 10-07-2009 22:42:24 14.6 C 8.63 g/m*3 14.6 C 0 km/h
834 10-07-2009 22:54:24 14.7 C 8.69 g/m*3 14.7 C 0 km/h
835 10-07-2009 23:06:24 14.8 C 8.74 g/m*3 14.8 C 0 km/h
836 10-07-2009 23:18:24 14.3 C 8.48 g/m*3 14.3 C 0 km/h
837 10-07-2009 23:30:24 14.2 C 8.55 g/m*3 14.2 C 0 km/h
838 10-07-2009 23:42:24 14.3 C 8.6 g/m*3 14.3 C 0 km/h
839 10-07-2009 23:54:25 14.3 C 8.48 g/m*3 14.3 C 0 km/h
840 11-07-2009 00:06:25 14.2 C 8.43 g/m*3 14.2 C 0 km/h
841 11-07-2009 00:18:25 14.1 C 8.25 g/m*3 14.1 C 0 km/h
842 11-07-2009 00:30:25 14.2 C 8.3 g/m*3 14.2 C 0 km/h
843 11-07-2009 00:42:25 14.2 C 8.3 g/m*3 14.2 C 0 km/h
844 11-07-2009 00:54:25 14.1 C 8.25 g/m*3 14.1 C 0 km/h
845 11-07-2009 01:06:25 14.1 C 8.25 g/m*3 14.1 C 0 km/h
846 11-07-2009 01:18:25 14.1 C 8.25 g/m*3 14.1 C 0 km/h
847 11-07-2009 01:30:25 14.2 C 8.43 g/m*3 14.2 C 0 km/h
848 11-07-2009 01:42:25 14.1 C 8.13 g/m*3 14.1 C 0 km/h
849 11-07-2009 01:54:25 14.1 C 8.25 g/m*3 14.1 C 0 km/h
850 11-07-2009 02:06:25 14.1 C 8.5 g/m*3 14.1 C 0 km/h
Sensor: Nr:Datum:Temp:Abs-Feuchte:Windchill:Wind:
Aussen-T/F 851 11-07-2009 02:18:25 14.1 C 8.62 g/m*3 14.1 C 0 km/h
852 11-07-2009 02:30:25 14.1 C 8.5 g/m*3 14.1 C 0 km/h
853 11-07-2009 02:42:25 14.1 C 8.37 g/m*3 14.1 C 0 km/h
854 11-07-2009 02:54:25 14 C 8.32 g/m*3 14 C 0 km/h
855 11-07-2009 03:06:25 14 C 8.32 g/m*3 14 C 0 km/h
856 11-07-2009 03:18:25 14 C 8.32 g/m*3 14 C 0 km/h
857 11-07-2009 03:30:25 13.9 C 8.51 g/m*3 13.9 C 0 km/h
858 11-07-2009 03:42:25 13.8 C 8.58 g/m*3 13.8 C 0 km/h
859 11-07-2009 03:54:25 13.7 C 8.64 g/m*3 13.7 C 0 km/h
860 11-07-2009 04:06:26 13.8 C 8.7 g/m*3 13.8 C 0 km/h
861 11-07-2009 04:18:26 13.9 C 8.51 g/m*3 13.9 C 0 km/h
862 11-07-2009 04:30:26 13.9 C 8.39 g/m*3 13.9 C 0 km/h
863 11-07-2009 04:42:26 13.9 C 8.63 g/m*3 13.9 C 0 km/h
864 11-07-2009 04:54:26 13.8 C 8.34 g/m*3 13.8 C 0 km/h
865 11-07-2009 05:06:26 13.8 C 8.22 g/m*3 13.8 C 0 km/h
866 11-07-2009 05:18:26 13.7 C 8.29 g/m*3 13.7 C 0 km/h
867 11-07-2009 05:30:26 13.6 C 8.47 g/m*3 13.6 C 0 km/h
868 11-07-2009 05:42:26 13.5 C 8.42 g/m*3 13.5 C 0 km/h
869 11-07-2009 05:54:26 13.6 C 8.12 g/m*3 13.6 C 0 km/h
870 11-07-2009 06:06:26 13.8 C 8.22 g/m*3 13.8 C 0 km/h
871 11-07-2009 06:18:26 13.8 C 8.34 g/m*3 13.8 C 0 km/h
872 11-07-2009 06:30:26 13.7 C 8.29 g/m*3 13.7 C 0 km/h
873 11-07-2009 06:42:26 13.7 C 8.41 g/m*3 13.7 C 0 km/h
874 11-07-2009 06:54:26 13.8 C 8.46 g/m*3 13.8 C 0 km/h
875 11-07-2009 07:06:26 14 C 8.44 g/m*3 14 C 0 km/h
Sensor: Nr:Datum:Temp:Abs-Feuchte:Windchill:Wind:
Aussen-T/F 876 11-07-2009 07:18:26 14 C 8.44 g/m*3 14 C 0 km/h
877 11-07-2009 07:30:26 14.1 C 8.5 g/m*3 14.1 C 0 km/h
878 11-07-2009 07:42:26 14.2 C 8.43 g/m*3 14.2 C 0 km/h
879 11-07-2009 07:54:26 14.5 C 8.58 g/m*3 14.5 C 0 km/h
880 11-07-2009 08:06:27 14.8 C 8.49 g/m*3 14.8 C 0 km/h
881 11-07-2009 08:18:27 15.2 C 8.31 g/m*3 15.2 C 0 km/h
882 11-07-2009 08:30:23 15.5 C 8.2 g/m*3 15.5 C 0 km/h
883 11-07-2009 08:42:23 15.7 C 8.03 g/m*3 15.7 C 0 km/h
884 11-07-2009 08:54:23 16 C 7.77 g/m*3 16 C 0 km/h
885 11-07-2009 09:06:23 16 C 7.63 g/m*3 16 C 0 km/h
886 11-07-2009 09:18:23 16.1 C 7.81 g/m*3 16.1 C 0 km/h
887 11-07-2009 09:30:22 16.4 C 7.82 g/m*3 16.4 C 0 km/h
888 11-07-2009 09:42:22 16.5 C 7.72 g/m*3 16.5 C 0 km/h
889 11-07-2009 09:54:23 16.9 C 7.77 g/m*3 16.9 C 0 km/h
890 11-07-2009 10:06:22 17.4 C 7.85 g/m*3 17.4 C 0 km/h
891 11-07-2009 10:18:22 17.6 C 7.8 g/m*3 17.6 C 0 km/h
892 11-07-2009 10:30:22 18.2 C 7.77 g/m*3 18.2 C 0 km/h
893 11-07-2009 10:42:22 17.9 C 7.94 g/m*3 17.9 C 0 km/h
894 11-07-2009 10:54:22 18.7 C 7.84 g/m*3 18.7 C 0 km/h
895 11-07-2009 11:06:22 19.1 C 7.7 g/m*3 19.1 C 0 km/h
896 11-07-2009 11:18:21 19.8 C 8.03 g/m*3 19.8 C 0 km/h
897 11-07-2009 11:30:22 18.9 C 7.61 g/m*3 18.9 C 0 km/h
898 11-07-2009 11:42:22 18.6 C 7.96 g/m*3 18.6 C 0 km/h
899 11-07-2009 11:54:21 19.6 C 7.77 g/m*3 19.6 C 0 km/h
900 11-07-2009 12:06:21 19.4 C 7.51 g/m*3 19.4 C 0 km/h
Sensor: Nr:Datum:Temp:Abs-Feuchte:Windchill:Wind:
Aussen-T/F 901 11-07-2009 12:18:22 19.8 C 8.2 g/m*3 19.8 C 0 km/h
902 11-07-2009 12:30:21 20.7 C 7.56 g/m*3 20.7 C 0 km/h
903 11-07-2009 12:42:21 20.8 C 7.42 g/m*3 20.8 C 0 km/h
904 11-07-2009 12:54:21 20.1 C 7.47 g/m*3 20.1 C 0 km/h
905 11-07-2009 13:06:02 21.8 C 7.87 g/m*3 21.8 C 0 km/h
906 11-07-2009 13:18:02 20.4 C 7.25 g/m*3 20.4 C 0 km/h
907 11-07-2009 13:30:02 21.6 C 7.59 g/m*3 21.6 C 0 km/h
908 11-07-2009 13:42:02 20.3 C 7.56 g/m*3 20.3 C 0 km/h
909 11-07-2009 13:54:01 20.3 C 7.91 g/m*3 20.3 C 0 km/h
910 11-07-2009 14:06:01 20.7 C 7.38 g/m*3 20.7 C 0 km/h
911 11-07-2009 14:18:01 20.3 C 7.39 g/m*3 20.3 C 0 km/h
912 11-07-2009 14:30:01 20.4 C 7.43 g/m*3 20.4 C 0 km/h
913 11-07-2009 14:42:01 20.4 C 7.25 g/m*3 20.4 C 0 km/h
914 11-07-2009 14:54:00 20.4 C 7.43 g/m*3 20.4 C 0 km/h
915 11-07-2009 15:06:01 20.2 C 7.52 g/m*3 20.2 C 0 km/h
916 11-07-2009 15:18:01 19.7 C 7.47 g/m*3 19.7 C 0 km/h
917 11-07-2009 15:30:01 20.3 C 7.56 g/m*3 20.3 C 0 km/h
918 11-07-2009 15:42:00 20.8 C 7.42 g/m*3 20.8 C 0 km/h
919 11-07-2009 15:54:01 21 C 7.14 g/m*3 21 C 0 km/h
920 11-07-2009 16:06:00 20.6 C 7.52 g/m*3 20.6 C 0 km/h
921 11-07-2009 16:18:00 21 C 7.51 g/m*3 21 C 0 km/h
922 11-07-2009 16:30:00 21.3 C 7.27 g/m*3 21.3 C 0 km/h
923 11-07-2009 16:42:59 20.8 C 7.42 g/m*3 20.8 C 0 km/h
924 11-07-2009 16:54:00 21.4 C 7.5 g/m*3 21.4 C 0 km/h
925 11-07-2009 17:06:59 21 C 7.33 g/m*3 21 C 0 km/h
Sensor: Nr:Datum:Temp:Abs-Feuchte:Windchill:Wind:
Aussen-T/F 926 11-07-2009 17:18:59 20.8 C 7.6 g/m*3 20.8 C 0 km/h
927 11-07-2009 17:30:59 20.4 C 7.43 g/m*3 20.4 C 0 km/h
928 11-07-2009 17:41:59 20.1 C 7.3 g/m*3 20.1 C 0 km/h
929 11-07-2009 17:54:59 20.4 C 7.43 g/m*3 20.4 C 0 km/h
930 11-07-2009 18:06:59 20.3 C 7.56 g/m*3 20.3 C 0 km/h
931 11-07-2009 18:18:58 21 C 7.51 g/m*3 21 C 0 km/h
932 11-07-2009 18:30:59 21.4 C 7.5 g/m*3 21.4 C 0 km/h
933 11-07-2009 18:42:59 21.1 C 7.37 g/m*3 21.1 C 0 km/h
934 11-07-2009 18:54:58 22.7 C 7.48 g/m*3 22.7 C 0 km/h
935 11-07-2009 19:06:58 22.1 C 7.22 g/m*3 22.1 C 0 km/h
936 11-07-2009 19:18:59 21.3 C 7.64 g/m*3 21.3 C 0 km/h
937 11-07-2009 19:30:58 21 C 7.51 g/m*3 21 C 0 km/h
938 11-07-2009 19:42:58 21.1 C 7.74 g/m*3 21.1 C 0 km/h
939 11-07-2009 19:54:58 20.4 C 7.78 g/m*3 20.4 C 0 km/h
940 11-07-2009 20:06:57 20.2 C 7.69 g/m*3 20.2 C 0 km/h
941 11-07-2009 20:18:58 20.3 C 7.91 g/m*3 20.3 C 0 km/h
942 11-07-2009 20:30:57 20 C 7.95 g/m*3 20 C 0 km/h
943 11-07-2009 20:42:57 20 C 7.95 g/m*3 20 C 0 km/h
944 11-07-2009 20:54:57 19.6 C 8.1 g/m*3 19.6 C 0 km/h
945 11-07-2009 21:06:57 19.3 C 8.13 g/m*3 19.3 C 0 km/h
946 11-07-2009 21:18:57 19.1 C 8.2 g/m*3 19.1 C 0 km/h
947 11-07-2009 21:30:57 18.8 C 8.21 g/m*3 18.8 C 0 km/h
948 11-07-2009 21:42:57 18.7 C 8.33 g/m*3 18.7 C 0 km/h
949 11-07-2009 21:54:56 18.6 C 8.44 g/m*3 18.6 C 0 km/h
950 11-07-2009 22:07:21 18.3 C 8.29 g/m*3 18.3 C 0 km/h
Sensor: Nr:Datum:Temp:Abs-Feuchte:Windchill:Wind:
Aussen-T/F 951 11-07-2009 22:19:21 18.1 C 8.34 g/m*3 18.1 C 0 km/h
952 11-07-2009 22:31:21 18.3 C 8.44 g/m*3 18.3 C 0 km/h
953 11-07-2009 22:43:21 18.3 C 8.29 g/m*3 18.3 C 0 km/h
954 11-07-2009 22:55:21 18.1 C 8.65 g/m*3 18.1 C 0 km/h
955 11-07-2009 23:07:22 17.8 C 8.8 g/m*3 17.8 C 0 km/h
956 11-07-2009 23:19:22 17.7 C 8.6 g/m*3 17.7 C 0 km/h
957 11-07-2009 23:31:22 17.7 C 8.6 g/m*3 17.7 C 0 km/h
958 11-07-2009 23:43:22 17.6 C 8.7 g/m*3 17.6 C 0 km/h
959 11-07-2009 23:55:22 17.5 C 8.65 g/m*3 17.5 C 0 km/h
960 12-07-2009 00:07:22 17.2 C 8.79 g/m*3 17.2 C 0 km/h
961 12-07-2009 00:19:22 17.2 C 8.79 g/m*3 17.2 C 0 km/h
962 12-07-2009 00:31:22 17.2 C 8.79 g/m*3 17.2 C 0 km/h
963 12-07-2009 00:43:22 17.1 C 8.88 g/m*3 17.1 C 0 km/h
964 12-07-2009 00:55:22 16.8 C 9.01 g/m*3 16.8 C 0 km/h
965 12-07-2009 01:07:22 16.4 C 8.93 g/m*3 16.4 C 0 km/h
966 12-07-2009 01:19:22 16 C 8.99 g/m*3 16 C 0 km/h
967 12-07-2009 01:31:22 15.8 C 9.02 g/m*3 15.8 C 0 km/h
968 12-07-2009 01:43:22 15.9 C 9.21 g/m*3 15.9 C 0 km/h
969 12-07-2009 01:55:22 16 C 9.26 g/m*3 16 C 0 km/h
970 12-07-2009 02:07:22 15.8 C 9.42 g/m*3 15.8 C 0 km/h
971 12-07-2009 02:19:22 15.6 C 9.31 g/m*3 15.6 C 0 km/h
972 12-07-2009 02:31:22 15.2 C 9.35 g/m*3 15.2 C 0 km/h
973 12-07-2009 02:43:23 15 C 9.36 g/m*3 15 C 0 km/h
974 12-07-2009 02:55:23 14.7 C 9.44 g/m*3 14.7 C 0 km/h
975 12-07-2009 03:07:23 14.5 C 9.45 g/m*3 14.5 C 0 km/h
Sensor: Nr:Datum:Temp:Abs-Feuchte:Windchill:Wind:
Aussen-T/F 976 12-07-2009 03:19:23 14.3 C 9.34 g/m*3 14.3 C 0 km/h
977 12-07-2009 03:31:23 14.2 C 9.28 g/m*3 14.2 C 0 km/h
978 12-07-2009 03:43:23 14.2 C 9.4 g/m*3 14.2 C 0 km/h
979 12-07-2009 03:55:23 14.4 C 9.52 g/m*3 14.4 C 0 km/h
980 12-07-2009 04:07:23 14.3 C 9.46 g/m*3 14.3 C 0 km/h
981 12-07-2009 04:19:23 14.4 C 9.52 g/m*3 14.4 C 0 km/h
982 12-07-2009 04:31:23 14.7 C 9.69 g/m*3 14.7 C 0 km/h
983 12-07-2009 04:43:23 14.6 C 9.64 g/m*3 14.6 C 0 km/h
984 12-07-2009 04:55:23 14.6 C 9.51 g/m*3 14.6 C 0 km/h
985 12-07-2009 05:07:23 14.6 C 9.51 g/m*3 14.6 C 0 km/h
986 12-07-2009 05:19:23 14.6 C 9.64 g/m*3 14.6 C 0 km/h
987 12-07-2009 05:31:23 14.7 C 9.69 g/m*3 14.7 C 0 km/h
988 12-07-2009 05:43:23 14.7 C 9.57 g/m*3 14.7 C 0 km/h
989 12-07-2009 05:55:23 14.5 C 9.45 g/m*3 14.5 C 0 km/h
990 12-07-2009 06:07:23 14.6 C 9.64 g/m*3 14.6 C 0 km/h
991 12-07-2009 06:19:24 14.6 C 9.64 g/m*3 14.6 C 0 km/h
992 12-07-2009 06:31:24 14.6 C 9.64 g/m*3 14.6 C 0 km/h
993 12-07-2009 06:43:24 14.8 C 9.63 g/m*3 14.8 C 0 km/h
994 12-07-2009 06:55:24 14.8 C 9.63 g/m*3 14.8 C 0 km/h
995 12-07-2009 07:07:24 14.8 C 9.5 g/m*3 14.8 C 0 km/h
996 12-07-2009 07:19:24 15 C 9.36 g/m*3 15 C 0 km/h
997 12-07-2009 07:31:24 15.1 C 9.42 g/m*3 15.1 C 0 km/h
998 12-07-2009 07:43:24 15.1 C 9.42 g/m*3 15.1 C 0 km/h
999 12-07-2009 07:55:24 15.2 C 9.61 g/m*3 15.2 C 0 km/h
1000 12-07-2009 08:07:24 15.4 C 9.72 g/m*3 15.4 C 0 km/h
Sensor: Nr:Datum:Temp:Abs-Feuchte:Windchill:Wind:
Aussen-T/F 1001 12-07-2009 08:19:24 15.5 C 9.91 g/m*3 15.5 C 0 km/h
1002 12-07-2009 08:31:24 15.6 C 10.37 g/m*3 15.6 C 0 km/h
1003 12-07-2009 08:43:24 15.9 C 10.56 g/m*3 15.9 C 0 km/h
1004 12-07-2009 08:55:24 16.3 C 10.68 g/m*3 16.3 C 0 km/h
1005 12-07-2009 09:07:24 16.4 C 10.75 g/m*3 16.4 C 0 km/h
1006 12-07-2009 09:19:24 16.4 C 10.89 g/m*3 16.4 C 0 km/h
1007 12-07-2009 09:31:03 16.6 C 11.02 g/m*3 16.6 C 0 km/h
1008 12-07-2009 09:43:03 17 C 11.29 g/m*3 17 C 0 km/h
1009 12-07-2009 09:55:06 16.8 C 11.15 g/m*3 16.8 C 0 km/h
1010 12-07-2009 10:07:03 17 C 11.43 g/m*3 17 C 0 km/h
1011 12-07-2009 10:19:02 16.9 C 11.51 g/m*3 16.9 C 0 km/h
1012 12-07-2009 10:31:03 17.4 C 11.71 g/m*3 17.4 C 0 km/h
1013 12-07-2009 10:43:03 17.5 C 11.63 g/m*3 17.5 C 0 km/h
1014 12-07-2009 10:55:02 17.8 C 11.84 g/m*3 17.8 C 0 km/h
1015 12-07-2009 11:07:02 18 C 11.67 g/m*3 18 C 0 km/h
1016 12-07-2009 11:19:02 18.3 C 11.88 g/m*3 18.3 C 0 km/h
1017 12-07-2009 11:31:02 18.7 C 11.85 g/m*3 18.7 C 0 km/h
1018 12-07-2009 11:43:02 18.7 C 11.69 g/m*3 18.7 C 0 km/h
1019 12-07-2009 11:55:01 18.9 C 11.99 g/m*3 18.9 C 0 km/h
1020 12-07-2009 12:07:01 18.7 C 11.85 g/m*3 18.7 C 0 km/h
1021 12-07-2009 12:19:02 18.9 C 12.31 g/m*3 18.9 C 0 km/h
1022 12-07-2009 12:31:01 19.3 C 12.27 g/m*3 19.3 C 0 km/h
1023 12-07-2009 12:43:01 19.5 C 11.75 g/m*3 19.5 C 0 km/h
1024 12-07-2009 12:55:01 20 C 11.58 g/m*3 20 C 0 km/h
1025 12-07-2009 13:07:01 21.2 C 11.3 g/m*3 21.2 C 0 km/h
Sensor: Nr:Datum:Temp:Abs-Feuchte:Windchill:Wind:
Aussen-T/F 1026 12-07-2009 13:19:01 22.2 C 10.99 g/m*3 22.2 C 0 km/h
1027 12-07-2009 13:31:01 24.5 C 10.07 g/m*3 24.5 C 0 km/h
1028 12-07-2009 13:43:01 23.9 C 10.38 g/m*3 23.9 C 0 km/h
1029 12-07-2009 13:55:01 22.9 C 10.01 g/m*3 22.9 C 0 km/h
1030 12-07-2009 14:07:01 23.3 C 10.25 g/m*3 23.3 C 0 km/h
1031 12-07-2009 14:19:00 24.1 C 10.28 g/m*3 24.1 C 0 km/h
1032 12-07-2009 14:31:00 25.6 C 10 g/m*3 25.6 C 0 km/h
1033 12-07-2009 14:43:00 25.9 C 9.93 g/m*3 25.9 C 0 km/h
1034 12-07-2009 14:55:00 25.7 C 9.58 g/m*3 25.7 C 0 km/h
1035 12-07-2009 15:07:00 26.1 C 9.79 g/m*3 26.1 C 0 km/h
1036 12-07-2009 15:19:59 26.1 C 9.55 g/m*3 26.1 C 0 km/h
1037 12-07-2009 15:30:59 25.7 C 9.82 g/m*3 25.7 C 0 km/h
1038 12-07-2009 15:42:59 24.9 C 9.84 g/m*3 24.9 C 0 km/h
1039 12-07-2009 15:55:59 24.7 C 9.96 g/m*3 24.7 C 0 km/h
1040 12-07-2009 16:07:59 24 C 10.01 g/m*3 24 C 0 km/h
1041 12-07-2009 16:19:59 23.4 C 10.51 g/m*3 23.4 C 0 km/h
1042 12-07-2009 16:31:59 23.1 C 10.54 g/m*3 23.1 C 0 km/h
1043 12-07-2009 16:43:59 23.2 C 10.6 g/m*3 23.2 C 0 km/h
1044 12-07-2009 16:55:59 23.4 C 10.51 g/m*3 23.4 C 0 km/h
1045 12-07-2009 17:07:58 25.2 C 10.48 g/m*3 25.2 C 0 km/h
1046 12-07-2009 17:19:59 26.4 C 10.21 g/m*3 26.4 C 0 km/h
1047 12-07-2009 17:31:58 25.9 C 10.17 g/m*3 25.9 C 0 km/h
1048 12-07-2009 17:43:58 24.9 C 10.07 g/m*3 24.9 C 0 km/h
1049 12-07-2009 17:55:58 24.4 C 10.01 g/m*3 24.4 C 0 km/h
1050 12-07-2009 18:07:58 24.2 C 10.12 g/m*3 24.2 C 0 km/h
Sensor: Nr:Datum:Temp:Abs-Feuchte:Windchill:Wind:
Aussen-T/F 1051 12-07-2009 18:19:58 24.2 C 10.34 g/m*3 24.2 C 0 km/h
1052 12-07-2009 18:31:58 25.8 C 10.35 g/m*3 25.8 C 0 km/h
1053 12-07-2009 18:43:58 24.8 C 10.02 g/m*3 24.8 C 0 km/h
1054 12-07-2009 18:55:58 25.6 C 10 g/m*3 25.6 C 0 km/h
1055 12-07-2009 19:07:58 25.5 C 9.94 g/m*3 25.5 C 0 km/h
1056 12-07-2009 19:19:57 25 C 9.9 g/m*3 25 C 0 km/h
1057 12-07-2009 19:31:57 25 C 9.67 g/m*3 25 C 0 km/h
1058 12-07-2009 19:43:57 24.9 C 10.3 g/m*3 24.9 C 0 km/h
1059 12-07-2009 19:55:57 23.8 C 10.33 g/m*3 23.8 C 0 km/h
1060 12-07-2009 20:07:57 23.3 C 10.45 g/m*3 23.3 C 0 km/h
1061 12-07-2009 20:19:57 23.5 C 10.57 g/m*3 23.5 C 0 km/h
1062 12-07-2009 20:31:57 23.3 C 10.66 g/m*3 23.3 C 0 km/h
1063 12-07-2009 20:43:57 22.9 C 10.83 g/m*3 22.9 C 0 km/h
1064 12-07-2009 20:55:57 22.6 C 10.65 g/m*3 22.6 C 0 km/h
1065 12-07-2009 21:07:56 22.1 C 10.74 g/m*3 22.1 C 0 km/h
1066 12-07-2009 21:19:56 21.6 C 11 g/m*3 21.6 C 0 km/h
1067 12-07-2009 21:31:56 21.3 C 11 g/m*3 21.3 C 0 km/h
1068 12-07-2009 21:43:56 21.1 C 11.06 g/m*3 21.1 C 0 km/h
1069 12-07-2009 21:55:56 20.9 C 11.11 g/m*3 20.9 C 0 km/h
1070 12-07-2009 22:08:57 20.6 C 11.1 g/m*3 20.6 C 0 km/h
1071 12-07-2009 22:20:57 20.3 C 11.26 g/m*3 20.3 C 0 km/h
1072 12-07-2009 22:32:57 19.9 C 11.51 g/m*3 19.9 C 0 km/h
1073 12-07-2009 22:44:57 19.7 C 11.55 g/m*3 19.7 C 0 km/h
1074 12-07-2009 22:56:57 19.7 C 11.55 g/m*3 19.7 C 0 km/h
1075 12-07-2009 23:08:57 19.3 C 11.61 g/m*3 19.3 C 0 km/h
Sensor: Nr:Datum:Temp:Abs-Feuchte:Windchill:Wind:
Aussen-T/F 1076 12-07-2009 23:20:57 19.1 C 11.64 g/m*3 19.1 C 0 km/h
1077 12-07-2009 23:32:57 18.9 C 11.66 g/m*3 18.9 C 0 km/h
1078 12-07-2009 23:44:57 18.8 C 11.76 g/m*3 18.8 C 0 km/h
1079 12-07-2009 23:56:57 18.6 C 11.78 g/m*3 18.6 C 0 km/h
1080 13-07-2009 00:08:57 18.5 C 11.71 g/m*3 18.5 C 0 km/h
1081 13-07-2009 00:20:57 18.3 C 11.73 g/m*3 18.3 C 0 km/h
1082 13-07-2009 00:32:57 18.2 C 11.81 g/m*3 18.2 C 0 km/h
1083 13-07-2009 00:44:57 18.3 C 11.73 g/m*3 18.3 C 0 km/h
1084 13-07-2009 00:56:58 18.2 C 11.66 g/m*3 18.2 C 0 km/h
1085 13-07-2009 01:08:58 18 C 11.83 g/m*3 18 C 0 km/h
1086 13-07-2009 01:20:58 17.9 C 11.91 g/m*3 17.9 C 0 km/h
1087 13-07-2009 01:32:58 17.9 C 12.06 g/m*3 17.9 C 0 km/h
1088 13-07-2009 01:44:58 17.7 C 11.92 g/m*3 17.7 C 0 km/h
1089 13-07-2009 01:56:58 17.3 C 11.93 g/m*3 17.3 C 0 km/h
1090 13-07-2009 02:08:58 17.2 C 12.01 g/m*3 17.2 C 0 km/h
1091 13-07-2009 02:20:58 17.4 C 12.15 g/m*3 17.4 C 0 km/h
1092 13-07-2009 02:32:58 17.3 C 12.08 g/m*3 17.3 C 0 km/h
1093 13-07-2009 02:44:58 17.3 C 12.08 g/m*3 17.3 C 0 km/h
1094 13-07-2009 02:56:58 17.2 C 11.86 g/m*3 17.2 C 0 km/h
1095 13-07-2009 03:08:58 17.3 C 11.93 g/m*3 17.3 C 0 km/h
1096 13-07-2009 03:20:58 17.4 C 12 g/m*3 17.4 C 0 km/h
1097 13-07-2009 03:32:58 17.3 C 11.93 g/m*3 17.3 C 0 km/h
1098 13-07-2009 03:44:58 17.4 C 12 g/m*3 17.4 C 0 km/h
1099 13-07-2009 03:56:58 17.4 C 11.86 g/m*3 17.4 C 0 km/h
1100 13-07-2009 04:08:58 17.4 C 11.86 g/m*3 17.4 C 0 km/h
Sensor: Nr:Datum:Temp:Abs-Feuchte:Windchill:Wind:
Aussen-T/F 1101 13-07-2009 04:20:58 17.4 C 11.86 g/m*3 17.4 C 0 km/h
1102 13-07-2009 04:32:58 17.3 C 11.93 g/m*3 17.3 C 0 km/h
1103 13-07-2009 04:44:58 17.4 C 12.15 g/m*3 17.4 C 0 km/h
1104 13-07-2009 04:56:59 17.4 C 12.15 g/m*3 17.4 C 0 km/h
1105 13-07-2009 05:08:59 17.2 C 12.01 g/m*3 17.2 C 0 km/h
1106 13-07-2009 05:20:59 17 C 12.15 g/m*3 17 C 0 km/h
1107 13-07-2009 05:32:59 16.7 C 12.36 g/m*3 16.7 C 0 km/h
1108 13-07-2009 05:44:59 16.6 C 12.57 g/m*3 16.6 C 0 km/h
1109 13-07-2009 05:56:59 16.6 C 12.71 g/m*3 16.6 C 0 km/h
1110 13-07-2009 06:08:59 16.5 C 12.78 g/m*3 16.5 C 0 km/h
1111 13-07-2009 06:20:59 16.3 C 12.62 g/m*3 16.3 C 0 km/h
1112 13-07-2009 06:32:59 16.4 C 12.84 g/m*3 16.4 C 0 km/h
1113 13-07-2009 06:44:59 16.4 C 12.84 g/m*3 16.4 C 0 km/h
1114 13-07-2009 06:56:59 16.5 C 12.92 g/m*3 16.5 C 0 km/h
1115 13-07-2009 07:07:59 16.8 C 13.3 g/m*3 16.8 C 0 km/h
1116 13-07-2009 07:19:59 17.2 C 13.47 g/m*3 17.2 C 0 km/h
1117 13-07-2009 07:31:59 17.6 C 13.95 g/m*3 17.6 C 0 km/h
1118 13-07-2009 07:43:59 17.6 C 13.8 g/m*3 17.6 C 0 km/h
1119 13-07-2009 07:55:59 17.3 C 13.55 g/m*3 17.3 C 0 km/h
1120 13-07-2009 08:08:57 17.4 C 13.49 g/m*3 17.4 C 0 km/h
1121 13-07-2009 08:20:56 17.7 C 13.73 g/m*3 17.7 C 0 km/h
1122 13-07-2009 08:32:56 17.7 C 13.58 g/m*3 17.7 C 0 km/h
1123 13-07-2009 08:44:56 17.9 C 13.59 g/m*3 17.9 C 0 km/h
1124 13-07-2009 08:56:56 18.4 C 13.84 g/m*3 18.4 C 0 km/h
1125 13-07-2009 09:08:56 19.1 C 14.26 g/m*3 19.1 C 0 km/h
Sensor: Nr:Datum:Temp:Abs-Feuchte:Windchill:Wind:
Aussen-T/F 1126 13-07-2009 09:20:55 19 C 13.53 g/m*3 19 C 0 km/h
1127 13-07-2009 09:32:56 19.5 C 13.59 g/m*3 19.5 C 0 km/h
1128 13-07-2009 09:44:56 19.3 C 12.61 g/m*3 19.3 C 0 km/h
1129 13-07-2009 09:56:57 20.6 C 13.6 g/m*3 20.6 C 0 km/h
1130 13-07-2009 10:08:55 20.5 C 12.63 g/m*3 20.5 C 0 km/h
1131 13-07-2009 10:20:55 20.7 C 13.14 g/m*3 20.7 C 0 km/h
1132 13-07-2009 10:32:55 21.4 C 13.5 g/m*3 21.4 C 0 km/h
1133 13-07-2009 10:44:55 21.9 C 12.93 g/m*3 21.9 C 0 km/h
1134 13-07-2009 10:56:55 21.2 C 11.68 g/m*3 21.2 C 0 km/h
1135 13-07-2009 11:08:55 21.2 C 10.93 g/m*3 21.2 C 0 km/h
1136 13-07-2009 11:20:54 21.9 C 10.23 g/m*3 21.9 C 0 km/h
1137 13-07-2009 11:32:55 22.5 C 9.39 g/m*3 22.5 C 0 km/h
1138 13-07-2009 11:44:54 23.2 C 8.73 g/m*3 23.2 C 0 km/h
1139 13-07-2009 11:56:54 24.3 C 8.19 g/m*3 24.3 C 0 km/h
1140 13-07-2009 12:08:54 24.1 C 8.31 g/m*3 24.1 C 0 km/h
1141 13-07-2009 12:20:54 24.3 C 7.97 g/m*3 24.3 C 0 km/h
1142 13-07-2009 12:32:54 24.9 C 7.55 g/m*3 24.9 C 0 km/h
1143 13-07-2009 12:44:54 26.1 C 7.59 g/m*3 26.1 C 0 km/h
1144 13-07-2009 12:56:54 26.7 C 7.34 g/m*3 26.7 C 0 km/h
1145 13-07-2009 13:08:54 27.7 C 7.22 g/m*3 27.7 C 0 km/h
1146 13-07-2009 13:20:54 27.7 C 6.69 g/m*3 27.7 C 0 km/h
1147 13-07-2009 13:32:53 29.5 C 6.79 g/m*3 29.5 C 0 km/h
1148 13-07-2009 13:44:53 28.2 C 7.15 g/m*3 28.2 C 0 km/h
1149 13-07-2009 13:56:53 26.7 C 6.58 g/m*3 26.7 C 0 km/h
1150 13-07-2009 14:08:53 27.9 C 6.76 g/m*3 27.9 C 0 km/h
Sensor: Nr:Datum:Temp:Abs-Feuchte:Windchill:Wind:
Aussen-T/F 1151 13-07-2009 14:20:53 27.8 C 6.99 g/m*3 27.8 C 0 km/h
1152 13-07-2009 14:32:53 27.8 C 6.99 g/m*3 27.8 C 0 km/h
1153 13-07-2009 14:44:53 28.4 C 7.23 g/m*3 28.4 C 0 km/h
1154 13-07-2009 14:56:53 28.1 C 6.84 g/m*3 28.1 C 0 km/h
1155 13-07-2009 15:08:53 28.3 C 6.91 g/m*3 28.3 C 0 km/h
1156 13-07-2009 15:20:52 28.4 C 7.23 g/m*3 28.4 C 0 km/h
1157 13-07-2009 15:32:52 29.2 C 7.55 g/m*3 29.2 C 0 km/h
1158 13-07-2009 15:44:52 29.3 C 7.3 g/m*3 29.3 C 0 km/h
1159 13-07-2009 15:56:52 29 C 8.62 g/m*3 29 C 0 km/h
1160 13-07-2009 16:08:52 29.6 C 7.42 g/m*3 29.6 C 0 km/h
1161 13-07-2009 16:20:51 29.5 C 9.15 g/m*3 29.5 C 0 km/h
1162 13-07-2009 16:32:02 30.1 C 9.15 g/m*3 30.1 C 0 km/h
1163 13-07-2009 16:44:02 30 C 6.67 g/m*3 30 C 0 km/h
1164 13-07-2009 16:56:01 29.8 C 9 g/m*3 29.8 C 0 km/h
1165 13-07-2009 17:08:02 29.1 C 9.24 g/m*3 29.1 C 0 km/h
1166 13-07-2009 17:20:01 28.9 C 10 g/m*3 28.9 C 0 km/h
1167 13-07-2009 17:32:01 28.2 C 9.9 g/m*3 28.2 C 0 km/h
1168 13-07-2009 17:44:01 29.3 C 9.63 g/m*3 29.3 C 0 km/h
1169 13-07-2009 17:56:01 29.3 C 9.93 g/m*3 29.3 C 0 km/h
1170 13-07-2009 18:08:01 28.3 C 10.23 g/m*3 28.3 C 0 km/h
1171 13-07-2009 18:20:00 27.3 C 10.47 g/m*3 27.3 C 0 km/h
1172 13-07-2009 18:32:01 26.4 C 10.95 g/m*3 26.4 C 0 km/h
1173 13-07-2009 18:44:01 25.6 C 11.43 g/m*3 25.6 C 0 km/h
1174 13-07-2009 18:56:01 25.2 C 11.64 g/m*3 25.2 C 0 km/h
1175 13-07-2009 19:08:00 24.7 C 11.77 g/m*3 24.7 C 0 km/h
Sensor: Nr:Datum:Temp:Abs-Feuchte:Windchill:Wind:
Aussen-T/F 1176 13-07-2009 19:20:00 24.3 C 11.06 g/m*3 24.3 C 0 km/h
1177 13-07-2009 19:32:01 23.7 C 13.05 g/m*3 23.7 C 0 km/h
1178 13-07-2009 19:44:01 21.7 C 13.73 g/m*3 21.7 C 0 km/h
1179 13-07-2009 19:56:00 21.6 C 13.85 g/m*3 21.6 C 0 km/h
1180 13-07-2009 20:08:59 21.6 C 13.66 g/m*3 21.6 C 0 km/h
1181 13-07-2009 20:20:00 21.7 C 13.73 g/m*3 21.7 C 0 km/h
1182 13-07-2009 20:32:00 21.9 C 13.7 g/m*3 21.9 C 0 km/h
1183 13-07-2009 20:44:00 21.8 C 13.62 g/m*3 21.8 C 0 km/h
1184 13-07-2009 20:56:59 21.9 C 13.31 g/m*3 21.9 C 0 km/h
1185 13-07-2009 21:08:59 22 C 13.2 g/m*3 22 C 0 km/h
1186 13-07-2009 21:20:59 22.3 C 12.83 g/m*3 22.3 C 0 km/h
1187 13-07-2009 21:32:59 22.4 C 12.91 g/m*3 22.4 C 0 km/h
1188 13-07-2009 21:44:59 22.2 C 12.76 g/m*3 22.2 C 0 km/h
1189 13-07-2009 21:56:59 22.2 C 12.96 g/m*3 22.2 C 0 km/h
1190 13-07-2009 22:09:01 21.4 C 13.5 g/m*3 21.4 C 0 km/h
1191 13-07-2009 22:21:01 20.6 C 13.78 g/m*3 20.6 C 0 km/h
1192 13-07-2009 22:33:01 20.2 C 14.16 g/m*3 20.2 C 0 km/h
1193 13-07-2009 22:45:01 20 C 14.34 g/m*3 20 C 0 km/h
1194 13-07-2009 22:57:01 19.7 C 14.26 g/m*3 19.7 C 0 km/h
1195 13-07-2009 23:09:01 19.7 C 14.26 g/m*3 19.7 C 0 km/h
1196 13-07-2009 23:21:02 20 C 14.52 g/m*3 20 C 0 km/h
1197 13-07-2009 23:33:02 20 C 14.34 g/m*3 20 C 0 km/h
1198 13-07-2009 23:45:02 19.9 C 14.43 g/m*3 19.9 C 0 km/h
1199 13-07-2009 23:57:02 19.6 C 14.18 g/m*3 19.6 C 0 km/h
1200 14-07-2009 00:09:02 19.7 C 14.09 g/m*3 19.7 C 0 km/h
Sensor: Nr:Datum:Temp:Abs-Feuchte:Windchill:Wind:
Aussen-T/F 1201 14-07-2009 00:21:02 19.7 C 13.92 g/m*3 19.7 C 0 km/h
1202 14-07-2009 00:33:02 19.4 C 13.85 g/m*3 19.4 C 0 km/h
1203 14-07-2009 00:45:02 19.2 C 13.85 g/m*3 19.2 C 0 km/h
1204 14-07-2009 00:57:02 19 C 13.85 g/m*3 19 C 0 km/h
1205 14-07-2009 01:09:02 18.9 C 14.09 g/m*3 18.9 C 0 km/h
1206 14-07-2009 01:21:02 18.9 C 14.26 g/m*3 18.9 C 0 km/h
1207 14-07-2009 01:33:02 18.8 C 14.33 g/m*3 18.8 C 0 km/h
1208 14-07-2009 01:45:02 18.7 C 14.25 g/m*3 18.7 C 0 km/h
1209 14-07-2009 01:57:02 18.7 C 14.41 g/m*3 18.7 C 0 km/h
1210 14-07-2009 02:09:02 18.7 C 14.41 g/m*3 18.7 C 0 km/h
1211 14-07-2009 02:21:02 18.6 C 14.48 g/m*3 18.6 C 0 km/h
1212 14-07-2009 02:33:02 18.9 C 14.74 g/m*3 18.9 C 0 km/h
1213 14-07-2009 02:45:02 18.8 C 14.66 g/m*3 18.8 C 0 km/h
1214 14-07-2009 02:57:02 18.7 C 14.57 g/m*3 18.7 C 0 km/h
1215 14-07-2009 03:09:02 18.7 C 14.57 g/m*3 18.7 C 0 km/h
1216 14-07-2009 03:32:03 18.7 C 14.57 g/m*3 18.7 C 0 km/h
1217 14-07-2009 03:44:03 18.9 C 14.9 g/m*3 18.9 C 0 km/h
1218 14-07-2009 03:56:03 18.9 C 14.9 g/m*3 18.9 C 0 km/h
1219 14-07-2009 04:08:03 18.8 C 14.82 g/m*3 18.8 C 0 km/h
1220 14-07-2009 04:20:03 18.6 C 14.48 g/m*3 18.6 C 0 km/h
1221 14-07-2009 04:32:03 18.7 C 14.73 g/m*3 18.7 C 0 km/h
1222 14-07-2009 04:44:03 18.8 C 14.82 g/m*3 18.8 C 0 km/h
1223 14-07-2009 04:56:03 18.7 C 14.73 g/m*3 18.7 C 0 km/h
1224 14-07-2009 05:08:03 18.7 C 14.73 g/m*3 18.7 C 0 km/h
1225 14-07-2009 05:20:03 18.8 C 14.66 g/m*3 18.8 C 0 km/h
Sensor: Nr:Datum:Temp:Abs-Feuchte:Windchill:Wind:
Aussen-T/F 1226 14-07-2009 05:32:03 18.7 C 14.57 g/m*3 18.7 C 0 km/h
1227 14-07-2009 05:44:03 18.7 C 14.57 g/m*3 18.7 C 0 km/h
1228 14-07-2009 05:56:03 18.7 C 14.57 g/m*3 18.7 C 0 km/h
1229 14-07-2009 06:08:03 18.7 C 14.73 g/m*3 18.7 C 0 km/h
1230 14-07-2009 06:20:03 18.6 C 14.48 g/m*3 18.6 C 0 km/h
1231 14-07-2009 06:32:03 18.6 C 14.64 g/m*3 18.6 C 0 km/h
1232 14-07-2009 06:44:03 18.6 C 14.64 g/m*3 18.6 C 0 km/h
1233 14-07-2009 06:56:03 18.6 C 14.64 g/m*3 18.6 C 0 km/h
1234 14-07-2009 07:08:03 18.9 C 14.9 g/m*3 18.9 C 0 km/h
1235 14-07-2009 07:20:04 19.1 C 14.92 g/m*3 19.1 C 0 km/h
1236 14-07-2009 07:32:04 19.1 C 14.92 g/m*3 19.1 C 0 km/h
1237 14-07-2009 07:44:04 19.2 C 15.01 g/m*3 19.2 C 0 km/h
1238 14-07-2009 07:45:01 19.1 C 14.75 g/m*3 19.1 C 0 km/h
1239 14-07-2009 07:57:01 19.1 C 14.75 g/m*3 19.1 C 0 km/h
1240 14-07-2009 08:09:02 19.2 C 14.84 g/m*3 19.2 C 0 km/h
1241 14-07-2009 08:21:01 19.5 C 14.94 g/m*3 19.5 C 0 km/h
1242 14-07-2009 08:33:01 19.6 C 14.86 g/m*3 19.6 C 0 km/h
1243 14-07-2009 08:45:01 20 C 15.04 g/m*3 20 C 0 km/h
1244 14-07-2009 08:57:01 20.3 C 14.95 g/m*3 20.3 C 0 km/h
1245 14-07-2009 09:09:01 20.6 C 14.86 g/m*3 20.6 C 0 km/h
1246 14-07-2009 09:21:02 21 C 14.84 g/m*3 21 C 0 km/h
1247 14-07-2009 09:33:01 21.5 C 14.71 g/m*3 21.5 C 0 km/h
1248 14-07-2009 09:45:02 21.6 C 14.03 g/m*3 21.6 C 0 km/h
1249 14-07-2009 09:57:02 21.9 C 14.28 g/m*3 21.9 C 0 km/h
1250 14-07-2009 10:09:01 22 C 13.78 g/m*3 22 C 0 km/h
Sensor: Nr:Datum:Temp:Abs-Feuchte:Windchill:Wind:
Aussen-T/F 1251 14-07-2009 10:21:01 21.3 C 13.79 g/m*3 21.3 C 0 km/h
1252 14-07-2009 10:33:01 21.1 C 14.19 g/m*3 21.1 C 0 km/h
1253 14-07-2009 10:45:01 21.6 C 14.41 g/m*3 21.6 C 0 km/h
1254 14-07-2009 10:57:01 22 C 13.39 g/m*3 22 C 0 km/h
1255 14-07-2009 11:09:01 23.1 C 13.64 g/m*3 23.1 C 0 km/h
1256 14-07-2009 11:21:01 22.9 C 13.08 g/m*3 22.9 C 0 km/h
1257 14-07-2009 11:33:02 23.4 C 13.46 g/m*3 23.4 C 0 km/h
1258 14-07-2009 11:45:01 23.4 C 12.62 g/m*3 23.4 C 0 km/h
1259 14-07-2009 11:57:01 24.3 C 12.83 g/m*3 24.3 C 0 km/h
1260 14-07-2009 12:09:02 24.3 C 11.51 g/m*3 24.3 C 0 km/h
1261 14-07-2009 12:21:01 25.2 C 11.87 g/m*3 25.2 C 0 km/h
1262 14-07-2009 12:33:01 26.3 C 11.14 g/m*3 26.3 C 0 km/h
1263 14-07-2009 12:45:01 26.7 C 11.64 g/m*3 26.7 C 0 km/h
1264 14-07-2009 12:57:01 27.9 C 10.82 g/m*3 27.9 C 0 km/h
1265 14-07-2009 13:09:01 27.4 C 10.79 g/m*3 27.4 C 0 km/h
1266 14-07-2009 13:21:02 27.4 C 10.52 g/m*3 27.4 C 0 km/h
1267 14-07-2009 13:33:01 28.7 C 10.46 g/m*3 28.7 C 0 km/h
1268 14-07-2009 13:45:02 27.3 C 9.94 g/m*3 27.3 C 0 km/h
1269 14-07-2009 13:57:02 28 C 9.79 g/m*3 28 C 0 km/h
1270 14-07-2009 14:09:01 28.1 C 9.57 g/m*3 28.1 C 0 km/h
1271 14-07-2009 14:21:02 27.9 C 10.28 g/m*3 27.9 C 0 km/h
1272 14-07-2009 14:33:01 27.6 C 10.38 g/m*3 27.6 C 0 km/h
1273 14-07-2009 14:45:01 27.2 C 10.15 g/m*3 27.2 C 0 km/h
1274 14-07-2009 14:57:02 26.9 C 10.49 g/m*3 26.9 C 0 km/h
1275 14-07-2009 15:09:01 27.4 C 10.79 g/m*3 27.4 C 0 km/h
Sensor: Nr:Datum:Temp:Abs-Feuchte:Windchill:Wind:
Aussen-T/F 1276 14-07-2009 15:21:01 28.1 C 9.84 g/m*3 28.1 C 0 km/h
1277 14-07-2009 15:33:02 28.3 C 10.23 g/m*3 28.3 C 0 km/h
1278 14-07-2009 15:45:01 28.6 C 10.12 g/m*3 28.6 C 0 km/h
1279 14-07-2009 15:57:01 29.4 C 9.98 g/m*3 29.4 C 0 km/h
1280 14-07-2009 16:09:02 29.1 C 9.82 g/m*3 29.1 C 0 km/h
1281 14-07-2009 16:21:01 28.5 C 9.78 g/m*3 28.5 C 0 km/h
1282 14-07-2009 16:33:01 29 C 9.48 g/m*3 29 C 0 km/h
1283 14-07-2009 16:45:01 29.5 C 10.03 g/m*3 29.5 C 0 km/h
1284 14-07-2009 16:57:01 29 C 9.77 g/m*3 29 C 0 km/h
1285 14-07-2009 17:09:01 28.7 C 10.17 g/m*3 28.7 C 0 km/h
1286 14-07-2009 17:21:02 28.5 C 10.06 g/m*3 28.5 C 0 km/h
1287 14-07-2009 17:33:01 29.9 C 9.65 g/m*3 29.9 C 0 km/h
1288 14-07-2009 17:45:02 28.6 C 10.12 g/m*3 28.6 C 0 km/h
1289 14-07-2009 17:57:02 27.8 C 10.22 g/m*3 27.8 C 0 km/h
1290 14-07-2009 18:09:01 27.6 C 10.11 g/m*3 27.6 C 0 km/h
1291 14-07-2009 18:21:02 28.8 C 9.94 g/m*3 28.8 C 0 km/h
1292 14-07-2009 18:33:01 30.1 C 9.76 g/m*3 30.1 C 0 km/h
1293 14-07-2009 18:45:01 30.3 C 9.86 g/m*3 30.3 C 0 km/h
1294 14-07-2009 18:57:02 29.3 C 9.34 g/m*3 29.3 C 0 km/h
1295 14-07-2009 19:09:01 28.4 C 10.01 g/m*3 28.4 C 0 km/h
1296 14-07-2009 19:21:01 28.2 C 10.45 g/m*3 28.2 C 0 km/h
1297 14-07-2009 19:33:02 30.1 C 9.76 g/m*3 30.1 C 0 km/h
1298 14-07-2009 19:45:01 30.3 C 9.86 g/m*3 30.3 C 0 km/h
1299 14-07-2009 19:57:01 30 C 9.7 g/m*3 30 C 0 km/h
1300 14-07-2009 20:09:02 28.7 C 10.17 g/m*3 28.7 C 0 km/h
Sensor: Nr:Datum:Temp:Abs-Feuchte:Windchill:Wind:
Aussen-T/F 1301 14-07-2009 20:21:01 29.4 C 10.27 g/m*3 29.4 C 0 km/h
1302 14-07-2009 20:33:01 29.2 C 10.16 g/m*3 29.2 C 0 km/h
1303 14-07-2009 20:45:01 28.2 C 10.72 g/m*3 28.2 C 0 km/h
1304 14-07-2009 20:57:01 27.7 C 11.23 g/m*3 27.7 C 0 km/h
1305 14-07-2009 21:09:01 26.7 C 11.39 g/m*3 26.7 C 0 km/h
1306 14-07-2009 21:21:01 25.8 C 11.8 g/m*3 25.8 C 0 km/h
1307 14-07-2009 21:33:02 24.8 C 11.84 g/m*3 24.8 C 0 km/h
1308 14-07-2009 21:45:01 24.1 C 11.82 g/m*3 24.1 C 0 km/h
1309 14-07-2009 21:57:01 23.4 C 11.99 g/m*3 23.4 C 0 km/h
1310 14-07-2009 22:10:53 22.9 C 12.26 g/m*3 22.9 C 0 km/h
1311 14-07-2009 22:22:53 22.7 C 12.53 g/m*3 22.7 C 0 km/h
1312 14-07-2009 22:34:53 22.7 C 12.53 g/m*3 22.7 C 0 km/h
1313 14-07-2009 22:46:53 22.6 C 12.66 g/m*3 22.6 C 0 km/h
1314 14-07-2009 22:58:53 22.5 C 12.98 g/m*3 22.5 C 0 km/h
1315 14-07-2009 23:10:53 22.4 C 12.91 g/m*3 22.4 C 0 km/h
1316 14-07-2009 23:22:53 22.2 C 12.96 g/m*3 22.2 C 0 km/h
1317 14-07-2009 23:34:53 22 C 13 g/m*3 22 C 0 km/h
1318 14-07-2009 23:46:53 22.2 C 12.96 g/m*3 22.2 C 0 km/h
1319 14-07-2009 23:58:53 22.4 C 12.91 g/m*3 22.4 C 0 km/h
1320 15-07-2009 00:10:53 22.9 C 13.08 g/m*3 22.9 C 0 km/h
1321 15-07-2009 00:22:53 22.7 C 12.73 g/m*3 22.7 C 0 km/h
1322 15-07-2009 00:34:54 22.3 C 12.44 g/m*3 22.3 C 0 km/h
1323 15-07-2009 00:46:54 22.1 C 12.3 g/m*3 22.1 C 0 km/h
1324 15-07-2009 00:58:54 22 C 12.42 g/m*3 22 C 0 km/h
1325 15-07-2009 01:10:54 21.8 C 12.66 g/m*3 21.8 C 0 km/h
Sensor: Nr:Datum:Temp:Abs-Feuchte:Windchill:Wind:
Aussen-T/F 1326 15-07-2009 01:22:54 21.7 C 12.78 g/m*3 21.7 C 0 km/h
1327 15-07-2009 01:34:54 21.5 C 12.82 g/m*3 21.5 C 0 km/h
1328 15-07-2009 01:46:54 21.4 C 12.75 g/m*3 21.4 C 0 km/h
1329 15-07-2009 01:58:54 21.2 C 12.79 g/m*3 21.2 C 0 km/h
1330 15-07-2009 02:10:54 21.2 C 12.79 g/m*3 21.2 C 0 km/h
1331 15-07-2009 02:22:54 20.9 C 12.57 g/m*3 20.9 C 0 km/h
1332 15-07-2009 02:34:54 20.9 C 12.57 g/m*3 20.9 C 0 km/h
1333 15-07-2009 02:46:54 21.1 C 11.98 g/m*3 21.1 C 0 km/h
1334 15-07-2009 02:58:54 21 C 11.91 g/m*3 21 C 0 km/h
1335 15-07-2009 03:10:54 21 C 11.72 g/m*3 21 C 0 km/h
1336 15-07-2009 03:22:54 20.9 C 12.02 g/m*3 20.9 C 0 km/h
1337 15-07-2009 03:34:54 20.6 C 11.99 g/m*3 20.6 C 0 km/h
1338 15-07-2009 03:46:54 20.5 C 12.1 g/m*3 20.5 C 0 km/h
1339 15-07-2009 03:58:54 20.5 C 11.74 g/m*3 20.5 C 0 km/h
1340 15-07-2009 04:10:54 20.5 C 11.57 g/m*3 20.5 C 0 km/h
1341 15-07-2009 04:22:55 20.4 C 11.5 g/m*3 20.4 C 0 km/h
1342 15-07-2009 04:34:55 20.1 C 11.3 g/m*3 20.1 C 0 km/h
1343 15-07-2009 04:46:55 19.7 C 11.55 g/m*3 19.7 C 0 km/h
1344 15-07-2009 04:58:55 19.5 C 11.58 g/m*3 19.5 C 0 km/h
1345 15-07-2009 05:10:55 19.7 C 11.72 g/m*3 19.7 C 0 km/h
1346 15-07-2009 05:22:55 19.8 C 11.61 g/m*3 19.8 C 0 km/h
1347 15-07-2009 05:34:55 19.9 C 11.68 g/m*3 19.9 C 0 km/h
1348 15-07-2009 05:46:55 19.9 C 11.68 g/m*3 19.9 C 0 km/h
1349 15-07-2009 05:58:55 19.9 C 11.68 g/m*3 19.9 C 0 km/h
1350 15-07-2009 06:10:55 19.9 C 11.68 g/m*3 19.9 C 0 km/h
Sensor: Nr:Datum:Temp:Abs-Feuchte:Windchill:Wind:
Aussen-T/F 1351 15-07-2009 06:22:55 19.9 C 11.68 g/m*3 19.9 C 0 km/h
1352 15-07-2009 06:34:55 19.8 C 11.79 g/m*3 19.8 C 0 km/h
1353 15-07-2009 06:46:52 19.7 C 11.72 g/m*3 19.7 C 0 km/h
1354 15-07-2009 06:58:52 19.9 C 11.85 g/m*3 19.9 C 0 km/h
1355 15-07-2009 07:10:52 20 C 11.75 g/m*3 20 C 0 km/h
1356 15-07-2009 07:22:52 20.2 C 12.06 g/m*3 20.2 C 0 km/h
1357 15-07-2009 07:34:51 20.7 C 12.06 g/m*3 20.7 C 0 km/h
1358 15-07-2009 07:46:52 21 C 11.54 g/m*3 21 C 0 km/h
1359 15-07-2009 07:58:52 20.9 C 11.66 g/m*3 20.9 C 0 km/h
1360 15-07-2009 08:10:51 20.8 C 11.59 g/m*3 20.8 C 0 km/h
1361 15-07-2009 08:22:51 20.8 C 11.59 g/m*3 20.8 C 0 km/h
1362 15-07-2009 08:34:51 20.8 C 11.23 g/m*3 20.8 C 0 km/h
1363 15-07-2009 08:46:51 21 C 11.17 g/m*3 21 C 0 km/h
1364 15-07-2009 08:58:51 21.6 C 11.19 g/m*3 21.6 C 0 km/h
1365 15-07-2009 09:10:51 21.9 C 11.19 g/m*3 21.9 C 0 km/h
1366 15-07-2009 09:22:50 22 C 11.26 g/m*3 22 C 0 km/h
1367 15-07-2009 09:34:51 21.8 C 11.13 g/m*3 21.8 C 0 km/h
1368 15-07-2009 09:46:50 22.4 C 11.32 g/m*3 22.4 C 0 km/h
1369 15-07-2009 09:58:50 22.7 C 11.31 g/m*3 22.7 C 0 km/h
1370 15-07-2009 10:10:50 23.1 C 10.96 g/m*3 23.1 C 0 km/h
1371 15-07-2009 10:22:50 23.4 C 11.14 g/m*3 23.4 C 0 km/h
1372 15-07-2009 10:34:50 23.4 C 10.93 g/m*3 23.4 C 0 km/h
1373 15-07-2009 10:46:50 23.8 C 11.19 g/m*3 23.8 C 0 km/h
1374 15-07-2009 10:58:50 24.1 C 10.72 g/m*3 24.1 C 0 km/h
1375 15-07-2009 11:10:50 24.3 C 10.62 g/m*3 24.3 C 0 km/h
Sensor: Nr:Datum:Temp:Abs-Feuchte:Windchill:Wind:
Aussen-T/F 1376 15-07-2009 11:22:50 25 C 10.59 g/m*3 25 C 0 km/h
1377 15-07-2009 11:34:49 25 C 10.36 g/m*3 25 C 0 km/h
1378 15-07-2009 11:46:50 25.1 C 9.95 g/m*3 25.1 C 0 km/h
1379 15-07-2009 11:58:50 25.4 C 9.89 g/m*3 25.4 C 0 km/h
1380 15-07-2009 12:10:49 25.6 C 9.28 g/m*3 25.6 C 0 km/h
1381 15-07-2009 12:22:49 26 C 8.76 g/m*3 26 C 0 km/h
1382 15-07-2009 12:34:49 26.9 C 8.45 g/m*3 26.9 C 0 km/h
1383 15-07-2009 12:46:49 27.7 C 8.29 g/m*3 27.7 C 0 km/h
1384 15-07-2009 12:58:49 28 C 7.89 g/m*3 28 C 0 km/h
1385 15-07-2009 13:10:49 27.6 C 7.71 g/m*3 27.6 C 0 km/h
1386 15-07-2009 13:22:48 28.1 C 7.93 g/m*3 28.1 C 0 km/h
1387 15-07-2009 13:34:49 29 C 7.76 g/m*3 29 C 0 km/h
1388 15-07-2009 13:46:48 28.7 C 7.35 g/m*3 28.7 C 0 km/h
1389 15-07-2009 13:58:48 28.4 C 6.95 g/m*3 28.4 C 0 km/h
1390 15-07-2009 14:10:48 28.2 C 6.87 g/m*3 28.2 C 0 km/h
1391 15-07-2009 14:22:47 28 C 7.07 g/m*3 28 C 0 km/h
1392 15-07-2009 14:34:48 28.3 C 7.19 g/m*3 28.3 C 0 km/h
1393 15-07-2009 14:46:47 28.2 C 6.87 g/m*3 28.2 C 0 km/h
1394 15-07-2009 14:58:47 29.1 C 7.22 g/m*3 29.1 C 0 km/h
1395 15-07-2009 15:10:47 29.4 C 6.75 g/m*3 29.4 C 0 km/h
1396 15-07-2009 15:22:48 30.1 C 6.71 g/m*3 30.1 C 0 km/h
1397 15-07-2009 15:34:47 30.3 C 6.78 g/m*3 30.3 C 0 km/h
1398 15-07-2009 15:46:47 29.7 C 6.27 g/m*3 29.7 C 0 km/h
1399 15-07-2009 15:58:47 29.4 C 6.75 g/m*3 29.4 C 0 km/h
1400 15-07-2009 16:10:47 29.8 C 6.9 g/m*3 29.8 C 0 km/h
Sensor: Nr:Datum:Temp:Abs-Feuchte:Windchill:Wind:
Aussen-T/F 1401 15-07-2009 16:22:47 29.8 C 7.2 g/m*3 29.8 C 0 km/h
1402 15-07-2009 16:34:46 29.6 C 6.53 g/m*3 29.6 C 0 km/h
1403 15-07-2009 16:46:47 29.4 C 7.05 g/m*3 29.4 C 0 km/h
1404 15-07-2009 16:58:47 28.9 C 6.86 g/m*3 28.9 C 0 km/h
1405 15-07-2009 17:10:47 29.3 C 6.72 g/m*3 29.3 C 0 km/h
1406 15-07-2009 17:22:46 28.9 C 6.57 g/m*3 28.9 C 0 km/h
1407 15-07-2009 17:34:46 29.1 C 6.64 g/m*3 29.1 C 0 km/h
1408 15-07-2009 17:46:46 28.5 C 6.71 g/m*3 28.5 C 0 km/h
1409 15-07-2009 17:58:46 28.5 C 6.99 g/m*3 28.5 C 0 km/h
1410 15-07-2009 18:10:46 28 C 6.8 g/m*3 28 C 0 km/h
1411 15-07-2009 18:22:45 27.9 C 7.3 g/m*3 27.9 C 0 km/h
1412 15-07-2009 18:34:46 27.5 C 6.88 g/m*3 27.5 C 0 km/h
1413 15-07-2009 18:46:45 28.1 C 6.56 g/m*3 28.1 C 0 km/h
1414 15-07-2009 18:58:45 28.6 C 6.74 g/m*3 28.6 C 0 km/h
1415 15-07-2009 19:10:45 27.8 C 6.99 g/m*3 27.8 C 0 km/h
1416 15-07-2009 19:22:45 27.7 C 6.95 g/m*3 27.7 C 0 km/h
1417 15-07-2009 19:34:45 28.4 C 6.95 g/m*3 28.4 C 0 km/h
1418 15-07-2009 19:46:45 28.5 C 6.99 g/m*3 28.5 C 0 km/h
1419 15-07-2009 19:58:45 28.4 C 6.95 g/m*3 28.4 C 0 km/h
1420 15-07-2009 20:10:44 28.1 C 6.84 g/m*3 28.1 C 0 km/h
1421 15-07-2009 20:22:45 27.8 C 6.72 g/m*3 27.8 C 0 km/h
1422 15-07-2009 20:34:44 26.9 C 7.42 g/m*3 26.9 C 0 km/h
1423 15-07-2009 20:46:44 26.1 C 6.85 g/m*3 26.1 C 0 km/h
1424 15-07-2009 20:58:44 25.4 C 7.53 g/m*3 25.4 C 0 km/h
1425 15-07-2009 21:10:44 24.8 C 7.74 g/m*3 24.8 C 0 km/h
Sensor: Nr:Datum:Temp:Abs-Feuchte:Windchill:Wind:
Aussen-T/F 1426 15-07-2009 21:22:44 24.1 C 7.88 g/m*3 24.1 C 0 km/h
1427 15-07-2009 21:34:44 23.4 C 7.99 g/m*3 23.4 C 0 km/h
1428 15-07-2009 21:46:43 22.7 C 8.08 g/m*3 22.7 C 0 km/h
1429 15-07-2009 21:58:43 22.3 C 8.1 g/m*3 22.3 C 0 km/h
1430 15-07-2009 22:10:44 22 C 8.35 g/m*3 22 C 0 km/h
1431 15-07-2009 22:23:44 21.8 C 8.83 g/m*3 21.8 C 0 km/h
1432 15-07-2009 22:35:44 21.4 C 9.37 g/m*3 21.4 C 0 km/h
1433 15-07-2009 22:47:44 21.1 C 9.03 g/m*3 21.1 C 0 km/h
1434 15-07-2009 22:59:44 20.7 C 9 g/m*3 20.7 C 0 km/h
1435 15-07-2009 23:11:44 20.6 C 9.13 g/m*3 20.6 C 0 km/h
1436 15-07-2009 23:23:44 20.2 C 9.09 g/m*3 20.2 C 0 km/h
1437 15-07-2009 23:35:44 20 C 9.16 g/m*3 20 C 0 km/h
1438 15-07-2009 23:47:44 19.7 C 9.17 g/m*3 19.7 C 0 km/h
1439 15-07-2009 23:59:44 19.2 C 9.4 g/m*3 19.2 C 0 km/h
1440 16-07-2009 00:11:44 19.1 C 9.51 g/m*3 19.1 C 0 km/h
1441 16-07-2009 00:23:44 18.9 C 9.56 g/m*3 18.9 C 0 km/h
1442 16-07-2009 00:35:44 18.7 C 9.61 g/m*3 18.7 C 0 km/h
1443 16-07-2009 00:47:45 18.5 C 9.65 g/m*3 18.5 C 0 km/h
1444 16-07-2009 00:59:45 18.2 C 9.79 g/m*3 18.2 C 0 km/h
1445 16-07-2009 01:11:45 18 C 9.68 g/m*3 18 C 0 km/h
1446 16-07-2009 01:23:45 17.7 C 9.96 g/m*3 17.7 C 0 km/h
1447 16-07-2009 01:35:45 17.5 C 9.99 g/m*3 17.5 C 0 km/h
1448 16-07-2009 01:47:45 17.2 C 9.96 g/m*3 17.2 C 0 km/h
1449 16-07-2009 01:59:45 17.2 C 9.96 g/m*3 17.2 C 0 km/h
1450 16-07-2009 02:11:45 16.9 C 10.07 g/m*3 16.9 C 0 km/h
Sensor: Nr:Datum:Temp:Abs-Feuchte:Windchill:Wind:
Aussen-T/F 1451 16-07-2009 02:23:45 16.8 C 10.15 g/m*3 16.8 C 0 km/h
1452 16-07-2009 02:35:45 16.8 C 10.15 g/m*3 16.8 C 0 km/h
1453 16-07-2009 02:47:45 16.8 C 10.29 g/m*3 16.8 C 0 km/h
1454 16-07-2009 02:59:45 16.7 C 10.23 g/m*3 16.7 C 0 km/h
1455 16-07-2009 03:11:45 16.6 C 10.17 g/m*3 16.6 C 0 km/h
1456 16-07-2009 03:23:45 16.5 C 9.97 g/m*3 16.5 C 0 km/h
1457 16-07-2009 03:35:45 16.4 C 10.19 g/m*3 16.4 C 0 km/h
1458 16-07-2009 03:47:45 16.2 C 10.2 g/m*3 16.2 C 0 km/h
1459 16-07-2009 03:59:45 16.1 C 10.14 g/m*3 16.1 C 0 km/h
1460 16-07-2009 04:11:45 16 C 10.22 g/m*3 16 C 0 km/h
1461 16-07-2009 04:23:46 15.9 C 10.29 g/m*3 15.9 C 0 km/h
1462 16-07-2009 04:35:46 15.9 C 10.29 g/m*3 15.9 C 0 km/h
1463 16-07-2009 04:47:46 15.8 C 10.36 g/m*3 15.8 C 0 km/h
1464 16-07-2009 04:59:46 15.9 C 10.29 g/m*3 15.9 C 0 km/h
1465 16-07-2009 05:11:46 15.8 C 10.23 g/m*3 15.8 C 0 km/h
1466 16-07-2009 05:23:46 15.6 C 10.37 g/m*3 15.6 C 0 km/h
1467 16-07-2009 05:35:46 15.5 C 10.31 g/m*3 15.5 C 0 km/h
1468 16-07-2009 05:47:46 15.4 C 10.12 g/m*3 15.4 C 0 km/h
1469 16-07-2009 05:59:46 15.4 C 10.25 g/m*3 15.4 C 0 km/h
1470 16-07-2009 06:11:46 15.5 C 10.31 g/m*3 15.5 C 0 km/h
1471 16-07-2009 06:23:46 15.6 C 10.37 g/m*3 15.6 C 0 km/h
1472 16-07-2009 06:35:44 15.7 C 10.57 g/m*3 15.7 C 0 km/h
1473 16-07-2009 06:47:44 15.9 C 10.56 g/m*3 15.9 C 0 km/h
1474 16-07-2009 06:59:44 16.2 C 10.62 g/m*3 16.2 C 0 km/h
1475 16-07-2009 07:11:44 16.4 C 10.47 g/m*3 16.4 C 0 km/h
Sensor: Nr:Datum:Temp:Abs-Feuchte:Windchill:Wind:
Aussen-T/F 1476 16-07-2009 07:23:43 16.5 C 10.39 g/m*3 16.5 C 0 km/h
1477 16-07-2009 07:35:43 16.6 C 10.45 g/m*3 16.6 C 0 km/h
1478 16-07-2009 07:47:44 16.6 C 10.45 g/m*3 16.6 C 0 km/h
1479 16-07-2009 07:59:44 16.7 C 10.23 g/m*3 16.7 C 0 km/h
1480 16-07-2009 08:11:43 16.9 C 10.36 g/m*3 16.9 C 0 km/h
1481 16-07-2009 08:23:43 17.3 C 10.46 g/m*3 17.3 C 0 km/h
1482 16-07-2009 08:35:43 17.5 C 10.44 g/m*3 17.5 C 0 km/h
1483 16-07-2009 08:47:43 17.8 C 10.47 g/m*3 17.8 C 0 km/h
1484 16-07-2009 08:59:43 18.3 C 10.63 g/m*3 18.3 C 0 km/h
1485 16-07-2009 09:11:42 18.9 C 10.85 g/m*3 18.9 C 0 km/h
1486 16-07-2009 09:23:43 19.6 C 10.8 g/m*3 19.6 C 0 km/h
1487 16-07-2009 09:35:42 20.4 C 10.79 g/m*3 20.4 C 0 km/h
1488 16-07-2009 09:47:42 20.9 C 10.75 g/m*3 20.9 C 0 km/h
1489 16-07-2009 09:59:42 21.6 C 10.62 g/m*3 21.6 C 0 km/h
1490 16-07-2009 10:11:42 22.3 C 10.47 g/m*3 22.3 C 0 km/h
1491 16-07-2009 10:23:42 22.8 C 10.57 g/m*3 22.8 C 0 km/h
1492 16-07-2009 10:35:42 23.4 C 10.51 g/m*3 23.4 C 0 km/h
1493 16-07-2009 10:47:42 23.9 C 9.74 g/m*3 23.9 C 0 km/h
1494 16-07-2009 10:59:42 24 C 8.05 g/m*3 24 C 0 km/h
1495 16-07-2009 11:11:41 24.7 C 8.37 g/m*3 24.7 C 0 km/h
1496 16-07-2009 11:23:42 25 C 7.6 g/m*3 25 C 0 km/h
1497 16-07-2009 11:35:42 25.3 C 7.96 g/m*3 25.3 C 0 km/h
1498 16-07-2009 11:47:41 25.6 C 7.86 g/m*3 25.6 C 0 km/h
1499 16-07-2009 11:59:41 26.3 C 7.92 g/m*3 26.3 C 0 km/h
1500 16-07-2009 12:11:42 27.1 C 6.73 g/m*3 27.1 C 0 km/h
Sensor: Nr:Datum:Temp:Abs-Feuchte:Windchill:Wind:
Aussen-T/F 1501 16-07-2009 12:23:41 28.1 C 6.56 g/m*3 28.1 C 0 km/h
1502 16-07-2009 12:35:41 29.3 C 6.13 g/m*3 29.3 C 0 km/h
1503 16-07-2009 12:47:40 29.3 C 6.13 g/m*3 29.3 C 0 km/h
1504 16-07-2009 12:59:40 29.3 C 5.84 g/m*3 29.3 C 0 km/h
1505 16-07-2009 13:11:41 29.7 C 5.97 g/m*3 29.7 C 0 km/h
1506 16-07-2009 13:23:40 30.4 C 6.2 g/m*3 30.4 C 0 km/h
1507 16-07-2009 13:35:40 30.9 C 6.37 g/m*3 30.9 C 0 km/h
1508 16-07-2009 13:47:40 30.4 C 6.2 g/m*3 30.4 C 0 km/h
1509 16-07-2009 13:59:40 31.3 C 6.5 g/m*3 31.3 C 0 km/h
1510 16-07-2009 14:11:40 30.8 C 6.33 g/m*3 30.8 C 0 km/h
1511 16-07-2009 14:23:40 30.1 C 6.1 g/m*3 30.1 C 0 km/h
1512 16-07-2009 14:35:39 30.1 C 6.1 g/m*3 30.1 C 0 km/h
1513 16-07-2009 14:47:40 29.9 C 6.03 g/m*3 29.9 C 0 km/h
1514 16-07-2009 14:59:40 30.5 C 6.23 g/m*3 30.5 C 0 km/h
1515 16-07-2009 15:11:39 30.4 C 6.2 g/m*3 30.4 C 0 km/h
1516 16-07-2009 15:23:39 30.8 C 6.33 g/m*3 30.8 C 0 km/h
1517 16-07-2009 15:35:39 31.2 C 6.47 g/m*3 31.2 C 0 km/h
1518 16-07-2009 15:47:39 31.5 C 6.57 g/m*3 31.5 C 0 km/h
1519 16-07-2009 15:59:39 31.3 C 6.5 g/m*3 31.3 C 0 km/h
1520 16-07-2009 16:11:38 31.2 C 6.47 g/m*3 31.2 C 0 km/h
1521 16-07-2009 16:23:39 31.4 C 6.54 g/m*3 31.4 C 0 km/h
1522 16-07-2009 16:35:39 31.4 C 6.54 g/m*3 31.4 C 0 km/h
1523 16-07-2009 16:47:38 31.5 C 6.9 g/m*3 31.5 C 0 km/h
1524 16-07-2009 16:59:38 31 C 7.36 g/m*3 31 C 0 km/h
1525 16-07-2009 17:11:39 30.6 C 8.14 g/m*3 30.6 C 0 km/h
Sensor: Nr:Datum:Temp:Abs-Feuchte:Windchill:Wind:
Aussen-T/F 1526 16-07-2009 17:23:38 29.9 C 9.05 g/m*3 29.9 C 0 km/h
1527 16-07-2009 17:35:38 29.3 C 9.05 g/m*3 29.3 C 0 km/h
1528 16-07-2009 17:47:37 29.1 C 8.95 g/m*3 29.1 C 0 km/h
1529 16-07-2009 17:59:37 29.8 C 9 g/m*3 29.8 C 0 km/h
1530 16-07-2009 18:11:38 31 C 8.64 g/m*3 31 C 0 km/h
1531 16-07-2009 18:23:38 30.5 C 9.35 g/m*3 30.5 C 0 km/h
1532 16-07-2009 18:35:37 30.6 C 9.08 g/m*3 30.6 C 0 km/h
1533 16-07-2009 18:47:38 31.7 C 7.64 g/m*3 31.7 C 0 km/h
1534 16-07-2009 18:59:38 32.3 C 6.86 g/m*3 32.3 C 0 km/h
1535 16-07-2009 19:11:37 32.5 C 7.28 g/m*3 32.5 C 0 km/h
1536 16-07-2009 19:23:37 32.4 C 7.24 g/m*3 32.4 C 0 km/h
1537 16-07-2009 19:35:36 32.2 C 7.51 g/m*3 32.2 C 0 km/h
1538 16-07-2009 19:47:37 31.9 C 7.72 g/m*3 31.9 C 0 km/h
1539 16-07-2009 19:59:38 31.3 C 8.46 g/m*3 31.3 C 0 km/h
1540 16-07-2009 20:11:36 29.9 C 9.35 g/m*3 29.9 C 0 km/h
1541 16-07-2009 20:23:36 28.7 C 9.04 g/m*3 28.7 C 0 km/h
1542 16-07-2009 20:35:37 28 C 8.97 g/m*3 28 C 0 km/h
1543 16-07-2009 20:47:36 26.9 C 8.96 g/m*3 26.9 C 0 km/h
1544 16-07-2009 20:59:36 26.3 C 8.91 g/m*3 26.3 C 0 km/h
1545 16-07-2009 21:11:36 25.3 C 8.9 g/m*3 25.3 C 0 km/h
1546 16-07-2009 21:23:36 24.6 C 8.55 g/m*3 24.6 C 0 km/h
1547 16-07-2009 21:35:36 24.2 C 8.58 g/m*3 24.2 C 0 km/h
1548 16-07-2009 21:47:35 23.7 C 8.98 g/m*3 23.7 C 0 km/h
1549 16-07-2009 21:59:35 23.3 C 8.99 g/m*3 23.3 C 0 km/h
1550 16-07-2009 22:11:36 23 C 9.04 g/m*3 23 C 0 km/h
Sensor: Nr:Datum:Temp:Abs-Feuchte:Windchill:Wind:
Aussen-T/F 1551 16-07-2009 22:23:35 22.7 C 9.5 g/m*3 22.7 C 0 km/h
1552 16-07-2009 22:36:36 22.4 C 9.33 g/m*3 22.4 C 0 km/h
1553 16-07-2009 22:48:36 22.1 C 9.56 g/m*3 22.1 C 0 km/h
1554 16-07-2009 23:00:36 22 C 9.7 g/m*3 22 C 0 km/h
1555 16-07-2009 23:12:36 21.8 C 9.78 g/m*3 21.8 C 0 km/h
1556 16-07-2009 23:24:36 21.6 C 9.67 g/m*3 21.6 C 0 km/h
1557 16-07-2009 23:36:36 21.5 C 9.62 g/m*3 21.5 C 0 km/h
1558 16-07-2009 23:48:36 21.4 C 9.75 g/m*3 21.4 C 0 km/h
1559 17-07-2009 00:00:36 21.4 C 9.56 g/m*3 21.4 C 0 km/h
1560 17-07-2009 00:12:36 21.3 C 9.69 g/m*3 21.3 C 0 km/h
1561 17-07-2009 00:24:36 21.2 C 9.64 g/m*3 21.2 C 0 km/h
1562 17-07-2009 00:36:36 21.1 C 9.58 g/m*3 21.1 C 0 km/h
1563 17-07-2009 00:48:36 21.1 C 10.13 g/m*3 21.1 C 0 km/h
1564 17-07-2009 01:00:36 20.8 C 9.96 g/m*3 20.8 C 0 km/h
1565 17-07-2009 01:12:36 20.7 C 9.9 g/m*3 20.7 C 0 km/h
1566 17-07-2009 01:24:36 20.5 C 9.79 g/m*3 20.5 C 0 km/h
1567 17-07-2009 01:36:36 20.2 C 9.62 g/m*3 20.2 C 0 km/h
1568 17-07-2009 01:48:36 20.2 C 9.97 g/m*3 20.2 C 0 km/h
1569 17-07-2009 02:00:37 20.1 C 9.73 g/m*3 20.1 C 0 km/h
1570 17-07-2009 02:12:37 20 C 9.68 g/m*3 20 C 0 km/h
1571 17-07-2009 02:24:37 20 C 10.02 g/m*3 20 C 0 km/h
1572 17-07-2009 02:36:37 20 C 10.37 g/m*3 20 C 0 km/h
1573 17-07-2009 02:48:37 19.8 C 9.91 g/m*3 19.8 C 0 km/h
1574 17-07-2009 03:00:37 19.8 C 9.91 g/m*3 19.8 C 0 km/h
1575 17-07-2009 03:12:37 19.6 C 9.96 g/m*3 19.6 C 0 km/h
Sensor: Nr:Datum:Temp:Abs-Feuchte:Windchill:Wind:
Aussen-T/F 1576 17-07-2009 03:24:37 19.6 C 9.96 g/m*3 19.6 C 0 km/h
1577 17-07-2009 03:36:37 19.7 C 10.36 g/m*3 19.7 C 0 km/h
1578 17-07-2009 03:48:37 19.7 C 10.36 g/m*3 19.7 C 0 km/h
1579 17-07-2009 04:00:37 19.5 C 10.41 g/m*3 19.5 C 0 km/h
1580 17-07-2009 04:12:37 19.5 C 10.41 g/m*3 19.5 C 0 km/h
1581 17-07-2009 04:24:37 19.5 C 10.57 g/m*3 19.5 C 0 km/h
1582 17-07-2009 04:36:37 19.4 C 10.51 g/m*3 19.4 C 0 km/h
1583 17-07-2009 04:48:37 19.3 C 10.45 g/m*3 19.3 C 0 km/h
1584 17-07-2009 05:00:37 19 C 10.27 g/m*3 19 C 0 km/h
1585 17-07-2009 05:12:37 19.1 C 10.49 g/m*3 19.1 C 0 km/h
1586 17-07-2009 05:24:37 19.1 C 10.49 g/m*3 19.1 C 0 km/h
1587 17-07-2009 05:36:37 19.1 C 10.66 g/m*3 19.1 C 0 km/h
1588 17-07-2009 05:48:37 19.1 C 10.49 g/m*3 19.1 C 0 km/h
1589 17-07-2009 06:00:37 19.1 C 10.49 g/m*3 19.1 C 0 km/h
1590 17-07-2009 06:12:38 19.1 C 10.82 g/m*3 19.1 C 0 km/h
1591 17-07-2009 06:24:38 19 C 10.92 g/m*3 19 C 0 km/h
1592 17-07-2009 06:36:38 18.9 C 10.69 g/m*3 18.9 C 0 km/h
1593 17-07-2009 06:48:38 19.2 C 10.88 g/m*3 19.2 C 0 km/h
1594 17-07-2009 07:00:36 19.3 C 10.78 g/m*3 19.3 C 0 km/h
1595 17-07-2009 07:12:37 19.4 C 10.68 g/m*3 19.4 C 0 km/h
1596 17-07-2009 07:24:35 18.7 C 12.49 g/m*3 18.7 C 0 km/h
1597 17-07-2009 07:36:35 18.5 C 12.97 g/m*3 18.5 C 0 km/h
1598 17-07-2009 07:48:35 18.3 C 13.13 g/m*3 18.3 C 0 km/h
1599 17-07-2009 08:00:35 18.1 C 13.13 g/m*3 18.1 C 0 km/h
1600 17-07-2009 08:12:35 18 C 13.36 g/m*3 18 C 0 km/h
Sensor: Nr:Datum:Temp:Abs-Feuchte:Windchill:Wind:
Aussen-T/F 1601 17-07-2009 08:24:35 18.1 C 13.6 g/m*3 18.1 C 0 km/h
1602 17-07-2009 08:36:35 18.3 C 13.92 g/m*3 18.3 C 0 km/h
1603 17-07-2009 08:48:35 18.2 C 13.68 g/m*3 18.2 C 0 km/h
1604 17-07-2009 09:00:34 18.5 C 13.92 g/m*3 18.5 C 0 km/h
1605 17-07-2009 09:12:34 18.7 C 14.09 g/m*3 18.7 C 0 km/h
1606 17-07-2009 09:24:35 18.9 C 14.26 g/m*3 18.9 C 0 km/h
1607 17-07-2009 09:36:34 19.1 C 13.93 g/m*3 19.1 C 0 km/h
1608 17-07-2009 09:48:35 19.3 C 13.77 g/m*3 19.3 C 0 km/h
1609 17-07-2009 10:00:34 20 C 13.65 g/m*3 20 C 0 km/h
1610 17-07-2009 10:12:34 20.7 C 13.68 g/m*3 20.7 C 0 km/h
1611 17-07-2009 10:24:34 20.9 C 12.38 g/m*3 20.9 C 0 km/h
1612 17-07-2009 10:36:33 21.1 C 11.98 g/m*3 21.1 C 0 km/h
1613 17-07-2009 10:48:34 21 C 11.72 g/m*3 21 C 0 km/h
1614 17-07-2009 11:00:34 21.6 C 11.57 g/m*3 21.6 C 0 km/h
1615 17-07-2009 11:12:34 22.8 C 11.58 g/m*3 22.8 C 0 km/h
1616 17-07-2009 11:24:33 23 C 10.89 g/m*3 23 C 0 km/h
1617 17-07-2009 11:36:34 22.3 C 10.47 g/m*3 22.3 C 0 km/h
1618 17-07-2009 11:48:33 21.8 C 10.36 g/m*3 21.8 C 0 km/h
1619 17-07-2009 12:00:33 21.5 C 10.18 g/m*3 21.5 C 0 km/h
1620 17-07-2009 12:12:33 21.5 C 9.62 g/m*3 21.5 C 0 km/h
1621 17-07-2009 12:24:32 22.1 C 9.56 g/m*3 22.1 C 0 km/h
1622 17-07-2009 12:36:33 22.3 C 9.08 g/m*3 22.3 C 0 km/h
1623 17-07-2009 12:48:32 23 C 8.84 g/m*3 23 C 0 km/h
1624 17-07-2009 13:00:32 24.4 C 8.68 g/m*3 24.4 C 0 km/h
1625 17-07-2009 13:12:32 23.2 C 8.11 g/m*3 23.2 C 0 km/h
Sensor: Nr:Datum:Temp:Abs-Feuchte:Windchill:Wind:
Aussen-T/F 1626 17-07-2009 13:24:33 24.9 C 8.24 g/m*3 24.9 C 0 km/h
1627 17-07-2009 13:36:32 25.4 C 7.77 g/m*3 25.4 C 0 km/h
1628 17-07-2009 13:48:32 25.8 C 7.22 g/m*3 25.8 C 0 km/h
1629 17-07-2009 14:00:32 25.6 C 7.38 g/m*3 25.6 C 0 km/h
1630 17-07-2009 14:12:32 25.1 C 7.18 g/m*3 25.1 C 0 km/h
1631 17-07-2009 14:24:32 25.3 C 7.26 g/m*3 25.3 C 0 km/h
1632 17-07-2009 14:36:31 25.8 C 6.98 g/m*3 25.8 C 0 km/h
1633 17-07-2009 14:48:31 26 C 6.82 g/m*3 26 C 0 km/h
1634 17-07-2009 15:00:32 24.9 C 6.87 g/m*3 24.9 C 0 km/h
1635 17-07-2009 15:12:32 24.4 C 7.12 g/m*3 24.4 C 0 km/h
1636 17-07-2009 15:24:02 24.2 C 7.04 g/m*3 24.2 C 0 km/h
1637 17-07-2009 15:36:02 23.9 C 7.14 g/m*3 23.9 C 0 km/h
1638 17-07-2009 15:48:01 24.8 C 7.51 g/m*3 24.8 C 0 km/h
1639 17-07-2009 16:00:01 24.6 C 7.2 g/m*3 24.6 C 0 km/h
1640 17-07-2009 16:12:02 24.5 C 6.94 g/m*3 24.5 C 0 km/h
1641 17-07-2009 16:24:01 24.5 C 7.16 g/m*3 24.5 C 0 km/h
1642 17-07-2009 16:36:01 24.4 C 6.9 g/m*3 24.4 C 0 km/h
1643 17-07-2009 16:48:01 23.5 C 6.56 g/m*3 23.5 C 0 km/h
1644 17-07-2009 17:00:01 22.9 C 7.36 g/m*3 22.9 C 0 km/h
1645 17-07-2009 17:12:01 22.7 C 7.48 g/m*3 22.7 C 0 km/h
1646 17-07-2009 17:24:01 22.7 C 7.48 g/m*3 22.7 C 0 km/h
1647 17-07-2009 17:36:00 22.7 C 7.27 g/m*3 22.7 C 0 km/h
1648 17-07-2009 17:48:01 22.5 C 7.39 g/m*3 22.5 C 0 km/h
1649 17-07-2009 18:00:01 22.3 C 6.71 g/m*3 22.3 C 0 km/h
1650 17-07-2009 18:12:00 22.1 C 6.83 g/m*3 22.1 C 0 km/h
Sensor: Nr:Datum:Temp:Abs-Feuchte:Windchill:Wind:
Aussen-T/F 1651 17-07-2009 18:24:00 22 C 6.6 g/m*3 22 C 0 km/h
1652 17-07-2009 18:35:59 21.6 C 6.83 g/m*3 21.6 C 0 km/h
1653 17-07-2009 18:48:00 21.6 C 7.02 g/m*3 21.6 C 0 km/h
1654 17-07-2009 19:00:00 21.2 C 7.41 g/m*3 21.2 C 0 km/h
1655 17-07-2009 19:12:59 21.1 C 7.55 g/m*3 21.1 C 0 km/h
1656 17-07-2009 19:24:59 21.2 C 7.6 g/m*3 21.2 C 0 km/h
1657 17-07-2009 19:36:00 21.3 C 7.83 g/m*3 21.3 C 0 km/h
1658 17-07-2009 19:48:59 21 C 7.88 g/m*3 21 C 0 km/h
1659 17-07-2009 20:00:59 20.6 C 7.7 g/m*3 20.6 C 0 km/h
1660 17-07-2009 20:12:59 20.4 C 7.78 g/m*3 20.4 C 0 km/h
1661 17-07-2009 20:24:59 20.2 C 8.04 g/m*3 20.2 C 0 km/h
1662 17-07-2009 20:36:59 20 C 7.95 g/m*3 20 C 0 km/h
1663 17-07-2009 20:48:58 19.7 C 8.32 g/m*3 19.7 C 0 km/h
1664 17-07-2009 21:00:59 19.6 C 8.44 g/m*3 19.6 C 0 km/h
1665 17-07-2009 21:12:59 19.5 C 8.39 g/m*3 19.5 C 0 km/h
1666 17-07-2009 21:24:58 19.5 C 8.39 g/m*3 19.5 C 0 km/h
1667 17-07-2009 21:36:58 19.5 C 8.22 g/m*3 19.5 C 0 km/h
1668 17-07-2009 21:48:58 19.3 C 8.13 g/m*3 19.3 C 0 km/h
1669 17-07-2009 22:00:58 19.2 C 8.24 g/m*3 19.2 C 0 km/h
1670 17-07-2009 22:12:58 19 C 8.15 g/m*3 19 C 0 km/h
1671 17-07-2009 22:24:58 18.9 C 8.42 g/m*3 18.9 C 0 km/h
1672 17-07-2009 22:36:57 18.7 C 8.49 g/m*3 18.7 C 0 km/h
1673 17-07-2009 22:49:59 18.6 C 8.75 g/m*3 18.6 C 0 km/h
1674 17-07-2009 23:01:59 18.5 C 8.86 g/m*3 18.5 C 0 km/h
1675 17-07-2009 23:13:59 18.6 C 9.23 g/m*3 18.6 C 0 km/h
Sensor: Nr:Datum:Temp:Abs-Feuchte:Windchill:Wind:
Aussen-T/F 1676 17-07-2009 23:25:59 18.5 C 9.33 g/m*3 18.5 C 0 km/h
1677 17-07-2009 23:37:59 18.6 C 9.39 g/m*3 18.6 C 0 km/h
1678 17-07-2009 23:49:59 18.4 C 9.28 g/m*3 18.4 C 0 km/h
1679 18-07-2009 00:01:59 18.3 C 9.22 g/m*3 18.3 C 0 km/h
1680 18-07-2009 00:13:59 18.2 C 9.17 g/m*3 18.2 C 0 km/h
1681 18-07-2009 00:25:59 18.3 C 9.07 g/m*3 18.3 C 0 km/h
1682 18-07-2009 00:37:59 18.1 C 9.12 g/m*3 18.1 C 0 km/h
1683 18-07-2009 00:49:59 17.7 C 9.51 g/m*3 17.7 C 0 km/h
1684 18-07-2009 01:01:59 17 C 9.69 g/m*3 17 C 0 km/h
1685 18-07-2009 01:13:59 17 C 9.26 g/m*3 17 C 0 km/h
1686 18-07-2009 01:25:59 17.1 C 9.17 g/m*3 17.1 C 0 km/h
1687 18-07-2009 01:37:59 17.1 C 9.03 g/m*3 17.1 C 0 km/h
1688 18-07-2009 01:49:59 17 C 8.83 g/m*3 17 C 0 km/h
1689 18-07-2009 02:01:59 17 C 8.68 g/m*3 17 C 0 km/h
1690 18-07-2009 02:14:00 16.9 C 8.63 g/m*3 16.9 C 0 km/h
1691 18-07-2009 02:26:00 16.8 C 8.58 g/m*3 16.8 C 0 km/h
1692 18-07-2009 02:37:00 16.7 C 8.67 g/m*3 16.7 C 0 km/h
1693 18-07-2009 02:49:00 16.7 C 8.67 g/m*3 16.7 C 0 km/h
1694 18-07-2009 03:01:00 16.6 C 8.62 g/m*3 16.6 C 0 km/h
1695 18-07-2009 03:13:00 16.5 C 8.71 g/m*3 16.5 C 0 km/h
1696 18-07-2009 03:25:00 16.4 C 8.65 g/m*3 16.4 C 0 km/h
1697 18-07-2009 03:37:00 16.1 C 8.64 g/m*3 16.1 C 0 km/h
1698 18-07-2009 03:49:00 16 C 8.72 g/m*3 16 C 0 km/h
1699 18-07-2009 04:01:00 15.9 C 8.67 g/m*3 15.9 C 0 km/h
1700 18-07-2009 04:13:00 15.7 C 8.7 g/m*3 15.7 C 0 km/h
Sensor: Nr:Datum:Temp:Abs-Feuchte:Windchill:Wind:
Aussen-T/F 1701 18-07-2009 04:25:00 15.4 C 8.54 g/m*3 15.4 C 0 km/h
1702 18-07-2009 04:37:00 15.2 C 8.44 g/m*3 15.2 C 0 km/h
1703 18-07-2009 04:49:00 15 C 8.33 g/m*3 15 C 0 km/h
1704 18-07-2009 05:01:00 15 C 8.33 g/m*3 15 C 0 km/h
1705 18-07-2009 05:13:00 15 C 8.33 g/m*3 15 C 0 km/h
1706 18-07-2009 05:25:00 15 C 8.33 g/m*3 15 C 0 km/h
1707 18-07-2009 05:37:00 14.9 C 8.54 g/m*3 14.9 C 0 km/h
1708 18-07-2009 05:49:00 14.8 C 8.49 g/m*3 14.8 C 0 km/h
1709 18-07-2009 06:01:00 15.1 C 8.51 g/m*3 15.1 C 0 km/h
1710 18-07-2009 06:13:00 15.1 C 8.39 g/m*3 15.1 C 0 km/h
1711 18-07-2009 06:25:01 15.1 C 8.39 g/m*3 15.1 C 0 km/h
1712 18-07-2009 06:37:01 15.1 C 8.39 g/m*3 15.1 C 0 km/h
1713 18-07-2009 06:49:01 15 C 8.33 g/m*3 15 C 0 km/h
1714 18-07-2009 07:01:01 14.9 C 8.54 g/m*3 14.9 C 0 km/h
1715 18-07-2009 07:13:01 14.9 C 8.67 g/m*3 14.9 C 0 km/h
1716 18-07-2009 07:25:01 14.8 C 8.61 g/m*3 14.8 C 0 km/h
1717 18-07-2009 07:37:01 15 C 8.72 g/m*3 15 C 0 km/h
1718 18-07-2009 07:49:58 15.4 C 8.67 g/m*3 15.4 C 0 km/h
1719 18-07-2009 08:01:58 15.5 C 8.86 g/m*3 15.5 C 0 km/h
1720 18-07-2009 08:13:58 15.9 C 8.94 g/m*3 15.9 C 0 km/h
1721 18-07-2009 08:25:58 16 C 8.86 g/m*3 16 C 0 km/h
1722 18-07-2009 08:37:58 16.3 C 8.88 g/m*3 16.3 C 0 km/h
1723 18-07-2009 08:49:57 16.8 C 9.15 g/m*3 16.8 C 0 km/h
1724 18-07-2009 09:01:58 16.9 C 8.77 g/m*3 16.9 C 0 km/h
1725 18-07-2009 09:13:58 16.9 C 8.77 g/m*3 16.9 C 0 km/h
Sensor: Nr:Datum:Temp:Abs-Feuchte:Windchill:Wind:
Aussen-T/F 1726 18-07-2009 09:25:57 17.1 C 8.15 g/m*3 17.1 C 0 km/h
1727 18-07-2009 09:37:57 17.1 C 7.86 g/m*3 17.1 C 0 km/h
1728 18-07-2009 09:49:57 17 C 7.67 g/m*3 17 C 0 km/h
1729 18-07-2009 10:01:57 17.1 C 7.86 g/m*3 17.1 C 0 km/h
1730 18-07-2009 10:13:57 17.4 C 8.15 g/m*3 17.4 C 0 km/h
1731 18-07-2009 10:25:56 17.3 C 8.1 g/m*3 17.3 C 0 km/h
1732 18-07-2009 10:37:57 17.5 C 8.2 g/m*3 17.5 C 0 km/h
1733 18-07-2009 10:49:56 17.6 C 7.8 g/m*3 17.6 C 0 km/h
1734 18-07-2009 11:01:56 17.8 C 7.59 g/m*3 17.8 C 0 km/h
1735 18-07-2009 11:13:56 18 C 7.53 g/m*3 18 C 0 km/h
1736 18-07-2009 11:25:56 18.7 C 7.84 g/m*3 18.7 C 0 km/h
1737 18-07-2009 11:37:56 18.9 C 7.78 g/m*3 18.9 C 0 km/h
1738 18-07-2009 11:49:56 18.8 C 7.25 g/m*3 18.8 C 0 km/h
1739 18-07-2009 12:01:55 18.4 C 7.24 g/m*3 18.4 C 0 km/h
1740 18-07-2009 12:13:55 18.7 C 7.36 g/m*3 18.7 C 0 km/h
1741 18-07-2009 12:25:56 19.4 C 7.34 g/m*3 19.4 C 0 km/h
1742 18-07-2009 12:37:55 20.2 C 7.34 g/m*3 20.2 C 0 km/h
1743 18-07-2009 12:49:55 19.5 C 7.72 g/m*3 19.5 C 0 km/h
1744 18-07-2009 13:01:54 19 C 7.82 g/m*3 19 C 0 km/h
1745 18-07-2009 13:13:54 18.1 C 7.88 g/m*3 18.1 C 0 km/h
1746 18-07-2009 13:25:55 18.8 C 7.73 g/m*3 18.8 C 0 km/h
1747 18-07-2009 13:37:55 18.1 C 7.57 g/m*3 18.1 C 0 km/h
1748 18-07-2009 13:49:54 17.7 C 8.3 g/m*3 17.7 C 0 km/h
1749 18-07-2009 14:01:55 17.9 C 7.94 g/m*3 17.9 C 0 km/h
1750 18-07-2009 14:13:55 18.1 C 7.88 g/m*3 18.1 C 0 km/h
Sensor: Nr:Datum:Temp:Abs-Feuchte:Windchill:Wind:
Aussen-T/F 1751 18-07-2009 14:25:54 18.1 C 7.73 g/m*3 18.1 C 0 km/h
1752 18-07-2009 14:37:54 18.3 C 8.13 g/m*3 18.3 C 0 km/h
1753 18-07-2009 14:49:54 18.3 C 7.82 g/m*3 18.3 C 0 km/h
1754 18-07-2009 15:01:54 18.1 C 7.11 g/m*3 18.1 C 0 km/h
1755 18-07-2009 15:13:54 18.1 C 7.42 g/m*3 18.1 C 0 km/h
1756 18-07-2009 15:25:54 17.8 C 7.89 g/m*3 17.8 C 0 km/h
1757 18-07-2009 15:37:53 17.8 C 7.59 g/m*3 17.8 C 0 km/h
1758 18-07-2009 15:49:54 17.9 C 7.94 g/m*3 17.9 C 0 km/h
1759 18-07-2009 16:01:53 17.9 C 8.4 g/m*3 17.9 C 0 km/h
1760 18-07-2009 16:13:53 17.9 C 8.4 g/m*3 17.9 C 0 km/h
1761 18-07-2009 16:25:53 17.9 C 8.55 g/m*3 17.9 C 0 km/h
1762 18-07-2009 16:37:53 18.1 C 8.5 g/m*3 18.1 C 0 km/h
1763 18-07-2009 16:49:53 18.2 C 8.7 g/m*3 18.2 C 0 km/h
1764 18-07-2009 17:01:53 18.2 C 8.86 g/m*3 18.2 C 0 km/h
1765 18-07-2009 17:13:53 17.2 C 9.67 g/m*3 17.2 C 0 km/h
1766 18-07-2009 17:25:52 16.6 C 10.31 g/m*3 16.6 C 0 km/h
1767 18-07-2009 17:37:53 17.6 C 10.95 g/m*3 17.6 C 0 km/h
1768 18-07-2009 17:49:52 18.7 C 10.73 g/m*3 18.7 C 0 km/h
1769 18-07-2009 18:01:52 19.5 C 10.57 g/m*3 19.5 C 0 km/h
1770 18-07-2009 18:13:52 19.7 C 10.53 g/m*3 19.7 C 0 km/h
1771 18-07-2009 18:25:52 19.5 C 10.41 g/m*3 19.5 C 0 km/h
1772 18-07-2009 18:37:52 19.8 C 10.25 g/m*3 19.8 C 0 km/h
1773 18-07-2009 18:49:51 20.1 C 9.91 g/m*3 20.1 C 0 km/h
1774 18-07-2009 19:01:51 21.3 C 10.07 g/m*3 21.3 C 0 km/h
1775 18-07-2009 19:13:51 21.9 C 9.26 g/m*3 21.9 C 0 km/h
Sensor: Nr:Datum:Temp:Abs-Feuchte:Windchill:Wind:
Aussen-T/F 1776 18-07-2009 19:25:52 22 C 9.12 g/m*3 22 C 0 km/h
1777 18-07-2009 19:37:51 22.4 C 8.54 g/m*3 22.4 C 0 km/h
1778 18-07-2009 19:49:51 22.1 C 7.03 g/m*3 22.1 C 0 km/h
1779 18-07-2009 20:01:51 20.8 C 6.52 g/m*3 20.8 C 0 km/h
1780 18-07-2009 20:13:51 21.4 C 6.75 g/m*3 21.4 C 0 km/h
1781 18-07-2009 20:25:51 21.3 C 7.27 g/m*3 21.3 C 0 km/h
1782 18-07-2009 20:37:50 20.9 C 7.29 g/m*3 20.9 C 0 km/h
1783 18-07-2009 20:49:51 20 C 7.43 g/m*3 20 C 0 km/h
1784 18-07-2009 21:01:50 19.3 C 7.3 g/m*3 19.3 C 0 km/h
1785 18-07-2009 21:13:50 18.9 C 7.29 g/m*3 18.9 C 0 km/h
1786 18-07-2009 21:25:50 18.5 C 7.44 g/m*3 18.5 C 0 km/h
1787 18-07-2009 21:37:50 18.4 C 7.39 g/m*3 18.4 C 0 km/h
1788 18-07-2009 21:49:50 18.2 C 7.46 g/m*3 18.2 C 0 km/h
1789 18-07-2009 22:01:50 17.9 C 7.48 g/m*3 17.9 C 0 km/h
1790 18-07-2009 22:13:50 17.5 C 7.6 g/m*3 17.5 C 0 km/h
1791 18-07-2009 22:25:49 17.4 C 7.71 g/m*3 17.4 C 0 km/h
1792 18-07-2009 22:37:50 17.2 C 8.05 g/m*3 17.2 C 0 km/h
1793 18-07-2009 22:49:49 16.7 C 8.24 g/m*3 16.7 C 0 km/h
1794 18-07-2009 23:01:49 16.4 C 8.23 g/m*3 16.4 C 0 km/h
1795 18-07-2009 23:13:49 16.2 C 8.27 g/m*3 16.2 C 0 km/h
1796 18-07-2009 23:25:49 16.2 C 8.27 g/m*3 16.2 C 0 km/h
1797 18-07-2009 23:37:49 16.3 C 8.32 g/m*3 16.3 C 0 km/h
1798 18-07-2009 23:49:49 16.2 C 8.14 g/m*3 16.2 C 0 km/h
1799 19-07-2009 00:01:48 15.8 C 8.35 g/m*3 15.8 C 0 km/h
1800 19-07-2009 00:13:48 15.5 C 8.33 g/m*3 15.5 C 0 km/h
Sensor: Nr:Datum:Temp:Abs-Feuchte:Windchill:Wind:
Aussen-T/F 1801 19-07-2009 00:25:48 15.3 C 8.36 g/m*3 15.3 C 0 km/h
1802 19-07-2009 00:37:48 15.2 C 8.31 g/m*3 15.2 C 0 km/h
1803 19-07-2009 00:49:49 15 C 8.33 g/m*3 15 C 0 km/h
1804 19-07-2009 01:01:48 14.7 C 8.44 g/m*3 14.7 C 0 km/h
1805 19-07-2009 01:13:48 14.5 C 8.58 g/m*3 14.5 C 0 km/h
1806 19-07-2009 01:25:48 14.4 C 8.53 g/m*3 14.4 C 0 km/h
1807 19-07-2009 01:38:50 14.3 C 8.6 g/m*3 14.3 C 0 km/h
1808 19-07-2009 01:50:50 14.4 C 8.65 g/m*3 14.4 C 0 km/h
1809 19-07-2009 02:02:50 14.7 C 8.56 g/m*3 14.7 C 0 km/h
1810 19-07-2009 02:14:51 14.6 C 8.51 g/m*3 14.6 C 0 km/h
1811 19-07-2009 02:26:51 14.7 C 8.44 g/m*3 14.7 C 0 km/h
1812 19-07-2009 02:38:51 14.7 C 8.31 g/m*3 14.7 C 0 km/h
1813 19-07-2009 02:50:51 15 C 8.08 g/m*3 15 C 0 km/h
1814 19-07-2009 03:02:51 15.1 C 8 g/m*3 15.1 C 0 km/h
1815 19-07-2009 03:14:51 15 C 8.08 g/m*3 15 C 0 km/h
1816 19-07-2009 03:26:51 15 C 8.21 g/m*3 15 C 0 km/h
1817 19-07-2009 03:38:51 15 C 8.21 g/m*3 15 C 0 km/h
1818 19-07-2009 03:50:51 15 C 8.21 g/m*3 15 C 0 km/h
1819 19-07-2009 04:02:51 15.1 C 8.39 g/m*3 15.1 C 0 km/h
1820 19-07-2009 04:14:51 15.4 C 8.15 g/m*3 15.4 C 0 km/h
1821 19-07-2009 04:26:51 15 C 8.46 g/m*3 15 C 0 km/h
1822 19-07-2009 04:38:51 15 C 8.59 g/m*3 15 C 0 km/h
1823 19-07-2009 04:50:51 14.2 C 9.28 g/m*3 14.2 C 0 km/h
1824 19-07-2009 05:02:51 14.1 C 9.47 g/m*3 14.1 C 0 km/h
1825 19-07-2009 05:14:51 14.1 C 9.59 g/m*3 14.1 C 0 km/h
Sensor: Nr:Datum:Temp:Abs-Feuchte:Windchill:Wind:
Aussen-T/F 1826 19-07-2009 05:26:51 14.2 C 9.77 g/m*3 14.2 C 0 km/h
1827 19-07-2009 05:38:51 14.3 C 9.83 g/m*3 14.3 C 0 km/h
1828 19-07-2009 05:50:51 14.5 C 9.95 g/m*3 14.5 C 0 km/h
1829 19-07-2009 06:02:51 14.7 C 10.07 g/m*3 14.7 C 0 km/h
1830 19-07-2009 06:14:51 14.5 C 9.95 g/m*3 14.5 C 0 km/h
1831 19-07-2009 06:26:52 14.5 C 9.95 g/m*3 14.5 C 0 km/h
1832 19-07-2009 06:38:52 14.4 C 10.01 g/m*3 14.4 C 0 km/h
1833 19-07-2009 06:50:52 14.7 C 10.07 g/m*3 14.7 C 0 km/h
1834 19-07-2009 07:02:52 14.9 C 10.07 g/m*3 14.9 C 0 km/h
1835 19-07-2009 07:14:52 14.9 C 9.94 g/m*3 14.9 C 0 km/h
1836 19-07-2009 07:26:52 14.9 C 10.07 g/m*3 14.9 C 0 km/h
1837 19-07-2009 07:38:52 15.8 C 10.1 g/m*3 15.8 C 0 km/h
1838 19-07-2009 07:50:52 16.1 C 9.73 g/m*3 16.1 C 0 km/h
1839 19-07-2009 08:02:52 15.8 C 9.96 g/m*3 15.8 C 0 km/h
1840 19-07-2009 08:14:52 15.4 C 10.25 g/m*3 15.4 C 0 km/h
1841 19-07-2009 08:26:52 15.2 C 10.25 g/m*3 15.2 C 0 km/h
1842 19-07-2009 08:38:52 15.4 C 10.51 g/m*3 15.4 C 0 km/h
1843 19-07-2009 08:50:52 15.6 C 10.51 g/m*3 15.6 C 0 km/h
1844 19-07-2009 09:02:52 15.9 C 10.43 g/m*3 15.9 C 0 km/h
1845 19-07-2009 09:14:52 16.4 C 10.33 g/m*3 16.4 C 0 km/h
1846 19-07-2009 09:26:52 17 C 10.13 g/m*3 17 C 0 km/h
1847 19-07-2009 09:38:52 17 C 9.98 g/m*3 17 C 0 km/h
1848 19-07-2009 09:50:52 17.4 C 10.23 g/m*3 17.4 C 0 km/h
1849 19-07-2009 10:02:49 17.8 C 9.87 g/m*3 17.8 C 0 km/h
1850 19-07-2009 10:14:49 18.4 C 9.75 g/m*3 18.4 C 0 km/h
Sensor: Nr:Datum:Temp:Abs-Feuchte:Windchill:Wind:
Aussen-T/F 1851 19-07-2009 10:26:49 19 C 9.29 g/m*3 19 C 0 km/h
1852 19-07-2009 10:38:50 19 C 9.13 g/m*3 19 C 0 km/h
1853 19-07-2009 10:50:49 18.5 C 9.49 g/m*3 18.5 C 0 km/h
1854 19-07-2009 11:02:49 18.2 C 9.95 g/m*3 18.2 C 0 km/h
1855 19-07-2009 11:14:48 17.6 C 10.2 g/m*3 17.6 C 0 km/h
1856 19-07-2009 11:26:48 18.5 C 9.97 g/m*3 18.5 C 0 km/h
1857 19-07-2009 11:38:49 18.1 C 10.04 g/m*3 18.1 C 0 km/h
1858 19-07-2009 11:50:48 19.4 C 10.01 g/m*3 19.4 C 0 km/h
1859 19-07-2009 12:02:48 19.5 C 9.4 g/m*3 19.5 C 0 km/h
1860 19-07-2009 12:14:49 17.8 C 10.78 g/m*3 17.8 C 0 km/h
1861 19-07-2009 12:26:49 19.7 C 10.87 g/m*3 19.7 C 0 km/h
1862 19-07-2009 12:38:48 20 C 9.51 g/m*3 20 C 0 km/h
1863 19-07-2009 12:50:48 19.5 C 8.89 g/m*3 19.5 C 0 km/h
1864 19-07-2009 13:02:48 19.1 C 8.52 g/m*3 19.1 C 0 km/h
1865 19-07-2009 13:14:48 19.6 C 7.6 g/m*3 19.6 C 0 km/h
1866 19-07-2009 13:26:49 21.4 C 7.31 g/m*3 21.4 C 0 km/h
1867 19-07-2009 13:38:47 20.4 C 7.25 g/m*3 20.4 C 0 km/h
1868 19-07-2009 13:50:48 20.6 C 7.7 g/m*3 20.6 C 0 km/h
1869 19-07-2009 14:02:47 22 C 6.99 g/m*3 22 C 0 km/h
1870 19-07-2009 14:14:47 23 C 6.78 g/m*3 23 C 0 km/h
1871 19-07-2009 14:26:47 22 C 6.79 g/m*3 22 C 0 km/h
1872 19-07-2009 14:38:47 21.3 C 6.9 g/m*3 21.3 C 0 km/h
1873 19-07-2009 14:50:47 19.2 C 7.26 g/m*3 19.2 C 0 km/h
1874 19-07-2009 15:02:47 19.9 C 8.25 g/m*3 19.9 C 0 km/h
1875 19-07-2009 15:14:46 21.2 C 7.6 g/m*3 21.2 C 0 km/h
Sensor: Nr:Datum:Temp:Abs-Feuchte:Windchill:Wind:
Aussen-T/F 1876 19-07-2009 15:26:46 21.1 C 7.92 g/m*3 21.1 C 0 km/h
1877 19-07-2009 15:38:46 22.5 C 7.79 g/m*3 22.5 C 0 km/h
1878 19-07-2009 15:50:46 22.6 C 7.43 g/m*3 22.6 C 0 km/h
1879 19-07-2009 16:02:46 21.7 C 7.44 g/m*3 21.7 C 0 km/h
1880 19-07-2009 16:14:46 20 C 6.74 g/m*3 20 C 0 km/h
1881 19-07-2009 16:26:46 17.5 C 9.84 g/m*3 17.5 C 0 km/h
1882 19-07-2009 16:38:46 17.8 C 10.32 g/m*3 17.8 C 0 km/h
1883 19-07-2009 16:50:46 19 C 8.47 g/m*3 19 C 0 km/h
1884 19-07-2009 17:02:45 21.2 C 8.9 g/m*3 21.2 C 0 km/h
1885 19-07-2009 17:14:46 21.2 C 7.6 g/m*3 21.2 C 0 km/h
1886 19-07-2009 17:26:46 20.8 C 7.42 g/m*3 20.8 C 0 km/h
1887 19-07-2009 17:38:45 20.8 C 7.79 g/m*3 20.8 C 0 km/h
1888 19-07-2009 17:50:45 21.4 C 7.87 g/m*3 21.4 C 0 km/h
1889 19-07-2009 18:02:45 22 C 7.18 g/m*3 22 C 0 km/h
1890 19-07-2009 18:14:45 21.7 C 7.44 g/m*3 21.7 C 0 km/h
1891 19-07-2009 18:26:45 23.4 C 7.36 g/m*3 23.4 C 0 km/h
1892 19-07-2009 18:38:45 22 C 6.79 g/m*3 22 C 0 km/h
1893 19-07-2009 18:50:44 23.4 C 6.73 g/m*3 23.4 C 0 km/h
1894 19-07-2009 19:02:45 23.4 C 6.52 g/m*3 23.4 C 0 km/h
1895 19-07-2009 19:14:44 21.4 C 6.75 g/m*3 21.4 C 0 km/h
1896 19-07-2009 19:26:44 21 C 6.78 g/m*3 21 C 0 km/h
1897 19-07-2009 19:38:44 20.8 C 7.06 g/m*3 20.8 C 0 km/h
1898 19-07-2009 19:50:44 21.9 C 7.14 g/m*3 21.9 C 0 km/h
1899 19-07-2009 20:02:44 21.9 C 6.75 g/m*3 21.9 C 0 km/h
1900 19-07-2009 20:14:43 21.2 C 6.86 g/m*3 21.2 C 0 km/h
Sensor: Nr:Datum:Temp:Abs-Feuchte:Windchill:Wind:
Aussen-T/F 1901 19-07-2009 20:26:43 21 C 7.14 g/m*3 21 C 0 km/h
1902 19-07-2009 20:38:43 20.5 C 7.12 g/m*3 20.5 C 0 km/h
1903 19-07-2009 20:50:43 20.3 C 7.21 g/m*3 20.3 C 0 km/h
1904 19-07-2009 21:02:43 19.8 C 7 g/m*3 19.8 C 0 km/h
1905 19-07-2009 21:14:43 19.4 C 6.84 g/m*3 19.4 C 0 km/h
1906 19-07-2009 21:26:44 18.9 C 6.97 g/m*3 18.9 C 0 km/h
1907 19-07-2009 21:38:42 18.7 C 7.04 g/m*3 18.7 C 0 km/h
1908 19-07-2009 21:50:43 18.4 C 6.92 g/m*3 18.4 C 0 km/h
1909 19-07-2009 22:02:42 18.2 C 6.99 g/m*3 18.2 C 0 km/h
1910 19-07-2009 22:14:42 17.9 C 7.18 g/m*3 17.9 C 0 km/h
1911 19-07-2009 22:26:42 17.8 C 7.29 g/m*3 17.8 C 0 km/h
1912 19-07-2009 22:39:43 17.7 C 7.24 g/m*3 17.7 C 0 km/h
1913 19-07-2009 22:51:43 17.9 C 7.18 g/m*3 17.9 C 0 km/h
1914 19-07-2009 23:03:43 18 C 7.22 g/m*3 18 C 0 km/h
1915 19-07-2009 23:15:43 17.7 C 7.54 g/m*3 17.7 C 0 km/h
1916 19-07-2009 23:27:43 17.2 C 7.61 g/m*3 17.2 C 0 km/h
1917 19-07-2009 23:39:43 17.1 C 7.71 g/m*3 17.1 C 0 km/h
1918 19-07-2009 23:51:44 17.4 C 7.41 g/m*3 17.4 C 0 km/h
1919 20-07-2009 00:03:44 18 C 7.07 g/m*3 18 C 0 km/h
1920 20-07-2009 00:15:44 18.1 C 7.11 g/m*3 18.1 C 0 km/h
1921 20-07-2009 00:27:44 17.9 C 7.18 g/m*3 17.9 C 0 km/h
1922 20-07-2009 00:39:44 17.5 C 7.16 g/m*3 17.5 C 0 km/h
1923 20-07-2009 00:51:44 17.4 C 7.26 g/m*3 17.4 C 0 km/h
1924 20-07-2009 01:03:44 17.3 C 7.22 g/m*3 17.3 C 0 km/h
1925 20-07-2009 01:15:44 17.2 C 7.32 g/m*3 17.2 C 0 km/h
Sensor: Nr:Datum:Temp:Abs-Feuchte:Windchill:Wind:
Aussen-T/F 1926 20-07-2009 01:27:44 17 C 7.38 g/m*3 17 C 0 km/h
1927 20-07-2009 01:39:44 17 C 7.38 g/m*3 17 C 0 km/h
1928 20-07-2009 01:51:44 17 C 7.38 g/m*3 17 C 0 km/h
1929 20-07-2009 02:03:44 16.9 C 7.62 g/m*3 16.9 C 0 km/h
1930 20-07-2009 02:15:44 16.7 C 7.67 g/m*3 16.7 C 0 km/h
1931 20-07-2009 02:27:44 16.5 C 7.86 g/m*3 16.5 C 0 km/h
1932 20-07-2009 02:39:44 16.3 C 7.91 g/m*3 16.3 C 0 km/h
1933 20-07-2009 02:51:44 16.2 C 8 g/m*3 16.2 C 0 km/h
1934 20-07-2009 03:03:44 16.1 C 7.81 g/m*3 16.1 C 0 km/h
1935 20-07-2009 03:15:44 16 C 8.04 g/m*3 16 C 0 km/h
1936 20-07-2009 03:27:44 15.9 C 8.13 g/m*3 15.9 C 0 km/h
1937 20-07-2009 03:39:44 15.9 C 8.26 g/m*3 15.9 C 0 km/h
1938 20-07-2009 03:51:44 15.9 C 8.26 g/m*3 15.9 C 0 km/h
1939 20-07-2009 04:03:45 15.8 C 8.35 g/m*3 15.8 C 0 km/h
1940 20-07-2009 04:15:45 15.7 C 8.43 g/m*3 15.7 C 0 km/h
1941 20-07-2009 04:27:45 15.7 C 8.56 g/m*3 15.7 C 0 km/h
1942 20-07-2009 04:39:45 15.6 C 8.51 g/m*3 15.6 C 0 km/h
1943 20-07-2009 04:51:45 15.6 C 8.51 g/m*3 15.6 C 0 km/h
1944 20-07-2009 05:03:45 15.6 C 8.64 g/m*3 15.6 C 0 km/h
1945 20-07-2009 05:15:45 15.6 C 8.64 g/m*3 15.6 C 0 km/h
1946 20-07-2009 05:27:45 15.5 C 8.72 g/m*3 15.5 C 0 km/h
1947 20-07-2009 05:39:45 15.4 C 8.8 g/m*3 15.4 C 0 km/h
1948 20-07-2009 05:51:45 15.5 C 8.99 g/m*3 15.5 C 0 km/h
1949 20-07-2009 06:03:45 15.6 C 8.91 g/m*3 15.6 C 0 km/h
1950 20-07-2009 06:15:45 15.5 C 8.86 g/m*3 15.5 C 0 km/h
Sensor: Nr:Datum:Temp:Abs-Feuchte:Windchill:Wind:
Aussen-T/F 1951 20-07-2009 06:27:45 15.5 C 8.99 g/m*3 15.5 C 0 km/h
1952 20-07-2009 06:39:45 15.5 C 9.12 g/m*3 15.5 C 0 km/h
1953 20-07-2009 06:51:45 15.6 C 9.18 g/m*3 15.6 C 0 km/h
1954 20-07-2009 07:03:43 15.7 C 9.23 g/m*3 15.7 C 0 km/h
1955 20-07-2009 07:15:43 15.9 C 9.34 g/m*3 15.9 C 0 km/h
1956 20-07-2009 07:27:43 16.2 C 9.38 g/m*3 16.2 C 0 km/h
1957 20-07-2009 07:39:43 16.4 C 9.35 g/m*3 16.4 C 0 km/h
1958 20-07-2009 07:51:43 16.7 C 9.38 g/m*3 16.7 C 0 km/h
1959 20-07-2009 08:03:43 17 C 9.26 g/m*3 17 C 0 km/h
1960 20-07-2009 08:15:42 17.3 C 9.13 g/m*3 17.3 C 0 km/h
1961 20-07-2009 08:27:42 17.6 C 9.15 g/m*3 17.6 C 0 km/h
1962 20-07-2009 08:39:42 17.6 C 9.15 g/m*3 17.6 C 0 km/h
1963 20-07-2009 08:51:42 17.6 C 9 g/m*3 17.6 C 0 km/h
1964 20-07-2009 09:03:42 18 C 8.91 g/m*3 18 C 0 km/h
1965 20-07-2009 09:15:41 18.5 C 9.02 g/m*3 18.5 C 0 km/h
1966 20-07-2009 09:27:41 18.8 C 8.86 g/m*3 18.8 C 0 km/h
1967 20-07-2009 09:39:42 19.5 C 8.73 g/m*3 19.5 C 0 km/h
1968 20-07-2009 09:51:41 19.5 C 8.22 g/m*3 19.5 C 0 km/h
1969 20-07-2009 10:03:41 19.3 C 8.13 g/m*3 19.3 C 0 km/h
1970 20-07-2009 10:15:42 20.1 C 8 g/m*3 20.1 C 0 km/h
1971 20-07-2009 10:27:42 20.1 C 8 g/m*3 20.1 C 0 km/h
1972 20-07-2009 10:39:41 19.8 C 7.69 g/m*3 19.8 C 0 km/h
1973 20-07-2009 10:51:41 19.7 C 7.98 g/m*3 19.7 C 0 km/h
1974 20-07-2009 11:03:41 19.3 C 7.63 g/m*3 19.3 C 0 km/h
1975 20-07-2009 11:15:41 20.2 C 7.87 g/m*3 20.2 C 0 km/h
Sensor: Nr:Datum:Temp:Abs-Feuchte:Windchill:Wind:
Aussen-T/F 1976 20-07-2009 11:27:41 20.9 C 7.83 g/m*3 20.9 C 0 km/h
1977 20-07-2009 11:39:40 20.9 C 7.65 g/m*3 20.9 C 0 km/h
1978 20-07-2009 11:51:40 21.2 C 7.41 g/m*3 21.2 C 0 km/h
1979 20-07-2009 12:03:41 20.8 C 7.6 g/m*3 20.8 C 0 km/h
1980 20-07-2009 12:15:40 20.6 C 7.34 g/m*3 20.6 C 0 km/h
1981 20-07-2009 12:27:40 21.2 C 7.23 g/m*3 21.2 C 0 km/h
1982 20-07-2009 12:39:40 21.9 C 7.33 g/m*3 21.9 C 0 km/h
1983 20-07-2009 12:51:40 21.5 C 7.17 g/m*3 21.5 C 0 km/h
1984 20-07-2009 13:03:40 21.4 C 7.12 g/m*3 21.4 C 0 km/h
1985 20-07-2009 13:15:39 21.3 C 7.27 g/m*3 21.3 C 0 km/h
1986 20-07-2009 13:27:39 21.9 C 6.75 g/m*3 21.9 C 0 km/h
1987 20-07-2009 13:39:40 23.5 C 6.98 g/m*3 23.5 C 0 km/h
1988 20-07-2009 13:51:39 23.8 C 6.45 g/m*3 23.8 C 0 km/h
1989 20-07-2009 14:03:39 23.7 C 6.42 g/m*3 23.7 C 0 km/h
1990 20-07-2009 14:15:39 23.7 C 6.42 g/m*3 23.7 C 0 km/h
1991 20-07-2009 14:27:39 23.9 C 6.49 g/m*3 23.9 C 0 km/h
1992 20-07-2009 14:39:39 24.5 C 6.27 g/m*3 24.5 C 0 km/h
1993 20-07-2009 14:51:39 24.2 C 5.94 g/m*3 24.2 C 0 km/h
1994 20-07-2009 15:03:38 25.2 C 6.05 g/m*3 25.2 C 0 km/h
1995 20-07-2009 15:15:39 25.7 C 5.75 g/m*3 25.7 C 0 km/h
1996 20-07-2009 15:27:39 24.4 C 5.79 g/m*3 24.4 C 0 km/h
1997 20-07-2009 15:39:38 24.1 C 6.13 g/m*3 24.1 C 0 km/h
1998 20-07-2009 15:51:38 24.7 C 6.11 g/m*3 24.7 C 0 km/h
1999 20-07-2009 16:03:38 24.4 C 6.01 g/m*3 24.4 C 0 km/h
2000 20-07-2009 16:15:38 24.1 C 6.35 g/m*3 24.1 C 0 km/h
Sensor: Nr:Datum:Temp:Abs-Feuchte:Windchill:Wind:
Aussen-T/F 2001 20-07-2009 16:27:38 24.1 C 6.35 g/m*3 24.1 C 0 km/h
2002 20-07-2009 16:39:37 24.9 C 5.95 g/m*3 24.9 C 0 km/h
2003 20-07-2009 16:51:38 25.5 C 5.68 g/m*3 25.5 C 0 km/h
2004 20-07-2009 17:03:38 25 C 6.22 g/m*3 25 C 0 km/h
2005 20-07-2009 17:15:37 25.5 C 5.68 g/m*3 25.5 C 0 km/h
2006 20-07-2009 17:27:37 24.7 C 5.66 g/m*3 24.7 C 0 km/h
2007 20-07-2009 17:39:37 24.4 C 6.01 g/m*3 24.4 C 0 km/h
2008 20-07-2009 17:51:37 24 C 5.87 g/m*3 24 C 0 km/h
2009 20-07-2009 18:03:37 23.8 C 6.24 g/m*3 23.8 C 0 km/h
2010 20-07-2009 18:15:36 23.3 C 6.27 g/m*3 23.3 C 0 km/h
2011 20-07-2009 18:27:36 24.4 C 6.01 g/m*3 24.4 C 0 km/h
2012 20-07-2009 18:39:37 24.6 C 6.53 g/m*3 24.6 C 0 km/h
2013 20-07-2009 18:51:36 24.2 C 6.38 g/m*3 24.2 C 0 km/h
2014 20-07-2009 19:03:36 24.2 C 6.6 g/m*3 24.2 C 0 km/h
2015 20-07-2009 19:15:36 23.8 C 6.67 g/m*3 23.8 C 0 km/h
2016 20-07-2009 19:27:36 23.7 C 6.42 g/m*3 23.7 C 0 km/h
2017 20-07-2009 19:39:36 23.8 C 6.24 g/m*3 23.8 C 0 km/h
2018 20-07-2009 19:51:35 23 C 6.37 g/m*3 23 C 0 km/h
2019 20-07-2009 20:03:36 23 C 6.58 g/m*3 23 C 0 km/h
2020 20-07-2009 20:15:36 22.8 C 6.5 g/m*3 22.8 C 0 km/h
2021 20-07-2009 20:27:36 22.6 C 6.83 g/m*3 22.6 C 0 km/h
2022 20-07-2009 20:39:35 22.1 C 6.83 g/m*3 22.1 C 0 km/h
2023 20-07-2009 20:51:36 21.7 C 7.25 g/m*3 21.7 C 0 km/h
2024 20-07-2009 21:03:35 21.2 C 7.41 g/m*3 21.2 C 0 km/h
2025 20-07-2009 21:15:35 20.5 C 7.47 g/m*3 20.5 C 0 km/h
Sensor: Nr:Datum:Temp:Abs-Feuchte:Windchill:Wind:
Aussen-T/F 2026 20-07-2009 21:27:35 20 C 7.43 g/m*3 20 C 0 km/h
2027 20-07-2009 21:39:35 19.6 C 7.6 g/m*3 19.6 C 0 km/h
2028 20-07-2009 21:51:34 19.2 C 7.42 g/m*3 19.2 C 0 km/h
2029 20-07-2009 22:03:35 19 C 7.82 g/m*3 19 C 0 km/h
2030 20-07-2009 22:15:34 18.8 C 7.89 g/m*3 18.8 C 0 km/h
2031 20-07-2009 22:27:34 18.7 C 7.84 g/m*3 18.7 C 0 km/h
2032 20-07-2009 22:39:34 18.5 C 7.91 g/m*3 18.5 C 0 km/h
2033 20-07-2009 22:51:34 18.5 C 8.07 g/m*3 18.5 C 0 km/h
2034 20-07-2009 23:03:34 18.5 C 8.07 g/m*3 18.5 C 0 km/h
2035 20-07-2009 23:15:33 18.4 C 8.02 g/m*3 18.4 C 0 km/h
2036 20-07-2009 23:27:33 18.2 C 8.08 g/m*3 18.2 C 0 km/h
2037 20-07-2009 23:39:34 18.1 C 8.03 g/m*3 18.1 C 0 km/h
2038 20-07-2009 23:51:33 18 C 8.14 g/m*3 18 C 0 km/h
2039 21-07-2009 00:03:33 17.9 C 8.24 g/m*3 17.9 C 0 km/h
2040 21-07-2009 00:15:33 17.8 C 8.35 g/m*3 17.8 C 0 km/h
2041 21-07-2009 00:27:33 17.7 C 8.3 g/m*3 17.7 C 0 km/h
2042 21-07-2009 00:39:32 17.6 C 8.25 g/m*3 17.6 C 0 km/h
2043 21-07-2009 00:51:33 17.6 C 8.4 g/m*3 17.6 C 0 km/h
2044 21-07-2009 01:03:32 17.6 C 8.55 g/m*3 17.6 C 0 km/h
2045 21-07-2009 01:15:32 17.7 C 8.75 g/m*3 17.7 C 0 km/h
2046 21-07-2009 01:27:32 17.7 C 8.75 g/m*3 17.7 C 0 km/h
2047 21-07-2009 01:39:33 17.5 C 8.65 g/m*3 17.5 C 0 km/h
2048 21-07-2009 01:51:32 17.5 C 8.8 g/m*3 17.5 C 0 km/h
2049 21-07-2009 02:03:32 17.5 C 8.8 g/m*3 17.5 C 0 km/h
2050 21-07-2009 02:15:32 17.5 C 8.8 g/m*3 17.5 C 0 km/h
Sensor: Nr:Datum:Temp:Abs-Feuchte:Windchill:Wind:
Aussen-T/F 2051 21-07-2009 02:27:32 17.3 C 8.84 g/m*3 17.3 C 0 km/h
2052 21-07-2009 02:39:32 16.7 C 9.81 g/m*3 16.7 C 0 km/h
2053 21-07-2009 02:52:01 16 C 9.95 g/m*3 16 C 0 km/h
2054 21-07-2009 03:04:01 15.7 C 10.3 g/m*3 15.7 C 0 km/h
2055 21-07-2009 03:16:02 15.3 C 10.58 g/m*3 15.3 C 0 km/h
2056 21-07-2009 03:28:02 15 C 10.51 g/m*3 15 C 0 km/h
2057 21-07-2009 03:40:01 15 C 10.64 g/m*3 15 C 0 km/h
2058 21-07-2009 03:52:01 15.2 C 10.77 g/m*3 15.2 C 0 km/h
2059 21-07-2009 04:04:02 15.3 C 10.97 g/m*3 15.3 C 0 km/h
2060 21-07-2009 04:16:01 15.2 C 10.9 g/m*3 15.2 C 0 km/h
2061 21-07-2009 04:28:01 15.2 C 10.9 g/m*3 15.2 C 0 km/h
2062 21-07-2009 04:40:02 15.5 C 11.24 g/m*3 15.5 C 0 km/h
2063 21-07-2009 04:52:01 15.5 C 11.1 g/m*3 15.5 C 0 km/h
2064 21-07-2009 05:04:01 15.5 C 10.97 g/m*3 15.5 C 0 km/h
2065 21-07-2009 05:16:02 15.5 C 10.84 g/m*3 15.5 C 0 km/h
2066 21-07-2009 05:28:02 15.5 C 10.84 g/m*3 15.5 C 0 km/h
2067 21-07-2009 05:40:01 15.5 C 10.84 g/m*3 15.5 C 0 km/h
2068 21-07-2009 05:52:01 15.5 C 10.84 g/m*3 15.5 C 0 km/h
2069 21-07-2009 06:04:02 15.4 C 10.77 g/m*3 15.4 C 0 km/h
2070 21-07-2009 06:16:01 15.3 C 10.58 g/m*3 15.3 C 0 km/h
2071 21-07-2009 06:28:01 15.2 C 10.51 g/m*3 15.2 C 0 km/h
2072 21-07-2009 06:40:02 15.4 C 10.64 g/m*3 15.4 C 0 km/h
2073 21-07-2009 06:52:01 15.6 C 10.77 g/m*3 15.6 C 0 km/h
2074 21-07-2009 07:04:02 15.9 C 10.83 g/m*3 15.9 C 0 km/h
2075 21-07-2009 07:16:01 16.1 C 10.97 g/m*3 16.1 C 0 km/h
Sensor: Nr:Datum:Temp:Abs-Feuchte:Windchill:Wind:
Aussen-T/F 2076 21-07-2009 07:28:01 16.2 C 10.89 g/m*3 16.2 C 0 km/h
2077 21-07-2009 07:40:01 16.1 C 11.1 g/m*3 16.1 C 0 km/h
2078 21-07-2009 07:52:01 16.3 C 11.24 g/m*3 16.3 C 0 km/h
2079 21-07-2009 08:04:01 16.4 C 11.31 g/m*3 16.4 C 0 km/h
2080 21-07-2009 08:16:02 16.8 C 11.44 g/m*3 16.8 C 0 km/h
2081 21-07-2009 08:28:02 17.3 C 11.64 g/m*3 17.3 C 0 km/h
2082 21-07-2009 08:40:01 17.7 C 11.62 g/m*3 17.7 C 0 km/h
2083 21-07-2009 08:52:01 18.4 C 11.48 g/m*3 18.4 C 0 km/h
2084 21-07-2009 09:04:01 19 C 10.92 g/m*3 19 C 0 km/h
2085 21-07-2009 09:16:02 19.5 C 10.91 g/m*3 19.5 C 0 km/h
2086 21-07-2009 09:28:02 20 C 10.54 g/m*3 20 C 0 km/h
2087 21-07-2009 09:40:01 20.4 C 10.44 g/m*3 20.4 C 0 km/h
2088 21-07-2009 09:52:02 21.2 C 10.38 g/m*3 21.2 C 0 km/h
2089 21-07-2009 10:04:01 22 C 10.29 g/m*3 22 C 0 km/h
2090 21-07-2009 10:16:02 22.4 C 10.33 g/m*3 22.4 C 0 km/h
2091 21-07-2009 10:28:02 22.4 C 10.13 g/m*3 22.4 C 0 km/h
2092 21-07-2009 10:40:01 22.6 C 10.25 g/m*3 22.6 C 0 km/h
2093 21-07-2009 10:52:02 22.8 C 10.36 g/m*3 22.8 C 0 km/h
2094 21-07-2009 11:04:01 23.4 C 9.67 g/m*3 23.4 C 0 km/h
2095 21-07-2009 11:16:01 24.1 C 9.63 g/m*3 24.1 C 0 km/h
2096 21-07-2009 11:28:01 24.2 C 9.68 g/m*3 24.2 C 0 km/h
2097 21-07-2009 11:40:02 24.4 C 9.35 g/m*3 24.4 C 0 km/h
2098 21-07-2009 11:52:01 25.6 C 9.76 g/m*3 25.6 C 0 km/h
2099 21-07-2009 12:04:02 27.1 C 9.83 g/m*3 27.1 C 0 km/h
2100 21-07-2009 12:16:01 27.7 C 9.63 g/m*3 27.7 C 0 km/h
Sensor: Nr:Datum:Temp:Abs-Feuchte:Windchill:Wind:
Aussen-T/F 2101 21-07-2009 12:28:01 28.5 C 9.78 g/m*3 28.5 C 0 km/h
2102 21-07-2009 12:40:02 29 C 8.62 g/m*3 29 C 0 km/h
2103 21-07-2009 12:52:01 28.5 C 8.38 g/m*3 28.5 C 0 km/h
2104 21-07-2009 13:04:01 29.3 C 9.05 g/m*3 29.3 C 0 km/h
2105 21-07-2009 13:16:01 30.4 C 8.99 g/m*3 30.4 C 0 km/h
2106 21-07-2009 13:28:01 31.1 C 8.37 g/m*3 31.1 C 0 km/h
2107 21-07-2009 13:40:01 31.1 C 7.72 g/m*3 31.1 C 0 km/h
2108 21-07-2009 13:52:01 31 C 8 g/m*3 31 C 0 km/h
2109 21-07-2009 14:04:01 31 C 7.68 g/m*3 31 C 0 km/h
2110 21-07-2009 14:16:02 30.5 C 8.1 g/m*3 30.5 C 0 km/h
2111 21-07-2009 14:28:02 30.1 C 8.23 g/m*3 30.1 C 0 km/h
2112 21-07-2009 14:40:01 30.7 C 8.82 g/m*3 30.7 C 0 km/h
2113 21-07-2009 14:52:02 31.3 C 8.46 g/m*3 31.3 C 0 km/h
2114 21-07-2009 15:04:01 31.6 C 7.93 g/m*3 31.6 C 0 km/h
2115 21-07-2009 15:16:01 32.2 C 7.17 g/m*3 32.2 C 0 km/h
2116 21-07-2009 15:28:02 31.5 C 7.89 g/m*3 31.5 C 0 km/h
2117 21-07-2009 15:40:01 31.2 C 8.09 g/m*3 31.2 C 0 km/h
2118 21-07-2009 15:52:01 31.1 C 8.04 g/m*3 31.1 C 0 km/h
2119 21-07-2009 16:04:02 30.9 C 7.96 g/m*3 30.9 C 0 km/h
2120 21-07-2009 16:16:01 30.6 C 8.46 g/m*3 30.6 C 0 km/h
2121 21-07-2009 16:28:01 31.1 C 8.04 g/m*3 31.1 C 0 km/h
2122 21-07-2009 16:40:02 31.7 C 8.31 g/m*3 31.7 C 0 km/h
2123 21-07-2009 16:52:01 31.5 C 7.89 g/m*3 31.5 C 0 km/h
2124 21-07-2009 17:04:02 31.2 C 9.38 g/m*3 31.2 C 0 km/h
2125 21-07-2009 17:16:02 30.8 C 10.45 g/m*3 30.8 C 0 km/h
Sensor: Nr:Datum:Temp:Abs-Feuchte:Windchill:Wind:
Aussen-T/F 2126 21-07-2009 17:28:02 30.6 C 10.34 g/m*3 30.6 C 0 km/h
2127 21-07-2009 17:40:01 30.6 C 10.65 g/m*3 30.6 C 0 km/h
2128 21-07-2009 17:52:02 30.6 C 10.65 g/m*3 30.6 C 0 km/h
2129 21-07-2009 18:04:04 30.8 C 11.08 g/m*3 30.8 C 0 km/h
2130 21-07-2009 18:16:01 31.4 C 9.81 g/m*3 31.4 C 0 km/h
2131 21-07-2009 18:28:01 31.6 C 10.57 g/m*3 31.6 C 0 km/h
2132 21-07-2009 18:40:01 30.9 C 10.5 g/m*3 30.9 C 0 km/h
2133 21-07-2009 18:52:01 30.3 C 11.1 g/m*3 30.3 C 0 km/h
2134 21-07-2009 19:04:01 30 C 11.52 g/m*3 30 C 0 km/h
2135 21-07-2009 19:16:01 29.6 C 11.57 g/m*3 29.6 C 0 km/h
2136 21-07-2009 19:28:01 29.3 C 11.39 g/m*3 29.3 C 0 km/h
2137 21-07-2009 19:40:01 28.4 C 11.4 g/m*3 28.4 C 0 km/h
2138 21-07-2009 19:52:02 27.7 C 11.77 g/m*3 27.7 C 0 km/h
2139 21-07-2009 20:04:01 27.3 C 12.04 g/m*3 27.3 C 0 km/h
2140 21-07-2009 20:16:02 27 C 11.84 g/m*3 27 C 0 km/h
2141 21-07-2009 20:28:02 26.5 C 12.02 g/m*3 26.5 C 0 km/h
2142 21-07-2009 20:40:02 26.3 C 11.88 g/m*3 26.3 C 0 km/h
2143 21-07-2009 20:52:02 26.2 C 11.82 g/m*3 26.2 C 0 km/h
2144 21-07-2009 21:04:02 25.9 C 11.86 g/m*3 25.9 C 0 km/h
2145 21-07-2009 21:16:01 25.7 C 11.97 g/m*3 25.7 C 0 km/h
2146 21-07-2009 21:28:01 25.4 C 12.01 g/m*3 25.4 C 0 km/h
2147 21-07-2009 21:40:02 25.1 C 11.81 g/m*3 25.1 C 0 km/h
2148 21-07-2009 21:51:01 24.5 C 11.86 g/m*3 24.5 C 0 km/h
2149 21-07-2009 22:05:05 24.8 C 12.29 g/m*3 24.8 C 0 km/h
2150 21-07-2009 22:17:05 24.8 C 12.29 g/m*3 24.8 C 0 km/h
Sensor: Nr:Datum:Temp:Abs-Feuchte:Windchill:Wind:
Aussen-T/F 2151 21-07-2009 22:29:05 24.6 C 12.15 g/m*3 24.6 C 0 km/h
2152 21-07-2009 22:41:05 24.5 C 12.09 g/m*3 24.5 C 0 km/h
2153 21-07-2009 22:53:05 24.5 C 12.31 g/m*3 24.5 C 0 km/h
2154 21-07-2009 23:05:05 24.4 C 12.24 g/m*3 24.4 C 0 km/h
2155 21-07-2009 23:17:05 24.2 C 12.32 g/m*3 24.2 C 0 km/h
2156 21-07-2009 23:29:05 23.9 C 12.33 g/m*3 23.9 C 0 km/h
2157 21-07-2009 23:41:05 23.6 C 12.34 g/m*3 23.6 C 0 km/h
2158 21-07-2009 23:53:05 23.6 C 12.34 g/m*3 23.6 C 0 km/h
2159 22-07-2009 00:05:05 23.7 C 12.19 g/m*3 23.7 C 0 km/h
2160 22-07-2009 00:17:05 23.7 C 12.19 g/m*3 23.7 C 0 km/h
2161 22-07-2009 00:29:05 23.7 C 11.98 g/m*3 23.7 C 0 km/h
2162 22-07-2009 00:41:06 23.8 C 11.83 g/m*3 23.8 C 0 km/h
2163 22-07-2009 00:53:06 23.9 C 11.68 g/m*3 23.9 C 0 km/h
2164 22-07-2009 01:05:06 24.1 C 11.38 g/m*3 24.1 C 0 km/h
2165 22-07-2009 01:17:06 23.9 C 12.11 g/m*3 23.9 C 0 km/h
2166 22-07-2009 01:29:06 22.6 C 13.46 g/m*3 22.6 C 0 km/h
2167 22-07-2009 01:41:06 21.2 C 14.46 g/m*3 21.2 C 0 km/h
2168 22-07-2009 01:53:06 21.1 C 14.92 g/m*3 21.1 C 0 km/h
2169 22-07-2009 02:05:06 20.8 C 15.03 g/m*3 20.8 C 0 km/h
2170 22-07-2009 02:17:06 21.1 C 15.29 g/m*3 21.1 C 0 km/h
2171 22-07-2009 02:29:06 20.9 C 14.93 g/m*3 20.9 C 0 km/h
2172 22-07-2009 02:41:06 20.7 C 14.76 g/m*3 20.7 C 0 km/h
2173 22-07-2009 02:53:06 20.6 C 14.68 g/m*3 20.6 C 0 km/h
2174 22-07-2009 03:05:06 20.6 C 14.5 g/m*3 20.6 C 0 km/h
2175 22-07-2009 03:17:06 20.8 C 14.67 g/m*3 20.8 C 0 km/h
Sensor: Nr:Datum:Temp:Abs-Feuchte:Windchill:Wind:
Aussen-T/F 2176 22-07-2009 03:29:06 20.7 C 14.4 g/m*3 20.7 C 0 km/h
2177 22-07-2009 03:41:06 20.7 C 14.4 g/m*3 20.7 C 0 km/h
2178 22-07-2009 03:53:06 20.6 C 14.5 g/m*3 20.6 C 0 km/h
2179 22-07-2009 04:05:06 20.6 C 14.5 g/m*3 20.6 C 0 km/h
2180 22-07-2009 04:17:06 20.5 C 14.41 g/m*3 20.5 C 0 km/h
2181 22-07-2009 04:29:07 20.4 C 14.15 g/m*3 20.4 C 0 km/h
2182 22-07-2009 04:41:07 20 C 13.65 g/m*3 20 C 0 km/h
2183 22-07-2009 04:53:07 19.9 C 13.57 g/m*3 19.9 C 0 km/h
2184 22-07-2009 05:05:07 20 C 13.31 g/m*3 20 C 0 km/h
2185 22-07-2009 05:17:07 19.7 C 13.08 g/m*3 19.7 C 0 km/h
2186 22-07-2009 05:29:07 19.4 C 13.01 g/m*3 19.4 C 0 km/h
2187 22-07-2009 05:41:07 19.7 C 13.25 g/m*3 19.7 C 0 km/h
2188 22-07-2009 05:53:07 19.2 C 13.03 g/m*3 19.2 C 0 km/h
2189 22-07-2009 06:05:07 19.1 C 12.95 g/m*3 19.1 C 0 km/h
2190 22-07-2009 06:17:07 19.6 C 12.83 g/m*3 19.6 C 0 km/h
2191 22-07-2009 06:29:07 19.8 C 12.64 g/m*3 19.8 C 0 km/h
2192 22-07-2009 06:41:07 20.3 C 12.49 g/m*3 20.3 C 0 km/h
2193 22-07-2009 06:53:07 20.6 C 12.17 g/m*3 20.6 C 0 km/h
2194 22-07-2009 07:05:05 20.8 C 12.13 g/m*3 20.8 C 0 km/h
2195 22-07-2009 07:17:05 20.8 C 12.13 g/m*3 20.8 C 0 km/h
2196 22-07-2009 07:29:05 20.9 C 12.2 g/m*3 20.9 C 0 km/h
2197 22-07-2009 07:41:05 21.1 C 11.98 g/m*3 21.1 C 0 km/h
2198 22-07-2009 07:53:04 21.2 C 12.05 g/m*3 21.2 C 0 km/h
2199 22-07-2009 08:05:05 21.3 C 12.12 g/m*3 21.3 C 0 km/h
2200 22-07-2009 08:17:05 21.6 C 12.14 g/m*3 21.6 C 0 km/h
Sensor: Nr:Datum:Temp:Abs-Feuchte:Windchill:Wind:
Aussen-T/F 2201 22-07-2009 08:29:05 21.4 C 12.37 g/m*3 21.4 C 0 km/h
2202 22-07-2009 08:41:04 21.6 C 12.14 g/m*3 21.6 C 0 km/h
2203 22-07-2009 08:53:05 21.6 C 12.14 g/m*3 21.6 C 0 km/h
2204 22-07-2009 09:05:04 21.6 C 12.33 g/m*3 21.6 C 0 km/h
2205 22-07-2009 09:17:04 21.8 C 12.47 g/m*3 21.8 C 0 km/h
2206 22-07-2009 09:29:04 22.3 C 12.44 g/m*3 22.3 C 0 km/h
2207 22-07-2009 09:41:03 22.7 C 12.53 g/m*3 22.7 C 0 km/h
2208 22-07-2009 09:53:04 23.2 C 12.27 g/m*3 23.2 C 0 km/h
2209 22-07-2009 10:05:03 23.5 C 13.11 g/m*3 23.5 C 0 km/h
2210 22-07-2009 10:17:03 23.7 C 13.26 g/m*3 23.7 C 0 km/h
2211 22-07-2009 10:29:03 23.8 C 12.69 g/m*3 23.8 C 0 km/h
2212 22-07-2009 10:41:04 23.8 C 13.12 g/m*3 23.8 C 0 km/h
2213 22-07-2009 10:53:03 24.3 C 13.06 g/m*3 24.3 C 0 km/h
2214 22-07-2009 11:05:03 24.5 C 12.98 g/m*3 24.5 C 0 km/h
2215 22-07-2009 11:17:02 24.5 C 12.31 g/m*3 24.5 C 0 km/h
2216 22-07-2009 11:29:02 24.9 C 11.45 g/m*3 24.9 C 0 km/h
2217 22-07-2009 11:41:03 25 C 10.82 g/m*3 25 C 0 km/h
2218 22-07-2009 11:53:02 25.1 C 10.65 g/m*3 25.1 C 0 km/h
2219 22-07-2009 12:05:02 26.4 C 10.95 g/m*3 26.4 C 0 km/h
2220 22-07-2009 12:17:03 26.4 C 10.46 g/m*3 26.4 C 0 km/h
2221 22-07-2009 12:29:03 26.8 C 10.44 g/m*3 26.8 C 0 km/h
2222 22-07-2009 12:41:02 26.7 C 10.12 g/m*3 26.7 C 0 km/h
2223 22-07-2009 12:53:02 27.4 C 9.74 g/m*3 27.4 C 0 km/h
2224 22-07-2009 13:05:02 27.5 C 9.52 g/m*3 27.5 C 0 km/h
2225 22-07-2009 13:17:02 27.8 C 9.68 g/m*3 27.8 C 0 km/h
Sensor: Nr:Datum:Temp:Abs-Feuchte:Windchill:Wind:
Aussen-T/F 2226 22-07-2009 13:29:02 28.3 C 9.68 g/m*3 28.3 C 0 km/h
2227 22-07-2009 13:41:01 28.8 C 9.09 g/m*3 28.8 C 0 km/h
2228 22-07-2009 13:53:01 28.9 C 9.71 g/m*3 28.9 C 0 km/h
2229 22-07-2009 14:05:01 28.7 C 9.32 g/m*3 28.7 C 0 km/h
2230 22-07-2009 14:17:01 29.4 C 9.39 g/m*3 29.4 C 0 km/h
2231 22-07-2009 14:29:01 29.2 C 9.87 g/m*3 29.2 C 0 km/h
2232 22-07-2009 14:41:01 30 C 9.4 g/m*3 30 C 0 km/h
2233 22-07-2009 14:53:01 29.9 C 9.65 g/m*3 29.9 C 0 km/h
2234 22-07-2009 15:05:01 29.1 C 9.24 g/m*3 29.1 C 0 km/h
2235 22-07-2009 15:17:00 29.4 C 9.39 g/m*3 29.4 C 0 km/h
2236 22-07-2009 15:29:00 30 C 10.01 g/m*3 30 C 0 km/h
2237 22-07-2009 15:41:01 30.3 C 9.55 g/m*3 30.3 C 0 km/h
2238 22-07-2009 15:53:00 30.3 C 9.55 g/m*3 30.3 C 0 km/h
2239 22-07-2009 16:05:00 29.5 C 9.15 g/m*3 29.5 C 0 km/h
2240 22-07-2009 16:16:59 30 C 9.4 g/m*3 30 C 0 km/h
2241 22-07-2009 16:28:59 30.4 C 9.3 g/m*3 30.4 C 0 km/h
2242 22-07-2009 16:41:00 30.6 C 8.77 g/m*3 30.6 C 0 km/h
2243 22-07-2009 16:53:59 31 C 8.96 g/m*3 31 C 0 km/h
2244 22-07-2009 17:05:59 31.2 C 8.41 g/m*3 31.2 C 0 km/h
2245 22-07-2009 17:17:00 31.1 C 8.37 g/m*3 31.1 C 0 km/h
2246 22-07-2009 17:29:00 31.1 C 8.37 g/m*3 31.1 C 0 km/h
2247 22-07-2009 17:41:59 31 C 8.64 g/m*3 31 C 0 km/h
2248 22-07-2009 17:53:59 31.5 C 8.55 g/m*3 31.5 C 0 km/h
2249 22-07-2009 18:05:59 31.4 C 8.17 g/m*3 31.4 C 0 km/h
2250 22-07-2009 18:17:59 31.8 C 8.35 g/m*3 31.8 C 0 km/h
Sensor: Nr:Datum:Temp:Abs-Feuchte:Windchill:Wind:
Aussen-T/F 2251 22-07-2009 18:29:59 32.1 C 7.47 g/m*3 32.1 C 0 km/h
2252 22-07-2009 18:41:59 31.8 C 7.35 g/m*3 31.8 C 0 km/h
2253 22-07-2009 18:53:59 31.6 C 8.26 g/m*3 31.6 C 0 km/h
2254 22-07-2009 19:05:59 30.8 C 8.23 g/m*3 30.8 C 0 km/h
2255 22-07-2009 19:17:59 30.6 C 9.71 g/m*3 30.6 C 0 km/h
2256 22-07-2009 19:29:59 30.6 C 10.02 g/m*3 30.6 C 0 km/h
2257 22-07-2009 19:41:59 30.3 C 10.48 g/m*3 30.3 C 0 km/h
2258 22-07-2009 19:53:58 29.9 C 10.86 g/m*3 29.9 C 0 km/h
2259 22-07-2009 20:05:59 30.6 C 10.65 g/m*3 30.6 C 0 km/h
2260 22-07-2009 20:17:58 31.1 C 9.97 g/m*3 31.1 C 0 km/h
2261 22-07-2009 20:29:58 30.6 C 9.71 g/m*3 30.6 C 0 km/h
2262 22-07-2009 20:41:58 29.4 C 10.27 g/m*3 29.4 C 0 km/h
2263 22-07-2009 20:53:57 28 C 10.33 g/m*3 28 C 0 km/h
2264 22-07-2009 21:05:58 26.8 C 10.18 g/m*3 26.8 C 0 km/h
2265 22-07-2009 21:17:58 26 C 9.98 g/m*3 26 C 0 km/h
2266 22-07-2009 21:29:58 25.4 C 10.12 g/m*3 25.4 C 0 km/h
2267 22-07-2009 21:41:57 24.7 C 10.19 g/m*3 24.7 C 0 km/h
2268 22-07-2009 21:53:57 24 C 9.79 g/m*3 24 C 0 km/h
2269 22-07-2009 22:05:57 24.3 C 10.4 g/m*3 24.3 C 0 km/h
2270 22-07-2009 22:18:57 24.3 C 10.18 g/m*3 24.3 C 0 km/h
2271 22-07-2009 22:30:57 24.3 C 10.18 g/m*3 24.3 C 0 km/h
2272 22-07-2009 22:42:57 24.3 C 9.96 g/m*3 24.3 C 0 km/h
2273 22-07-2009 22:54:57 24.1 C 10.28 g/m*3 24.1 C 0 km/h
2274 22-07-2009 23:06:57 24.1 C 10.28 g/m*3 24.1 C 0 km/h
2275 22-07-2009 23:18:57 24.1 C 10.28 g/m*3 24.1 C 0 km/h
Sensor: Nr:Datum:Temp:Abs-Feuchte:Windchill:Wind:
Aussen-T/F 2276 22-07-2009 23:30:57 24.1 C 10.28 g/m*3 24.1 C 0 km/h
2277 22-07-2009 23:42:57 24 C 10.44 g/m*3 24 C 0 km/h
2278 22-07-2009 23:54:57 23.9 C 10.82 g/m*3 23.9 C 0 km/h
2279 23-07-2009 00:06:57 23.3 C 11.29 g/m*3 23.3 C 0 km/h
2280 23-07-2009 00:18:58 23.4 C 11.57 g/m*3 23.4 C 0 km/h
2281 23-07-2009 00:30:58 21.7 C 13.16 g/m*3 21.7 C 0 km/h
2282 23-07-2009 00:42:58 21.9 C 13.31 g/m*3 21.9 C 0 km/h
2283 23-07-2009 00:54:58 22.3 C 12.64 g/m*3 22.3 C 0 km/h
2284 23-07-2009 01:06:58 22.8 C 12.19 g/m*3 22.8 C 0 km/h
2285 23-07-2009 01:18:58 23.1 C 11.78 g/m*3 23.1 C 0 km/h
2286 23-07-2009 01:30:58 23.3 C 11.5 g/m*3 23.3 C 0 km/h
2287 23-07-2009 01:42:58 23.1 C 11.37 g/m*3 23.1 C 0 km/h
2288 23-07-2009 01:54:58 22.9 C 11.44 g/m*3 22.9 C 0 km/h
2289 23-07-2009 02:06:58 22.9 C 11.44 g/m*3 22.9 C 0 km/h
2290 23-07-2009 02:18:58 22.8 C 11.58 g/m*3 22.8 C 0 km/h
2291 23-07-2009 02:30:58 22.8 C 11.58 g/m*3 22.8 C 0 km/h
2292 23-07-2009 02:42:58 22.8 C 11.58 g/m*3 22.8 C 0 km/h
2293 23-07-2009 02:54:58 22.7 C 11.72 g/m*3 22.7 C 0 km/h
2294 23-07-2009 03:06:58 22.5 C 11.78 g/m*3 22.5 C 0 km/h
2295 23-07-2009 03:18:58 21.9 C 11.77 g/m*3 21.9 C 0 km/h
2296 23-07-2009 03:30:58 21.9 C 11.77 g/m*3 21.9 C 0 km/h
2297 23-07-2009 03:42:58 21.6 C 11.76 g/m*3 21.6 C 0 km/h
2298 23-07-2009 03:54:58 21.4 C 11.62 g/m*3 21.4 C 0 km/h
2299 23-07-2009 04:06:58 21.4 C 11.81 g/m*3 21.4 C 0 km/h
2300 23-07-2009 04:18:59 21.3 C 11.74 g/m*3 21.3 C 0 km/h
Sensor: Nr:Datum:Temp:Abs-Feuchte:Windchill:Wind:
Aussen-T/F 2301 23-07-2009 04:30:59 21.4 C 11.81 g/m*3 21.4 C 0 km/h
2302 23-07-2009 04:42:59 21.2 C 11.68 g/m*3 21.2 C 0 km/h
2303 23-07-2009 04:54:59 21 C 11.72 g/m*3 21 C 0 km/h
2304 23-07-2009 05:06:59 21 C 11.91 g/m*3 21 C 0 km/h
2305 23-07-2009 05:18:59 21 C 12.09 g/m*3 21 C 0 km/h
2306 23-07-2009 05:30:59 21 C 12.09 g/m*3 21 C 0 km/h
2307 23-07-2009 05:42:59 20.8 C 12.31 g/m*3 20.8 C 0 km/h
2308 23-07-2009 05:54:59 20.8 C 12.49 g/m*3 20.8 C 0 km/h
2309 23-07-2009 06:06:59 20.6 C 12.53 g/m*3 20.6 C 0 km/h
2310 23-07-2009 06:18:59 20.1 C 12.69 g/m*3 20.1 C 0 km/h
2311 23-07-2009 06:30:59 19.8 C 13.15 g/m*3 19.8 C 0 km/h
2312 23-07-2009 06:42:59 19.7 C 13.41 g/m*3 19.7 C 0 km/h
2313 23-07-2009 06:54:59 20 C 13.65 g/m*3 20 C 0 km/h
2314 23-07-2009 07:06:58 20.2 C 13.64 g/m*3 20.2 C 0 km/h
2315 23-07-2009 07:18:57 20.4 C 13.44 g/m*3 20.4 C 0 km/h
2316 23-07-2009 07:30:57 20.7 C 13.5 g/m*3 20.7 C 0 km/h
2317 23-07-2009 07:42:57 21 C 13.19 g/m*3 21 C 0 km/h
2318 23-07-2009 07:54:57 21.3 C 13.42 g/m*3 21.3 C 0 km/h
2319 23-07-2009 08:06:57 21.2 C 13.34 g/m*3 21.2 C 0 km/h
2320 23-07-2009 08:18:57 21 C 13.19 g/m*3 21 C 0 km/h
2321 23-07-2009 08:30:56 19.8 C 13.66 g/m*3 19.8 C 0 km/h
2322 23-07-2009 08:42:56 19.5 C 14.1 g/m*3 19.5 C 0 km/h
2323 23-07-2009 08:54:57 19 C 14.01 g/m*3 19 C 0 km/h
2324 23-07-2009 09:06:56 18.7 C 13.77 g/m*3 18.7 C 0 km/h
2325 23-07-2009 09:18:56 18.5 C 13.77 g/m*3 18.5 C 0 km/h
Sensor: Nr:Datum:Temp:Abs-Feuchte:Windchill:Wind:
Aussen-T/F 2326 23-07-2009 09:30:56 18.4 C 13.68 g/m*3 18.4 C 0 km/h
2327 23-07-2009 09:42:56 18.8 C 14.17 g/m*3 18.8 C 0 km/h
2328 23-07-2009 09:54:56 19.3 C 14.43 g/m*3 19.3 C 0 km/h
2329 23-07-2009 10:06:55 20 C 14.69 g/m*3 20 C 0 km/h
2330 23-07-2009 10:18:56 20.7 C 14.76 g/m*3 20.7 C 0 km/h
2331 23-07-2009 10:30:56 20.9 C 14.39 g/m*3 20.9 C 0 km/h
2332 23-07-2009 10:42:56 21.8 C 14.97 g/m*3 21.8 C 0 km/h
2333 23-07-2009 10:54:55 21.8 C 14.39 g/m*3 21.8 C 0 km/h
2334 23-07-2009 11:06:56 22.5 C 14.38 g/m*3 22.5 C 0 km/h
2335 23-07-2009 11:18:55 23.4 C 14.3 g/m*3 23.4 C 0 km/h
2336 23-07-2009 11:30:55 24 C 14.36 g/m*3 24 C 0 km/h
2337 23-07-2009 11:42:55 24 C 13.71 g/m*3 24 C 0 km/h
2338 23-07-2009 11:54:55 23.1 C 12.4 g/m*3 23.1 C 0 km/h
2339 23-07-2009 12:06:55 24 C 12.84 g/m*3 24 C 0 km/h
2340 23-07-2009 12:18:54 24.6 C 12.38 g/m*3 24.6 C 0 km/h
2341 23-07-2009 12:30:54 25.5 C 11.6 g/m*3 25.5 C 0 km/h
2342 23-07-2009 12:42:54 25.8 C 11.07 g/m*3 25.8 C 0 km/h
2343 23-07-2009 12:54:54 25.8 C 10.59 g/m*3 25.8 C 0 km/h
2344 23-07-2009 13:06:54 25.3 C 10.53 g/m*3 25.3 C 0 km/h
2345 23-07-2009 13:18:54 24.7 C 10.86 g/m*3 24.7 C 0 km/h
2346 23-07-2009 13:30:54 24.5 C 10.74 g/m*3 24.5 C 0 km/h
2347 23-07-2009 13:42:54 24.2 C 10.56 g/m*3 24.2 C 0 km/h
2348 23-07-2009 13:54:54 24 C 10.44 g/m*3 24 C 0 km/h
2349 23-07-2009 14:06:53 24.5 C 10.74 g/m*3 24.5 C 0 km/h
2350 23-07-2009 14:18:53 24.7 C 10.41 g/m*3 24.7 C 0 km/h
Sensor: Nr:Datum:Temp:Abs-Feuchte:Windchill:Wind:
Aussen-T/F 2351 23-07-2009 14:30:53 24.1 C 10.28 g/m*3 24.1 C 0 km/h
2352 23-07-2009 14:42:53 24.5 C 10.3 g/m*3 24.5 C 0 km/h
2353 23-07-2009 14:54:53 24.9 C 10.53 g/m*3 24.9 C 0 km/h
2354 23-07-2009 15:06:52 25.5 C 9.94 g/m*3 25.5 C 0 km/h
2355 23-07-2009 15:18:53 26.5 C 10.26 g/m*3 26.5 C 0 km/h
2356 23-07-2009 15:30:53 25.9 C 9.93 g/m*3 25.9 C 0 km/h
2357 23-07-2009 15:42:53 26.2 C 10.09 g/m*3 26.2 C 0 km/h
2358 23-07-2009 15:54:52 26.1 C 10.04 g/m*3 26.1 C 0 km/h
2359 23-07-2009 16:06:53 25.9 C 10.17 g/m*3 25.9 C 0 km/h
2360 23-07-2009 16:18:52 26.5 C 10.01 g/m*3 26.5 C 0 km/h
2361 23-07-2009 16:30:52 26.9 C 10.24 g/m*3 26.9 C 0 km/h
2362 23-07-2009 16:42:52 26.1 C 9.79 g/m*3 26.1 C 0 km/h
2363 23-07-2009 16:54:52 26.6 C 9.82 g/m*3 26.6 C 0 km/h
2364 23-07-2009 17:06:52 27.5 C 9.52 g/m*3 27.5 C 0 km/h
2365 23-07-2009 17:18:52 27.3 C 9.16 g/m*3 27.3 C 0 km/h
2366 23-07-2009 17:30:51 27.3 C 8.9 g/m*3 27.3 C 0 km/h
2367 23-07-2009 17:42:51 28.3 C 8.85 g/m*3 28.3 C 0 km/h
2368 23-07-2009 17:54:52 28.4 C 8.62 g/m*3 28.4 C 0 km/h
2369 23-07-2009 18:06:51 27.7 C 8.56 g/m*3 27.7 C 0 km/h
2370 23-07-2009 18:18:51 26.9 C 8.96 g/m*3 26.9 C 0 km/h
2371 23-07-2009 18:30:51 27.7 C 8.83 g/m*3 27.7 C 0 km/h
2372 23-07-2009 18:42:51 25.9 C 10.65 g/m*3 25.9 C 0 km/h
2373 23-07-2009 18:54:51 24.9 C 10.53 g/m*3 24.9 C 0 km/h
2374 23-07-2009 19:06:50 24.6 C 10.8 g/m*3 24.6 C 0 km/h
2375 23-07-2009 19:18:51 24.6 C 10.58 g/m*3 24.6 C 0 km/h
Sensor: Nr:Datum:Temp:Abs-Feuchte:Windchill:Wind:
Aussen-T/F 2376 23-07-2009 19:30:51 25.1 C 10.42 g/m*3 25.1 C 0 km/h
2377 23-07-2009 19:42:51 24.1 C 10.5 g/m*3 24.1 C 0 km/h
2378 23-07-2009 19:54:50 24.1 C 10.5 g/m*3 24.1 C 0 km/h
2379 23-07-2009 20:06:50 24.1 C 10.5 g/m*3 24.1 C 0 km/h
2380 23-07-2009 20:18:02 23.7 C 11.55 g/m*3 23.7 C 0 km/h
2381 23-07-2009 20:30:02 23.4 C 11.14 g/m*3 23.4 C 0 km/h
2382 23-07-2009 20:42:01 23 C 11.1 g/m*3 23 C 0 km/h
2383 23-07-2009 20:54:02 22.7 C 11.31 g/m*3 22.7 C 0 km/h
2384 23-07-2009 21:06:01 22.1 C 12.1 g/m*3 22.1 C 0 km/h
2385 23-07-2009 21:18:01 21.1 C 12.71 g/m*3 21.1 C 0 km/h
2386 23-07-2009 21:30:02 20.1 C 13.21 g/m*3 20.1 C 0 km/h
2387 23-07-2009 21:42:01 19.6 C 13.67 g/m*3 19.6 C 0 km/h
2388 23-07-2009 21:54:01 19.1 C 13.61 g/m*3 19.1 C 0 km/h
2389 23-07-2009 22:06:01 19.2 C 13.85 g/m*3 19.2 C 0 km/h
2390 23-07-2009 22:18:01 19.3 C 13.93 g/m*3 19.3 C 0 km/h
2391 23-07-2009 22:30:01 19.3 C 13.77 g/m*3 19.3 C 0 km/h
2392 23-07-2009 22:42:01 19.1 C 13.44 g/m*3 19.1 C 0 km/h
2393 23-07-2009 22:54:00 19 C 13.53 g/m*3 19 C 0 km/h
2394 23-07-2009 23:07:02 18.8 C 13.53 g/m*3 18.8 C 0 km/h
2395 23-07-2009 23:19:02 18.7 C 13.45 g/m*3 18.7 C 0 km/h
2396 23-07-2009 23:31:02 18.7 C 13.13 g/m*3 18.7 C 0 km/h
2397 23-07-2009 23:43:02 18.8 C 13.21 g/m*3 18.8 C 0 km/h
2398 23-07-2009 23:55:02 18.8 C 13.21 g/m*3 18.8 C 0 km/h
2399 24-07-2009 00:07:02 18.9 C 13.12 g/m*3 18.9 C 0 km/h
2400 24-07-2009 00:19:02 19 C 13.04 g/m*3 19 C 0 km/h
Sensor: Nr:Datum:Temp:Abs-Feuchte:Windchill:Wind:
Aussen-T/F 2401 24-07-2009 00:31:02 19 C 13.04 g/m*3 19 C 0 km/h
2402 24-07-2009 00:43:02 19 C 12.87 g/m*3 19 C 0 km/h
2403 24-07-2009 00:55:02 18.8 C 12.72 g/m*3 18.8 C 0 km/h
2404 24-07-2009 01:07:02 18.8 C 12.4 g/m*3 18.8 C 0 km/h
2405 24-07-2009 01:19:02 18.7 C 12.17 g/m*3 18.7 C 0 km/h
2406 24-07-2009 01:31:02 18.8 C 12.08 g/m*3 18.8 C 0 km/h
2407 24-07-2009 01:43:02 18.7 C 11.85 g/m*3 18.7 C 0 km/h
2408 24-07-2009 01:55:02 18.5 C 11.87 g/m*3 18.5 C 0 km/h
2409 24-07-2009 02:07:03 18.3 C 12.04 g/m*3 18.3 C 0 km/h
2410 24-07-2009 02:19:03 18.3 C 11.88 g/m*3 18.3 C 0 km/h
2411 24-07-2009 02:31:03 18.1 C 11.9 g/m*3 18.1 C 0 km/h
2412 24-07-2009 02:43:03 18.1 C 11.9 g/m*3 18.1 C 0 km/h
2413 24-07-2009 02:55:03 17.9 C 11.91 g/m*3 17.9 C 0 km/h
2414 24-07-2009 03:07:03 17.8 C 11.99 g/m*3 17.8 C 0 km/h
2415 24-07-2009 03:19:03 17.9 C 12.06 g/m*3 17.9 C 0 km/h
2416 24-07-2009 03:31:03 18.1 C 11.9 g/m*3 18.1 C 0 km/h
2417 24-07-2009 03:43:03 17.9 C 11.91 g/m*3 17.9 C 0 km/h
2418 24-07-2009 03:55:03 17.7 C 11.92 g/m*3 17.7 C 0 km/h
2419 24-07-2009 04:07:03 17.6 C 11.85 g/m*3 17.6 C 0 km/h
2420 24-07-2009 04:19:03 17.5 C 11.93 g/m*3 17.5 C 0 km/h
2421 24-07-2009 04:31:03 17.4 C 11.71 g/m*3 17.4 C 0 km/h
2422 24-07-2009 04:43:03 17.5 C 11.78 g/m*3 17.5 C 0 km/h
2423 24-07-2009 04:55:03 17.5 C 11.63 g/m*3 17.5 C 0 km/h
2424 24-07-2009 05:07:03 17.5 C 11.48 g/m*3 17.5 C 0 km/h
2425 24-07-2009 05:19:03 17.4 C 11.41 g/m*3 17.4 C 0 km/h
Sensor: Nr:Datum:Temp:Abs-Feuchte:Windchill:Wind:
Aussen-T/F 2426 24-07-2009 05:31:03 17.3 C 11.34 g/m*3 17.3 C 0 km/h
2427 24-07-2009 05:43:03 17.4 C 11.26 g/m*3 17.4 C 0 km/h
2428 24-07-2009 05:55:04 17.3 C 11.05 g/m*3 17.3 C 0 km/h
2429 24-07-2009 06:07:04 17.3 C 10.9 g/m*3 17.3 C 0 km/h
2430 24-07-2009 06:19:04 17.5 C 10.73 g/m*3 17.5 C 0 km/h
2431 24-07-2009 06:31:04 17.4 C 10.67 g/m*3 17.4 C 0 km/h
2432 24-07-2009 06:43:04 17.4 C 10.67 g/m*3 17.4 C 0 km/h
2433 24-07-2009 06:55:04 17.5 C 10.73 g/m*3 17.5 C 0 km/h
2434 24-07-2009 07:07:02 17.7 C 10.71 g/m*3 17.7 C 0 km/h
2435 24-07-2009 07:19:01 17.9 C 10.84 g/m*3 17.9 C 0 km/h
2436 24-07-2009 07:31:01 18.1 C 10.82 g/m*3 18.1 C 0 km/h
2437 24-07-2009 07:43:01 18.2 C 10.72 g/m*3 18.2 C 0 km/h
2438 24-07-2009 07:55:01 18.2 C 10.72 g/m*3 18.2 C 0 km/h
2439 24-07-2009 08:07:01 18.4 C 10.7 g/m*3 18.4 C 0 km/h
2440 24-07-2009 08:19:01 18.3 C 10.63 g/m*3 18.3 C 0 km/h
2441 24-07-2009 08:31:00 18.3 C 10.63 g/m*3 18.3 C 0 km/h
2442 24-07-2009 08:43:00 18.4 C 10.38 g/m*3 18.4 C 0 km/h
2443 24-07-2009 08:55:01 18.5 C 10.28 g/m*3 18.5 C 0 km/h
2444 24-07-2009 09:07:00 18.4 C 10.22 g/m*3 18.4 C 0 km/h
2445 24-07-2009 09:19:00 18.6 C 10.35 g/m*3 18.6 C 0 km/h
2446 24-07-2009 09:31:00 18.9 C 10.53 g/m*3 18.9 C 0 km/h
2447 24-07-2009 09:43:00 19.5 C 10.24 g/m*3 19.5 C 0 km/h
2448 24-07-2009 09:55:00 20.4 C 9.91 g/m*3 20.4 C 0 km/h
2449 24-07-2009 10:07:59 20.5 C 10.14 g/m*3 20.5 C 0 km/h
2450 24-07-2009 10:19:00 18.4 C 11.17 g/m*3 18.4 C 0 km/h
Sensor: Nr:Datum:Temp:Abs-Feuchte:Windchill:Wind:
Aussen-T/F 2451 24-07-2009 10:31:00 18.4 C 11.95 g/m*3 18.4 C 0 km/h
2452 24-07-2009 10:43:00 18.9 C 11.99 g/m*3 18.9 C 0 km/h
2453 24-07-2009 10:55:59 18.6 C 11.78 g/m*3 18.6 C 0 km/h
2454 24-07-2009 11:07:00 19.7 C 11.89 g/m*3 19.7 C 0 km/h
2455 24-07-2009 11:19:59 20.8 C 11.59 g/m*3 20.8 C 0 km/h
2456 24-07-2009 11:31:59 21.4 C 10.69 g/m*3 21.4 C 0 km/h
2457 24-07-2009 11:43:59 21 C 9.89 g/m*3 21 C 0 km/h
2458 24-07-2009 11:55:59 21.5 C 9.81 g/m*3 21.5 C 0 km/h
2459 24-07-2009 12:07:59 21.9 C 9.46 g/m*3 21.9 C 0 km/h
2460 24-07-2009 12:19:59 20 C 10.54 g/m*3 20 C 0 km/h
2461 24-07-2009 12:31:58 18.6 C 11.3 g/m*3 18.6 C 0 km/h
2462 24-07-2009 12:43:58 19.8 C 11.79 g/m*3 19.8 C 0 km/h
2463 24-07-2009 12:55:59 20.4 C 9.91 g/m*3 20.4 C 0 km/h
2464 24-07-2009 13:07:58 21.5 C 10.37 g/m*3 21.5 C 0 km/h
2465 24-07-2009 13:19:58 22.6 C 8.44 g/m*3 22.6 C 0 km/h
2466 24-07-2009 13:31:57 22.4 C 9.14 g/m*3 22.4 C 0 km/h
2467 24-07-2009 13:43:57 23.9 C 7.79 g/m*3 23.9 C 0 km/h
2468 24-07-2009 13:55:58 23.9 C 7.36 g/m*3 23.9 C 0 km/h
2469 24-07-2009 14:07:57 24.2 C 6.82 g/m*3 24.2 C 0 km/h
2470 24-07-2009 14:19:57 22.3 C 8.29 g/m*3 22.3 C 0 km/h
2471 24-07-2009 14:31:58 22 C 7.96 g/m*3 22 C 0 km/h
2472 24-07-2009 14:43:58 23.5 C 6.98 g/m*3 23.5 C 0 km/h
2473 24-07-2009 14:55:57 24.5 C 6.71 g/m*3 24.5 C 0 km/h
2474 24-07-2009 15:07:57 24.8 C 7.06 g/m*3 24.8 C 0 km/h
2475 24-07-2009 15:19:57 24.9 C 6.41 g/m*3 24.9 C 0 km/h
Sensor: Nr:Datum:Temp:Abs-Feuchte:Windchill:Wind:
Aussen-T/F 2476 24-07-2009 15:31:56 25.5 C 6.63 g/m*3 25.5 C 0 km/h
2477 24-07-2009 15:43:56 24.8 C 6.37 g/m*3 24.8 C 0 km/h
2478 24-07-2009 15:55:57 24.8 C 6.83 g/m*3 24.8 C 0 km/h
2479 24-07-2009 16:07:56 25.5 C 5.92 g/m*3 25.5 C 0 km/h
2480 24-07-2009 16:19:56 26 C 5.6 g/m*3 26 C 0 km/h
2481 24-07-2009 16:31:56 26.3 C 5.94 g/m*3 26.3 C 0 km/h
2482 24-07-2009 16:43:56 24.8 C 5.92 g/m*3 24.8 C 0 km/h
2483 24-07-2009 16:55:56 24.8 C 5.69 g/m*3 24.8 C 0 km/h
2484 24-07-2009 17:07:56 25.3 C 5.85 g/m*3 25.3 C 0 km/h
2485 24-07-2009 17:19:56 24.6 C 5.63 g/m*3 24.6 C 0 km/h
2486 24-07-2009 17:31:56 26.4 C 5.73 g/m*3 26.4 C 0 km/h
2487 24-07-2009 17:43:56 25.6 C 6.19 g/m*3 25.6 C 0 km/h
2488 24-07-2009 17:55:55 25.5 C 6.63 g/m*3 25.5 C 0 km/h
2489 24-07-2009 18:07:56 25.9 C 6.78 g/m*3 25.9 C 0 km/h
2490 24-07-2009 18:19:55 26.8 C 6.62 g/m*3 26.8 C 0 km/h
2491 24-07-2009 18:31:55 26.1 C 6.37 g/m*3 26.1 C 0 km/h
2492 24-07-2009 18:43:55 26.5 C 6.26 g/m*3 26.5 C 0 km/h
2493 24-07-2009 18:55:54 26.6 C 6.54 g/m*3 26.6 C 0 km/h
2494 24-07-2009 19:07:55 25.9 C 6.29 g/m*3 25.9 C 0 km/h
2495 24-07-2009 19:19:55 24.7 C 6.11 g/m*3 24.7 C 0 km/h
2496 24-07-2009 19:31:54 23.5 C 6.13 g/m*3 23.5 C 0 km/h
2497 24-07-2009 19:43:54 23.2 C 6.24 g/m*3 23.2 C 0 km/h
2498 24-07-2009 19:55:55 22.2 C 6.68 g/m*3 22.2 C 0 km/h
2499 24-07-2009 20:07:54 20.7 C 7.02 g/m*3 20.7 C 0 km/h
2500 24-07-2009 20:19:54 20.3 C 7.21 g/m*3 20.3 C 0 km/h
Sensor: Nr:Datum:Temp:Abs-Feuchte:Windchill:Wind:
Aussen-T/F 2501 24-07-2009 20:31:53 20.1 C 7.3 g/m*3 20.1 C 0 km/h
2502 24-07-2009 20:43:53 19.7 C 8.15 g/m*3 19.7 C 0 km/h
2503 24-07-2009 20:55:54 19.3 C 8.13 g/m*3 19.3 C 0 km/h
2504 24-07-2009 21:07:53 19.1 C 8.2 g/m*3 19.1 C 0 km/h
2505 24-07-2009 21:19:54 18.9 C 8.26 g/m*3 18.9 C 0 km/h
2506 24-07-2009 21:31:53 18.7 C 8.33 g/m*3 18.7 C 0 km/h
2507 24-07-2009 21:43:53 18.2 C 8.86 g/m*3 18.2 C 0 km/h
2508 24-07-2009 21:55:53 18.1 C 8.5 g/m*3 18.1 C 0 km/h
2509 24-07-2009 22:07:53 18.4 C 8.18 g/m*3 18.4 C 0 km/h
2510 24-07-2009 22:19:53 18.5 C 8.07 g/m*3 18.5 C 0 km/h
2511 24-07-2009 22:31:53 17.7 C 8.45 g/m*3 17.7 C 0 km/h
2512 24-07-2009 22:43:53 17.8 C 7.89 g/m*3 17.8 C 0 km/h
2513 24-07-2009 22:55:52 18 C 7.99 g/m*3 18 C 0 km/h
2514 24-07-2009 23:07:53 17.8 C 8.04 g/m*3 17.8 C 0 km/h
2515 24-07-2009 23:19:52 17.6 C 8.4 g/m*3 17.6 C 0 km/h
2516 24-07-2009 23:31:52 17.3 C 8.4 g/m*3 17.3 C 0 km/h
2517 24-07-2009 23:43:52 17.1 C 8.73 g/m*3 17.1 C 0 km/h
2518 24-07-2009 23:55:52 17.2 C 8.35 g/m*3 17.2 C 0 km/h
2519 25-07-2009 00:07:52 17.2 C 8.35 g/m*3 17.2 C 0 km/h
2520 25-07-2009 00:20:52 16.9 C 8.77 g/m*3 16.9 C 0 km/h
2521 25-07-2009 00:32:52 16.1 C 9.18 g/m*3 16.1 C 0 km/h
2522 25-07-2009 00:44:52 16.2 C 9.1 g/m*3 16.2 C 0 km/h
2523 25-07-2009 00:56:52 16.3 C 8.88 g/m*3 16.3 C 0 km/h
2524 25-07-2009 01:08:52 16.4 C 8.79 g/m*3 16.4 C 0 km/h
2525 25-07-2009 01:20:52 16.3 C 8.88 g/m*3 16.3 C 0 km/h
Sensor: Nr:Datum:Temp:Abs-Feuchte:Windchill:Wind:
Aussen-T/F 2526 25-07-2009 01:32:52 16.2 C 8.96 g/m*3 16.2 C 0 km/h
2527 25-07-2009 01:44:52 16.2 C 9.1 g/m*3 16.2 C 0 km/h
2528 25-07-2009 01:56:52 16.3 C 9.16 g/m*3 16.3 C 0 km/h
2529 25-07-2009 02:08:52 16.3 C 9.16 g/m*3 16.3 C 0 km/h
2530 25-07-2009 02:20:52 16.3 C 9.16 g/m*3 16.3 C 0 km/h
2531 25-07-2009 02:32:53 16.2 C 9.24 g/m*3 16.2 C 0 km/h
2532 25-07-2009 02:44:53 15.9 C 9.21 g/m*3 15.9 C 0 km/h
2533 25-07-2009 02:56:53 15.7 C 9.1 g/m*3 15.7 C 0 km/h
2534 25-07-2009 03:08:53 15.7 C 9.37 g/m*3 15.7 C 0 km/h
2535 25-07-2009 03:20:53 15.6 C 9.44 g/m*3 15.6 C 0 km/h
2536 25-07-2009 03:32:53 15.5 C 9.39 g/m*3 15.5 C 0 km/h
2537 25-07-2009 03:44:53 15.5 C 9.39 g/m*3 15.5 C 0 km/h
2538 25-07-2009 03:56:53 15.2 C 9.35 g/m*3 15.2 C 0 km/h
2539 25-07-2009 04:08:53 15 C 9.36 g/m*3 15 C 0 km/h
2540 25-07-2009 04:20:53 14.8 C 9.37 g/m*3 14.8 C 0 km/h
2541 25-07-2009 04:32:53 14.7 C 9.32 g/m*3 14.7 C 0 km/h
2542 25-07-2009 04:44:53 14.7 C 9.07 g/m*3 14.7 C 0 km/h
2543 25-07-2009 04:56:53 14.8 C 8.87 g/m*3 14.8 C 0 km/h
2544 25-07-2009 05:08:53 14.8 C 8.61 g/m*3 14.8 C 0 km/h
2545 25-07-2009 05:20:53 14.7 C 8.69 g/m*3 14.7 C 0 km/h
2546 25-07-2009 05:32:53 14.6 C 8.76 g/m*3 14.6 C 0 km/h
2547 25-07-2009 05:44:53 14.5 C 8.71 g/m*3 14.5 C 0 km/h
2548 25-07-2009 05:56:53 14.7 C 8.69 g/m*3 14.7 C 0 km/h
2549 25-07-2009 06:08:53 14.7 C 8.69 g/m*3 14.7 C 0 km/h
2550 25-07-2009 06:20:54 14.7 C 8.81 g/m*3 14.7 C 0 km/h
Sensor: Nr:Datum:Temp:Abs-Feuchte:Windchill:Wind:
Aussen-T/F 2551 25-07-2009 06:32:54 14.3 C 8.85 g/m*3 14.3 C 0 km/h
2552 25-07-2009 06:44:54 14.1 C 8.98 g/m*3 14.1 C 0 km/h
2553 25-07-2009 06:56:54 14.2 C 9.16 g/m*3 14.2 C 0 km/h
2554 25-07-2009 07:08:54 14.5 C 9.2 g/m*3 14.5 C 0 km/h
2555 25-07-2009 07:20:54 14.4 C 9.02 g/m*3 14.4 C 0 km/h
2556 25-07-2009 07:32:54 14.4 C 9.02 g/m*3 14.4 C 0 km/h
2557 25-07-2009 07:44:54 14.4 C 9.15 g/m*3 14.4 C 0 km/h
2558 25-07-2009 07:56:54 14.8 C 9.12 g/m*3 14.8 C 0 km/h
2559 25-07-2009 08:08:54 15.3 C 8.88 g/m*3 15.3 C 0 km/h
2560 25-07-2009 08:20:54 15.4 C 8.67 g/m*3 15.4 C 0 km/h
2561 25-07-2009 08:32:52 16.1 C 8.91 g/m*3 16.1 C 0 km/h
2562 25-07-2009 08:44:52 16.3 C 8.6 g/m*3 16.3 C 0 km/h
2563 25-07-2009 08:56:52 16.7 C 8.95 g/m*3 16.7 C 0 km/h
2564 25-07-2009 09:08:52 16.9 C 8.77 g/m*3 16.9 C 0 km/h
2565 25-07-2009 09:20:51 17.1 C 8.59 g/m*3 17.1 C 0 km/h
2566 25-07-2009 09:32:51 17.5 C 8.65 g/m*3 17.5 C 0 km/h
2567 25-07-2009 09:44:52 17.7 C 8.45 g/m*3 17.7 C 0 km/h
2568 25-07-2009 09:56:52 17.9 C 8.4 g/m*3 17.9 C 0 km/h
2569 25-07-2009 10:08:51 18 C 8.14 g/m*3 18 C 0 km/h
2570 25-07-2009 10:20:51 18.4 C 8.18 g/m*3 18.4 C 0 km/h
2571 25-07-2009 10:32:51 19 C 7.99 g/m*3 19 C 0 km/h
2572 25-07-2009 10:44:51 19.1 C 7.7 g/m*3 19.1 C 0 km/h
2573 25-07-2009 10:56:51 19.2 C 7.59 g/m*3 19.2 C 0 km/h
2574 25-07-2009 11:08:50 19.6 C 7.43 g/m*3 19.6 C 0 km/h
2575 25-07-2009 11:20:51 20 C 7.09 g/m*3 20 C 0 km/h
Sensor: Nr:Datum:Temp:Abs-Feuchte:Windchill:Wind:
Aussen-T/F 2576 25-07-2009 11:32:50 20 C 7.26 g/m*3 20 C 0 km/h
2577 25-07-2009 11:44:50 20.4 C 7.08 g/m*3 20.4 C 0 km/h
2578 25-07-2009 11:56:51 19.5 C 7.72 g/m*3 19.5 C 0 km/h
2579 25-07-2009 12:08:50 18.9 C 8.26 g/m*3 18.9 C 0 km/h
2580 25-07-2009 12:20:50 18.9 C 8.59 g/m*3 18.9 C 0 km/h
2581 25-07-2009 12:32:50 19.9 C 8.59 g/m*3 19.9 C 0 km/h
2582 25-07-2009 12:44:50 21 C 8.61 g/m*3 21 C 0 km/h
2583 25-07-2009 12:56:50 22 C 8.15 g/m*3 22 C 0 km/h
2584 25-07-2009 13:08:50 21 C 8.24 g/m*3 21 C 0 km/h
2585 25-07-2009 13:20:49 20.7 C 7.56 g/m*3 20.7 C 0 km/h
2586 25-07-2009 13:32:49 21.8 C 7.48 g/m*3 21.8 C 0 km/h
2587 25-07-2009 13:44:49 23 C 7.19 g/m*3 23 C 0 km/h
2588 25-07-2009 13:56:49 22.2 C 7.46 g/m*3 22.2 C 0 km/h
2589 25-07-2009 14:08:49 22.6 C 7.23 g/m*3 22.6 C 0 km/h
2590 25-07-2009 14:20:48 21.7 C 7.25 g/m*3 21.7 C 0 km/h
2591 25-07-2009 14:32:49 21.8 C 8.06 g/m*3 21.8 C 0 km/h
2592 25-07-2009 14:44:49 22.2 C 7.66 g/m*3 22.2 C 0 km/h
2593 25-07-2009 14:56:49 22.4 C 7.35 g/m*3 22.4 C 0 km/h
2594 25-07-2009 15:08:48 21.6 C 7.78 g/m*3 21.6 C 0 km/h
2595 25-07-2009 15:20:49 23.1 C 7.65 g/m*3 23.1 C 0 km/h
2596 25-07-2009 15:32:48 22.3 C 6.71 g/m*3 22.3 C 0 km/h
2597 25-07-2009 15:44:48 21.8 C 7.48 g/m*3 21.8 C 0 km/h
2598 25-07-2009 15:56:48 22.8 C 7.32 g/m*3 22.8 C 0 km/h
2599 25-07-2009 16:08:48 23.7 C 6.84 g/m*3 23.7 C 0 km/h
2600 25-07-2009 16:20:48 22.8 C 7.32 g/m*3 22.8 C 0 km/h
Sensor: Nr:Datum:Temp:Abs-Feuchte:Windchill:Wind:
Aussen-T/F 2601 25-07-2009 16:32:48 23.2 C 7.69 g/m*3 23.2 C 0 km/h
2602 25-07-2009 16:44:47 22.9 C 7.36 g/m*3 22.9 C 0 km/h
2603 25-07-2009 16:56:47 24 C 7.61 g/m*3 24 C 0 km/h
2604 25-07-2009 17:08:48 24.3 C 6.42 g/m*3 24.3 C 0 km/h
2605 25-07-2009 17:20:47 23.9 C 6.92 g/m*3 23.9 C 0 km/h
2606 25-07-2009 17:32:47 24.2 C 6.6 g/m*3 24.2 C 0 km/h
2607 25-07-2009 17:44:47 23 C 6.58 g/m*3 23 C 0 km/h
2608 25-07-2009 17:56:47 22.2 C 7.46 g/m*3 22.2 C 0 km/h
2609 25-07-2009 18:08:47 21.1 C 7.74 g/m*3 21.1 C 0 km/h
2610 25-07-2009 18:20:46 21.8 C 7.67 g/m*3 21.8 C 0 km/h
2611 25-07-2009 18:32:46 21.1 C 7.55 g/m*3 21.1 C 0 km/h
2612 25-07-2009 18:44:46 19.3 C 8.79 g/m*3 19.3 C 0 km/h
2613 25-07-2009 18:56:46 17.1 C 10.19 g/m*3 17.1 C 0 km/h
2614 25-07-2009 19:08:46 16.6 C 11.16 g/m*3 16.6 C 0 km/h
2615 25-07-2009 19:20:46 17.7 C 12.07 g/m*3 17.7 C 0 km/h
2616 25-07-2009 19:32:46 18.7 C 12.49 g/m*3 18.7 C 0 km/h
2617 25-07-2009 19:44:46 19.8 C 12.47 g/m*3 19.8 C 0 km/h
2618 25-07-2009 19:56:46 19.1 C 11.8 g/m*3 19.1 C 0 km/h
2619 25-07-2009 20:08:46 18.2 C 11.5 g/m*3 18.2 C 0 km/h
2620 25-07-2009 20:20:45 17.7 C 11.47 g/m*3 17.7 C 0 km/h
2621 25-07-2009 20:32:45 17 C 10.85 g/m*3 17 C 0 km/h
2622 25-07-2009 20:44:45 16.8 C 11.01 g/m*3 16.8 C 0 km/h
2623 25-07-2009 20:56:45 16.4 C 11.03 g/m*3 16.4 C 0 km/h
2624 25-07-2009 21:08:45 16.3 C 10.96 g/m*3 16.3 C 0 km/h
2625 25-07-2009 21:20:45 16.3 C 10.96 g/m*3 16.3 C 0 km/h
Sensor: Nr:Datum:Temp:Abs-Feuchte:Windchill:Wind:
Aussen-T/F 2626 25-07-2009 21:32:45 16.4 C 11.17 g/m*3 16.4 C 0 km/h
2627 25-07-2009 21:44:45 16.4 C 11.17 g/m*3 16.4 C 0 km/h
2628 25-07-2009 21:56:45 16.5 C 11.09 g/m*3 16.5 C 0 km/h
2629 25-07-2009 22:08:45 16.6 C 11.16 g/m*3 16.6 C 0 km/h
2630 25-07-2009 22:20:44 16.4 C 11.03 g/m*3 16.4 C 0 km/h
2631 25-07-2009 22:32:44 16.4 C 11.03 g/m*3 16.4 C 0 km/h
2632 25-07-2009 22:44:44 16.5 C 11.09 g/m*3 16.5 C 0 km/h
2633 25-07-2009 22:56:44 16.6 C 11.02 g/m*3 16.6 C 0 km/h
2634 25-07-2009 23:09:53 16.4 C 11.03 g/m*3 16.4 C 0 km/h
2635 25-07-2009 23:21:53 16.5 C 10.95 g/m*3 16.5 C 0 km/h
2636 25-07-2009 23:33:53 16.5 C 10.81 g/m*3 16.5 C 0 km/h
2637 25-07-2009 23:45:53 16.1 C 10.55 g/m*3 16.1 C 0 km/h
2638 25-07-2009 23:57:53 15.6 C 10.37 g/m*3 15.6 C 0 km/h
2639 26-07-2009 00:09:53 15.2 C 10.25 g/m*3 15.2 C 0 km/h
2640 26-07-2009 00:21:53 14.8 C 10.13 g/m*3 14.8 C 0 km/h
2641 26-07-2009 00:33:53 14.7 C 10.2 g/m*3 14.7 C 0 km/h
2642 26-07-2009 00:45:53 14.5 C 10.07 g/m*3 14.5 C 0 km/h
2643 26-07-2009 00:57:53 14.4 C 10.01 g/m*3 14.4 C 0 km/h
2644 26-07-2009 01:09:53 14.1 C 9.95 g/m*3 14.1 C 0 km/h
2645 26-07-2009 01:21:53 14.1 C 9.95 g/m*3 14.1 C 0 km/h
2646 26-07-2009 01:33:53 13.9 C 9.95 g/m*3 13.9 C 0 km/h
2647 26-07-2009 01:45:53 13.7 C 9.83 g/m*3 13.7 C 0 km/h
2648 26-07-2009 01:57:53 13.5 C 9.71 g/m*3 13.5 C 0 km/h
2649 26-07-2009 02:09:53 13.5 C 9.83 g/m*3 13.5 C 0 km/h
2650 26-07-2009 02:21:54 13.4 C 9.76 g/m*3 13.4 C 0 km/h
Sensor: Nr:Datum:Temp:Abs-Feuchte:Windchill:Wind:
Aussen-T/F 2651 26-07-2009 02:33:54 13.3 C 9.7 g/m*3 13.3 C 0 km/h
2652 26-07-2009 02:45:54 13.2 C 9.64 g/m*3 13.2 C 0 km/h
2653 26-07-2009 02:57:54 13.1 C 9.7 g/m*3 13.1 C 0 km/h
2654 26-07-2009 03:09:54 13 C 9.64 g/m*3 13 C 0 km/h
2655 26-07-2009 03:21:54 12.9 C 9.69 g/m*3 12.9 C 0 km/h
2656 26-07-2009 03:33:54 12.8 C 9.63 g/m*3 12.8 C 0 km/h
2657 26-07-2009 03:45:54 12.6 C 9.51 g/m*3 12.6 C 0 km/h
2658 26-07-2009 03:57:54 12.5 C 9.57 g/m*3 12.5 C 0 km/h
2659 26-07-2009 04:09:54 12.4 C 9.51 g/m*3 12.4 C 0 km/h
2660 26-07-2009 04:21:54 12.2 C 9.39 g/m*3 12.2 C 0 km/h
2661 26-07-2009 04:33:54 12.4 C 9.62 g/m*3 12.4 C 0 km/h
2662 26-07-2009 04:45:54 12.5 C 9.68 g/m*3 12.5 C 0 km/h
2663 26-07-2009 04:57:54 12.7 C 9.8 g/m*3 12.7 C 0 km/h
2664 26-07-2009 05:09:54 12.9 C 9.92 g/m*3 12.9 C 0 km/h
2665 26-07-2009 05:21:54 13 C 9.98 g/m*3 13 C 0 km/h
2666 26-07-2009 05:33:54 12.8 C 9.86 g/m*3 12.8 C 0 km/h
2667 26-07-2009 05:45:54 12.8 C 9.86 g/m*3 12.8 C 0 km/h
2668 26-07-2009 05:57:54 12.8 C 9.74 g/m*3 12.8 C 0 km/h
2669 26-07-2009 06:09:54 12.9 C 9.81 g/m*3 12.9 C 0 km/h
2670 26-07-2009 06:21:55 12.9 C 9.69 g/m*3 12.9 C 0 km/h
2671 26-07-2009 06:33:55 13 C 9.64 g/m*3 13 C 0 km/h
2672 26-07-2009 06:45:55 12.8 C 9.52 g/m*3 12.8 C 0 km/h
2673 26-07-2009 06:57:55 12.7 C 9.46 g/m*3 12.7 C 0 km/h
2674 26-07-2009 07:09:55 12.7 C 9.57 g/m*3 12.7 C 0 km/h
2675 26-07-2009 07:21:55 12.9 C 9.58 g/m*3 12.9 C 0 km/h
Sensor: Nr:Datum:Temp:Abs-Feuchte:Windchill:Wind:
Aussen-T/F 2676 26-07-2009 07:33:55 12.9 C 9.47 g/m*3 12.9 C 0 km/h
2677 26-07-2009 07:45:55 13.3 C 9.59 g/m*3 13.3 C 0 km/h
2678 26-07-2009 07:57:55 13.6 C 9.53 g/m*3 13.6 C 0 km/h
2679 26-07-2009 08:09:55 13.7 C 9.59 g/m*3 13.7 C 0 km/h
2680 26-07-2009 08:21:45 13.8 C 9.53 g/m*3 13.8 C 0 km/h
2681 26-07-2009 08:33:45 13.6 C 9.65 g/m*3 13.6 C 0 km/h
2682 26-07-2009 08:45:45 13.6 C 9.77 g/m*3 13.6 C 0 km/h
2683 26-07-2009 08:57:45 14 C 9.89 g/m*3 14 C 0 km/h
2684 26-07-2009 09:09:45 14.4 C 9.89 g/m*3 14.4 C 0 km/h
2685 26-07-2009 09:21:45 14.7 C 9.95 g/m*3 14.7 C 0 km/h
2686 26-07-2009 09:33:44 15.1 C 9.93 g/m*3 15.1 C 0 km/h
2687 26-07-2009 09:45:45 15.6 C 10.11 g/m*3 15.6 C 0 km/h
2688 26-07-2009 09:57:45 15.8 C 9.96 g/m*3 15.8 C 0 km/h
2689 26-07-2009 10:09:44 16 C 10.08 g/m*3 16 C 0 km/h
2690 26-07-2009 10:21:44 16.2 C 10.07 g/m*3 16.2 C 0 km/h
2691 26-07-2009 10:33:44 17.7 C 10.86 g/m*3 17.7 C 0 km/h
2692 26-07-2009 10:45:44 18.1 C 10.04 g/m*3 18.1 C 0 km/h
2693 26-07-2009 10:57:45 18.8 C 10.95 g/m*3 18.8 C 0 km/h
2694 26-07-2009 11:09:43 19.2 C 10.88 g/m*3 19.2 C 0 km/h
2695 26-07-2009 11:21:44 19.9 C 11 g/m*3 19.9 C 0 km/h
2696 26-07-2009 11:33:44 20.6 C 10.92 g/m*3 20.6 C 0 km/h
2697 26-07-2009 11:45:43 21.6 C 11.19 g/m*3 21.6 C 0 km/h
2698 26-07-2009 11:57:43 22.5 C 10.79 g/m*3 22.5 C 0 km/h
2699 26-07-2009 12:09:43 22.8 C 9.96 g/m*3 22.8 C 0 km/h
2700 26-07-2009 12:21:43 23.3 C 8.36 g/m*3 23.3 C 0 km/h
Sensor: Nr:Datum:Temp:Abs-Feuchte:Windchill:Wind:
Aussen-T/F 2701 26-07-2009 12:33:43 24.2 C 7.48 g/m*3 24.2 C 0 km/h
2702 26-07-2009 12:45:42 24.1 C 6.56 g/m*3 24.1 C 0 km/h
2703 26-07-2009 12:57:42 24.2 C 6.6 g/m*3 24.2 C 0 km/h
2704 26-07-2009 13:09:43 24.2 C 6.6 g/m*3 24.2 C 0 km/h
2705 26-07-2009 13:21:42 25.7 C 6.46 g/m*3 25.7 C 0 km/h
2706 26-07-2009 13:33:42 25.4 C 6.83 g/m*3 25.4 C 0 km/h
2707 26-07-2009 13:45:42 25.1 C 7.64 g/m*3 25.1 C 0 km/h
2708 26-07-2009 13:57:42 25.3 C 6.32 g/m*3 25.3 C 0 km/h
2709 26-07-2009 14:09:42 25.1 C 6.71 g/m*3 25.1 C 0 km/h
2710 26-07-2009 14:21:42 25.7 C 6.22 g/m*3 25.7 C 0 km/h
2711 26-07-2009 14:33:42 25.9 C 6.05 g/m*3 25.9 C 0 km/h
2712 26-07-2009 14:45:42 26.5 C 6.26 g/m*3 26.5 C 0 km/h
2713 26-07-2009 14:57:42 27.6 C 5.85 g/m*3 27.6 C 0 km/h
2714 26-07-2009 15:09:41 28.4 C 5.84 g/m*3 28.4 C 0 km/h
2715 26-07-2009 15:21:42 27.9 C 5.95 g/m*3 27.9 C 0 km/h
2716 26-07-2009 15:33:41 28.2 C 6.32 g/m*3 28.2 C 0 km/h
2717 26-07-2009 15:45:41 28.2 C 5.5 g/m*3 28.2 C 0 km/h
2718 26-07-2009 15:57:41 28.7 C 5.65 g/m*3 28.7 C 0 km/h
2719 26-07-2009 16:09:40 27.9 C 5.95 g/m*3 27.9 C 0 km/h
2720 26-07-2009 16:21:41 28.9 C 6 g/m*3 28.9 C 0 km/h
2721 26-07-2009 16:33:41 29 C 5.74 g/m*3 29 C 0 km/h
2722 26-07-2009 16:45:40 28.1 C 5.47 g/m*3 28.1 C 0 km/h
2723 26-07-2009 16:57:40 28.2 C 5.77 g/m*3 28.2 C 0 km/h
2724 26-07-2009 17:09:41 28.4 C 5.56 g/m*3 28.4 C 0 km/h
2725 26-07-2009 17:21:40 28.6 C 5.62 g/m*3 28.6 C 0 km/h
Sensor: Nr:Datum:Temp:Abs-Feuchte:Windchill:Wind:
Aussen-T/F 2726 26-07-2009 17:33:40 30 C 6.06 g/m*3 30 C 0 km/h
2727 26-07-2009 17:45:40 30.4 C 6.2 g/m*3 30.4 C 0 km/h
2728 26-07-2009 17:57:40 30.1 C 6.1 g/m*3 30.1 C 0 km/h
2729 26-07-2009 18:09:40 30 C 6.37 g/m*3 30 C 0 km/h
2730 26-07-2009 18:21:39 30.6 C 6.58 g/m*3 30.6 C 0 km/h
2731 26-07-2009 18:33:39 30.3 C 6.78 g/m*3 30.3 C 0 km/h
2732 26-07-2009 18:45:39 30.8 C 6.33 g/m*3 30.8 C 0 km/h
2733 26-07-2009 18:57:39 30.3 C 6.78 g/m*3 30.3 C 0 km/h
2734 26-07-2009 19:09:39 29.5 C 7.38 g/m*3 29.5 C 0 km/h
2735 26-07-2009 19:21:39 29.6 C 8.31 g/m*3 29.6 C 0 km/h
2736 26-07-2009 19:33:39 29 C 8.04 g/m*3 29 C 0 km/h
2737 26-07-2009 19:45:39 27.9 C 8.11 g/m*3 27.9 C 0 km/h
2738 26-07-2009 19:57:39 26.6 C 8.81 g/m*3 26.6 C 0 km/h
2739 26-07-2009 20:09:38 25.5 C 8.76 g/m*3 25.5 C 0 km/h
2740 26-07-2009 20:21:39 24.9 C 8.24 g/m*3 24.9 C 0 km/h
2741 26-07-2009 20:33:38 24.5 C 8.95 g/m*3 24.5 C 0 km/h
2742 26-07-2009 20:45:38 23.9 C 8.87 g/m*3 23.9 C 0 km/h
2743 26-07-2009 20:57:38 23.1 C 8.89 g/m*3 23.1 C 0 km/h
2744 26-07-2009 21:09:38 22.6 C 9.24 g/m*3 22.6 C 0 km/h
2745 26-07-2009 21:21:38 21.6 C 8.91 g/m*3 21.6 C 0 km/h
2746 26-07-2009 21:33:38 21.3 C 8.57 g/m*3 21.3 C 0 km/h
2747 26-07-2009 21:45:38 21.2 C 8.9 g/m*3 21.2 C 0 km/h
2748 26-07-2009 21:57:38 20.7 C 8.82 g/m*3 20.7 C 0 km/h
2749 26-07-2009 22:09:37 20.6 C 8.77 g/m*3 20.6 C 0 km/h
2750 26-07-2009 22:22:38 20.4 C 8.67 g/m*3 20.4 C 0 km/h
Sensor: Nr:Datum:Temp:Abs-Feuchte:Windchill:Wind:
Aussen-T/F 2751 26-07-2009 22:34:38 20.4 C 8.85 g/m*3 20.4 C 0 km/h
2752 26-07-2009 22:46:38 20.3 C 8.62 g/m*3 20.3 C 0 km/h
2753 26-07-2009 22:58:38 20 C 8.3 g/m*3 20 C 0 km/h
2754 26-07-2009 23:10:38 19.7 C 8.32 g/m*3 19.7 C 0 km/h
2755 26-07-2009 23:22:38 19.8 C 8.54 g/m*3 19.8 C 0 km/h
2756 26-07-2009 23:34:38 19.7 C 8.83 g/m*3 19.7 C 0 km/h
2757 26-07-2009 23:46:38 19.5 C 8.73 g/m*3 19.5 C 0 km/h
2758 26-07-2009 23:58:38 19.1 C 8.69 g/m*3 19.1 C 0 km/h
2759 27-07-2009 00:10:38 18.9 C 9.07 g/m*3 18.9 C 0 km/h
2760 27-07-2009 00:22:38 18.8 C 9.02 g/m*3 18.8 C 0 km/h
2761 27-07-2009 00:34:38 18.6 C 8.59 g/m*3 18.6 C 0 km/h
2762 27-07-2009 00:46:38 18.4 C 8.65 g/m*3 18.4 C 0 km/h
2763 27-07-2009 00:58:38 18 C 8.75 g/m*3 18 C 0 km/h
2764 27-07-2009 01:10:38 17.7 C 8.75 g/m*3 17.7 C 0 km/h
2765 27-07-2009 01:22:38 17.6 C 9 g/m*3 17.6 C 0 km/h
2766 27-07-2009 01:34:38 17.4 C 9.04 g/m*3 17.4 C 0 km/h
2767 27-07-2009 01:46:38 17.2 C 9.23 g/m*3 17.2 C 0 km/h
2768 27-07-2009 01:58:38 17 C 9.26 g/m*3 17 C 0 km/h
2769 27-07-2009 02:10:39 16.9 C 9.49 g/m*3 16.9 C 0 km/h
2770 27-07-2009 02:22:39 16.7 C 9.38 g/m*3 16.7 C 0 km/h
2771 27-07-2009 02:34:39 16.5 C 9.41 g/m*3 16.5 C 0 km/h
2772 27-07-2009 02:46:39 16.3 C 9.43 g/m*3 16.3 C 0 km/h
2773 27-07-2009 02:58:39 16.1 C 9.46 g/m*3 16.1 C 0 km/h
2774 27-07-2009 03:10:39 15.9 C 9.62 g/m*3 15.9 C 0 km/h
2775 27-07-2009 03:22:39 15.6 C 9.44 g/m*3 15.6 C 0 km/h
Sensor: Nr:Datum:Temp:Abs-Feuchte:Windchill:Wind:
Aussen-T/F 2776 27-07-2009 03:34:39 15.4 C 9.46 g/m*3 15.4 C 0 km/h
2777 27-07-2009 03:46:39 15.3 C 9.4 g/m*3 15.3 C 0 km/h
2778 27-07-2009 03:58:39 15 C 9.23 g/m*3 15 C 0 km/h
2779 27-07-2009 04:10:39 14.8 C 9.25 g/m*3 14.8 C 0 km/h
2780 27-07-2009 04:22:39 14.7 C 9.19 g/m*3 14.7 C 0 km/h
2781 27-07-2009 04:34:39 14.5 C 9.2 g/m*3 14.5 C 0 km/h
2782 27-07-2009 04:46:39 14.4 C 9.27 g/m*3 14.4 C 0 km/h
2783 27-07-2009 04:58:39 14.1 C 9.1 g/m*3 14.1 C 0 km/h
2784 27-07-2009 05:10:39 14 C 9.05 g/m*3 14 C 0 km/h
2785 27-07-2009 05:22:39 14 C 9.05 g/m*3 14 C 0 km/h
2786 27-07-2009 05:34:39 13.8 C 9.06 g/m*3 13.8 C 0 km/h
2787 27-07-2009 05:46:39 13.6 C 8.94 g/m*3 13.6 C 0 km/h
2788 27-07-2009 05:58:39 13.5 C 9.01 g/m*3 13.5 C 0 km/h
2789 27-07-2009 06:10:39 13.4 C 8.95 g/m*3 13.4 C 0 km/h
2790 27-07-2009 06:22:40 13.4 C 8.95 g/m*3 13.4 C 0 km/h
2791 27-07-2009 06:34:40 13.4 C 9.07 g/m*3 13.4 C 0 km/h
2792 27-07-2009 06:46:40 13.5 C 9.24 g/m*3 13.5 C 0 km/h
2793 27-07-2009 06:58:40 13.6 C 9.3 g/m*3 13.6 C 0 km/h
2794 27-07-2009 07:10:38 13.7 C 9.47 g/m*3 13.7 C 0 km/h
2795 27-07-2009 07:22:38 13.7 C 9.47 g/m*3 13.7 C 0 km/h
2796 27-07-2009 07:34:37 13.8 C 9.53 g/m*3 13.8 C 0 km/h
2797 27-07-2009 07:46:37 14 C 9.53 g/m*3 14 C 0 km/h
2798 27-07-2009 07:58:37 14.2 C 9.65 g/m*3 14.2 C 0 km/h
2799 27-07-2009 08:10:37 14.4 C 9.77 g/m*3 14.4 C 0 km/h
2800 27-07-2009 08:22:37 14.7 C 9.95 g/m*3 14.7 C 0 km/h
Sensor: Nr:Datum:Temp:Abs-Feuchte:Windchill:Wind:
Aussen-T/F 2801 27-07-2009 08:34:37 15.1 C 9.93 g/m*3 15.1 C 0 km/h
2802 27-07-2009 08:46:36 15.3 C 9.92 g/m*3 15.3 C 0 km/h
2803 27-07-2009 08:58:36 15.8 C 10.1 g/m*3 15.8 C 0 km/h
2804 27-07-2009 09:10:37 16.3 C 10.13 g/m*3 16.3 C 0 km/h
2805 27-07-2009 09:22:37 16.9 C 10.36 g/m*3 16.9 C 0 km/h
2806 27-07-2009 09:34:36 17.7 C 10.41 g/m*3 17.7 C 0 km/h
2807 27-07-2009 09:46:37 18.4 C 10.54 g/m*3 18.4 C 0 km/h
2808 27-07-2009 09:58:37 19.1 C 10.33 g/m*3 19.1 C 0 km/h
2809 27-07-2009 10:10:36 19.9 C 10.65 g/m*3 19.9 C 0 km/h
2810 27-07-2009 10:22:36 20.7 C 10.62 g/m*3 20.7 C 0 km/h
2811 27-07-2009 10:34:35 21.6 C 10.62 g/m*3 21.6 C 0 km/h
2812 27-07-2009 10:46:36 22.3 C 10.66 g/m*3 22.3 C 0 km/h
2813 27-07-2009 10:58:36 23.1 C 10.54 g/m*3 23.1 C 0 km/h
2814 27-07-2009 11:10:35 23.7 C 10.91 g/m*3 23.7 C 0 km/h
2815 27-07-2009 11:22:35 24.3 C 10.62 g/m*3 24.3 C 0 km/h
2816 27-07-2009 11:34:36 24.9 C 8.93 g/m*3 24.9 C 0 km/h
2817 27-07-2009 11:46:35 26.1 C 8.08 g/m*3 26.1 C 0 km/h
2818 27-07-2009 11:58:35 26.5 C 7.51 g/m*3 26.5 C 0 km/h
2819 27-07-2009 12:10:35 26.4 C 7.72 g/m*3 26.4 C 0 km/h
2820 27-07-2009 12:22:35 26.9 C 7.42 g/m*3 26.9 C 0 km/h
2821 27-07-2009 12:34:35 27.4 C 7.1 g/m*3 27.4 C 0 km/h
2822 27-07-2009 12:46:34 28.3 C 7.46 g/m*3 28.3 C 0 km/h
2823 27-07-2009 12:58:34 28.4 C 7.23 g/m*3 28.4 C 0 km/h
2824 27-07-2009 13:10:35 28.8 C 6.25 g/m*3 28.8 C 0 km/h
2825 27-07-2009 13:22:34 29.1 C 6.06 g/m*3 29.1 C 0 km/h
Sensor: Nr:Datum:Temp:Abs-Feuchte:Windchill:Wind:
Aussen-T/F 2826 27-07-2009 13:34:34 29.7 C 6.27 g/m*3 29.7 C 0 km/h
2827 27-07-2009 13:46:34 30.7 C 6.3 g/m*3 30.7 C 0 km/h
2828 27-07-2009 13:58:34 30 C 6.67 g/m*3 30 C 0 km/h
2829 27-07-2009 14:10:34 30 C 6.97 g/m*3 30 C 0 km/h
2830 27-07-2009 14:22:34 29.8 C 7.2 g/m*3 29.8 C 0 km/h
2831 27-07-2009 14:34:33 30.5 C 7.48 g/m*3 30.5 C 0 km/h
2832 27-07-2009 14:46:34 30.9 C 7 g/m*3 30.9 C 0 km/h
2833 27-07-2009 14:58:34 30.9 C 6.37 g/m*3 30.9 C 0 km/h
2834 27-07-2009 15:10:33 30.7 C 6.3 g/m*3 30.7 C 0 km/h
2835 27-07-2009 15:22:33 30 C 6.06 g/m*3 30 C 0 km/h
2836 27-07-2009 15:34:33 29.2 C 6.68 g/m*3 29.2 C 0 km/h
2837 27-07-2009 15:46:33 29.1 C 6.35 g/m*3 29.1 C 0 km/h
2838 27-07-2009 15:58:34 29 C 6.61 g/m*3 29 C 0 km/h
2839 27-07-2009 16:10:32 29.2 C 6.97 g/m*3 29.2 C 0 km/h
2840 27-07-2009 16:22:33 29.7 C 6.86 g/m*3 29.7 C 0 km/h
2841 27-07-2009 16:34:33 30.2 C 6.74 g/m*3 30.2 C 0 km/h
2842 27-07-2009 16:46:32 30 C 7.58 g/m*3 30 C 0 km/h
2843 27-07-2009 16:58:32 29.4 C 8.22 g/m*3 29.4 C 0 km/h
2844 27-07-2009 17:10:32 28.9 C 7.14 g/m*3 28.9 C 0 km/h
2845 27-07-2009 17:22:32 28.2 C 6.87 g/m*3 28.2 C 0 km/h
2846 27-07-2009 17:34:32 27.9 C 7.3 g/m*3 27.9 C 0 km/h
2847 27-07-2009 17:46:31 26.9 C 7.68 g/m*3 26.9 C 0 km/h
2848 27-07-2009 17:58:31 25.1 C 7.87 g/m*3 25.1 C 0 km/h
2849 27-07-2009 18:10:32 24.5 C 7.83 g/m*3 24.5 C 0 km/h
2850 27-07-2009 18:22:31 23 C 10.07 g/m*3 23 C 0 km/h
Sensor: Nr:Datum:Temp:Abs-Feuchte:Windchill:Wind:
Aussen-T/F 2851 27-07-2009 18:34:31 22.1 C 10.54 g/m*3 22.1 C 0 km/h
2852 27-07-2009 18:46:31 20.7 C 11.88 g/m*3 20.7 C 0 km/h
2853 27-07-2009 18:58:31 19.8 C 13.15 g/m*3 19.8 C 0 km/h
2854 27-07-2009 19:10:31 19.4 C 13.35 g/m*3 19.4 C 0 km/h
2855 27-07-2009 19:22:31 19.1 C 13.44 g/m*3 19.1 C 0 km/h
2856 27-07-2009 19:34:30 19 C 13.53 g/m*3 19 C 0 km/h
2857 27-07-2009 19:46:31 19.3 C 13.77 g/m*3 19.3 C 0 km/h
2858 27-07-2009 19:58:31 19.4 C 13.51 g/m*3 19.4 C 0 km/h
2859 27-07-2009 20:10:30 19.7 C 13.58 g/m*3 19.7 C 0 km/h
2860 27-07-2009 20:22:30 20 C 13.48 g/m*3 20 C 0 km/h
2861 27-07-2009 20:34:30 20.5 C 13.52 g/m*3 20.5 C 0 km/h
2862 27-07-2009 20:46:30 20.8 C 13.4 g/m*3 20.8 C 0 km/h
2863 27-07-2009 20:58:31 20.8 C 13.4 g/m*3 20.8 C 0 km/h
2864 27-07-2009 21:10:30 19.9 C 12.89 g/m*3 19.9 C 0 km/h
2865 27-07-2009 21:22:30 19.7 C 12.74 g/m*3 19.7 C 0 km/h
2866 27-07-2009 21:34:29 19.4 C 12.68 g/m*3 19.4 C 0 km/h
2867 27-07-2009 21:46:30 19.1 C 12.46 g/m*3 19.1 C 0 km/h
2868 27-07-2009 21:58:30 18.9 C 12.64 g/m*3 18.9 C 0 km/h
2869 27-07-2009 22:10:29 18.8 C 12.56 g/m*3 18.8 C 0 km/h
2870 27-07-2009 22:22:29 18.7 C 12.65 g/m*3 18.7 C 0 km/h
2871 27-07-2009 22:34:29 18.7 C 12.81 g/m*3 18.7 C 0 km/h
2872 27-07-2009 22:47:30 18.7 C 12.65 g/m*3 18.7 C 0 km/h
2873 27-07-2009 22:59:30 18.5 C 12.02 g/m*3 18.5 C 0 km/h
2874 27-07-2009 23:11:30 18.3 C 11.26 g/m*3 18.3 C 0 km/h
2875 27-07-2009 23:23:31 18 C 11.21 g/m*3 18 C 0 km/h
Sensor: Nr:Datum:Temp:Abs-Feuchte:Windchill:Wind:
Aussen-T/F 2876 27-07-2009 23:35:31 17.7 C 11.01 g/m*3 17.7 C 0 km/h
2877 27-07-2009 23:47:31 17.4 C 10.97 g/m*3 17.4 C 0 km/h
2878 27-07-2009 23:59:31 17.4 C 11.12 g/m*3 17.4 C 0 km/h
2879 28-07-2009 00:11:31 17.5 C 11.03 g/m*3 17.5 C 0 km/h
2880 28-07-2009 00:23:31 17.6 C 10.65 g/m*3 17.6 C 0 km/h
2881 28-07-2009 00:35:31 17.7 C 10.56 g/m*3 17.7 C 0 km/h
2882 28-07-2009 00:47:31 17.7 C 10.56 g/m*3 17.7 C 0 km/h
2883 28-07-2009 00:59:31 17.7 C 10.71 g/m*3 17.7 C 0 km/h
2884 28-07-2009 01:11:31 17.7 C 10.71 g/m*3 17.7 C 0 km/h
2885 28-07-2009 01:23:31 17.6 C 10.5 g/m*3 17.6 C 0 km/h
2886 28-07-2009 01:35:31 17.5 C 10.59 g/m*3 17.5 C 0 km/h
2887 28-07-2009 01:47:31 17.4 C 10.37 g/m*3 17.4 C 0 km/h
2888 28-07-2009 01:59:31 17.3 C 9.87 g/m*3 17.3 C 0 km/h
2889 28-07-2009 02:11:31 17.4 C 9.19 g/m*3 17.4 C 0 km/h
2890 28-07-2009 02:23:31 17 C 8.54 g/m*3 17 C 0 km/h
2891 28-07-2009 02:35:31 16.8 C 8.58 g/m*3 16.8 C 0 km/h
2892 28-07-2009 02:47:31 16.8 C 8.44 g/m*3 16.8 C 0 km/h
2893 28-07-2009 02:59:31 16.6 C 8.33 g/m*3 16.6 C 0 km/h
2894 28-07-2009 03:11:32 16.3 C 8.46 g/m*3 16.3 C 0 km/h
2895 28-07-2009 03:23:32 15.8 C 8.48 g/m*3 15.8 C 0 km/h
2896 28-07-2009 03:35:32 15.5 C 8.72 g/m*3 15.5 C 0 km/h
2897 28-07-2009 03:47:32 15.4 C 8.8 g/m*3 15.4 C 0 km/h
2898 28-07-2009 03:59:32 15.2 C 8.83 g/m*3 15.2 C 0 km/h
2899 28-07-2009 04:11:32 14.8 C 8.74 g/m*3 14.8 C 0 km/h
2900 28-07-2009 04:23:32 14.5 C 8.71 g/m*3 14.5 C 0 km/h
Sensor: Nr:Datum:Temp:Abs-Feuchte:Windchill:Wind:
Aussen-T/F 2901 28-07-2009 04:35:32 14 C 8.56 g/m*3 14 C 0 km/h
2902 28-07-2009 04:47:32 14 C 8.56 g/m*3 14 C 0 km/h
2903 28-07-2009 04:59:32 13.8 C 8.7 g/m*3 13.8 C 0 km/h
2904 28-07-2009 05:11:32 13.6 C 8.71 g/m*3 13.6 C 0 km/h
2905 28-07-2009 05:23:32 13.4 C 8.72 g/m*3 13.4 C 0 km/h
2906 28-07-2009 05:35:32 13.2 C 8.73 g/m*3 13.2 C 0 km/h
2907 28-07-2009 05:47:32 13.1 C 8.79 g/m*3 13.1 C 0 km/h
2908 28-07-2009 05:59:32 12.9 C 8.9 g/m*3 12.9 C 0 km/h
2909 28-07-2009 06:11:32 12.8 C 9.07 g/m*3 12.8 C 0 km/h
2910 28-07-2009 06:23:32 12.8 C 9.07 g/m*3 12.8 C 0 km/h
2911 28-07-2009 06:35:32 12.8 C 9.18 g/m*3 12.8 C 0 km/h
2912 28-07-2009 06:47:32 12.8 C 9.18 g/m*3 12.8 C 0 km/h
2913 28-07-2009 06:59:32 13 C 9.19 g/m*3 13 C 0 km/h
2914 28-07-2009 07:11:30 13.1 C 9.24 g/m*3 13.1 C 0 km/h
2915 28-07-2009 07:23:30 13.3 C 9.36 g/m*3 13.3 C 0 km/h
2916 28-07-2009 07:35:30 13.6 C 9.53 g/m*3 13.6 C 0 km/h
2917 28-07-2009 07:47:29 14 C 9.41 g/m*3 14 C 0 km/h
2918 28-07-2009 07:59:29 14.3 C 9.46 g/m*3 14.3 C 0 km/h
2919 28-07-2009 08:11:30 14.5 C 9.45 g/m*3 14.5 C 0 km/h
2920 28-07-2009 08:23:29 14.7 C 9.32 g/m*3 14.7 C 0 km/h
2921 28-07-2009 08:35:29 15 C 8.85 g/m*3 15 C 0 km/h
2922 28-07-2009 08:47:29 15.4 C 8.93 g/m*3 15.4 C 0 km/h
2923 28-07-2009 08:59:29 15.5 C 8.86 g/m*3 15.5 C 0 km/h
2924 28-07-2009 09:11:29 15.9 C 8.8 g/m*3 15.9 C 0 km/h
2925 28-07-2009 09:23:29 16.3 C 8.6 g/m*3 16.3 C 0 km/h
Sensor: Nr:Datum:Temp:Abs-Feuchte:Windchill:Wind:
Aussen-T/F 2926 28-07-2009 09:35:28 16.6 C 8.62 g/m*3 16.6 C 0 km/h
2927 28-07-2009 09:47:29 17.2 C 8.35 g/m*3 17.2 C 0 km/h
2928 28-07-2009 09:59:29 17.6 C 8.55 g/m*3 17.6 C 0 km/h
2929 28-07-2009 10:11:28 17.8 C 8.35 g/m*3 17.8 C 0 km/h
2930 28-07-2009 10:23:28 18.2 C 7.93 g/m*3 18.2 C 0 km/h
2931 28-07-2009 10:35:27 18.7 C 7.84 g/m*3 18.7 C 0 km/h
2932 28-07-2009 10:47:28 19.1 C 7.54 g/m*3 19.1 C 0 km/h
2933 28-07-2009 10:59:28 20 C 7.6 g/m*3 20 C 0 km/h
2934 28-07-2009 11:11:27 20.1 C 7.82 g/m*3 20.1 C 0 km/h
2935 28-07-2009 11:23:27 20.1 C 7.82 g/m*3 20.1 C 0 km/h
2936 28-07-2009 11:35:28 20.1 C 7.47 g/m*3 20.1 C 0 km/h
2937 28-07-2009 11:47:27 20.3 C 7.56 g/m*3 20.3 C 0 km/h
2938 28-07-2009 11:59:27 20.5 C 7.3 g/m*3 20.5 C 0 km/h
2939 28-07-2009 12:11:27 20.8 C 7.24 g/m*3 20.8 C 0 km/h
2940 28-07-2009 12:23:27 21.7 C 7.06 g/m*3 21.7 C 0 km/h
2941 28-07-2009 12:35:27 22.5 C 6.59 g/m*3 22.5 C 0 km/h
2942 28-07-2009 12:47:26 23.6 C 6.81 g/m*3 23.6 C 0 km/h
2943 28-07-2009 12:59:26 23.5 C 6.56 g/m*3 23.5 C 0 km/h
2944 28-07-2009 13:11:27 24.6 C 6.75 g/m*3 24.6 C 0 km/h
2945 28-07-2009 13:23:26 25.1 C 6.02 g/m*3 25.1 C 0 km/h
2946 28-07-2009 13:35:26 25.5 C 6.16 g/m*3 25.5 C 0 km/h
2947 28-07-2009 13:47:27 26 C 6.09 g/m*3 26 C 0 km/h
2948 28-07-2009 13:59:27 26.7 C 6.33 g/m*3 26.7 C 0 km/h
2949 28-07-2009 14:11:26 25.1 C 6.02 g/m*3 25.1 C 0 km/h
2950 28-07-2009 14:23:26 25.6 C 6.19 g/m*3 25.6 C 0 km/h
Sensor: Nr:Datum:Temp:Abs-Feuchte:Windchill:Wind:
Aussen-T/F 2951 28-07-2009 14:35:25 25.9 C 6.29 g/m*3 25.9 C 0 km/h
2952 28-07-2009 14:47:26 26.2 C 6.15 g/m*3 26.2 C 0 km/h
2953 28-07-2009 14:59:26 25.8 C 6.26 g/m*3 25.8 C 0 km/h
2954 28-07-2009 15:11:25 26.8 C 5.85 g/m*3 26.8 C 0 km/h
2955 28-07-2009 15:23:25 26.3 C 5.69 g/m*3 26.3 C 0 km/h
2956 28-07-2009 15:35:25 26.8 C 5.6 g/m*3 26.8 C 0 km/h
2957 28-07-2009 15:47:25 27.6 C 5.85 g/m*3 27.6 C 0 km/h
2958 28-07-2009 15:59:25 28.2 C 5.77 g/m*3 28.2 C 0 km/h
2959 28-07-2009 16:11:24 27.7 C 5.62 g/m*3 27.7 C 0 km/h
2960 28-07-2009 16:23:25 28.6 C 5.62 g/m*3 28.6 C 0 km/h
2961 28-07-2009 16:35:25 28.7 C 5.65 g/m*3 28.7 C 0 km/h
2962 28-07-2009 16:47:24 28.3 C 5.53 g/m*3 28.3 C 0 km/h
2963 28-07-2009 16:59:24 26.8 C 5.35 g/m*3 26.8 C 0 km/h
2964 28-07-2009 17:11:25 26.6 C 5.54 g/m*3 26.6 C 0 km/h
2965 28-07-2009 17:23:24 28 C 5.71 g/m*3 28 C 0 km/h
2966 28-07-2009 17:35:27 29 C 5.74 g/m*3 29 C 0 km/h
2967 28-07-2009 17:47:24 28.4 C 5.56 g/m*3 28.4 C 0 km/h
2968 28-07-2009 17:59:24 29.1 C 5.78 g/m*3 29.1 C 0 km/h
2969 28-07-2009 18:11:24 28.5 C 5.59 g/m*3 28.5 C 0 km/h
2970 28-07-2009 18:23:23 28.1 C 5.47 g/m*3 28.1 C 0 km/h
2971 28-07-2009 18:35:24 26.6 C 5.54 g/m*3 26.6 C 0 km/h
2972 28-07-2009 18:47:23 26.8 C 6.62 g/m*3 26.8 C 0 km/h
2973 28-07-2009 18:59:23 28.2 C 5.5 g/m*3 28.2 C 0 km/h
2974 28-07-2009 19:11:23 29.3 C 5.84 g/m*3 29.3 C 0 km/h
2975 28-07-2009 19:23:23 28.5 C 6.15 g/m*3 28.5 C 0 km/h
Sensor: Nr:Datum:Temp:Abs-Feuchte:Windchill:Wind:
Aussen-T/F 2976 28-07-2009 19:35:23 27.9 C 6.22 g/m*3 27.9 C 0 km/h
2977 28-07-2009 19:47:22 28.1 C 6.56 g/m*3 28.1 C 0 km/h
2978 28-07-2009 19:59:22 28.1 C 6.29 g/m*3 28.1 C 0 km/h
2979 28-07-2009 20:11:22 27.6 C 6.65 g/m*3 27.6 C 0 km/h
2980 28-07-2009 20:23:23 26.7 C 6.83 g/m*3 26.7 C 0 km/h
2981 28-07-2009 20:35:22 25.5 C 6.63 g/m*3 25.5 C 0 km/h
2982 28-07-2009 20:47:22 24 C 6.74 g/m*3 24 C 0 km/h
2983 28-07-2009 20:59:22 22.6 C 7.03 g/m*3 22.6 C 0 km/h
2984 28-07-2009 21:11:22 22.1 C 6.83 g/m*3 22.1 C 0 km/h
2985 28-07-2009 21:23:22 21.8 C 7.29 g/m*3 21.8 C 0 km/h
2986 28-07-2009 21:35:21 21.4 C 6.75 g/m*3 21.4 C 0 km/h
2987 28-07-2009 21:47:22 21.1 C 7 g/m*3 21.1 C 0 km/h
2988 28-07-2009 21:59:22 20.4 C 7.25 g/m*3 20.4 C 0 km/h
2989 28-07-2009 22:11:21 19.9 C 7.04 g/m*3 19.9 C 0 km/h
2990 28-07-2009 22:23:21 19.7 C 7.13 g/m*3 19.7 C 0 km/h
2991 28-07-2009 22:35:21 19.3 C 7.13 g/m*3 19.3 C 0 km/h
2992 28-07-2009 22:48:21 19.1 C 7.38 g/m*3 19.1 C 0 km/h
2993 28-07-2009 23:00:21 18.7 C 7.36 g/m*3 18.7 C 0 km/h
2994 28-07-2009 23:12:21 18.4 C 7.39 g/m*3 18.4 C 0 km/h
2995 28-07-2009 23:24:21 18.2 C 7.31 g/m*3 18.2 C 0 km/h
2996 28-07-2009 23:36:21 17.8 C 7.44 g/m*3 17.8 C 0 km/h
2997 28-07-2009 23:48:21 17.6 C 7.35 g/m*3 17.6 C 0 km/h
2998 29-07-2009 00:00:21 17.5 C 7.45 g/m*3 17.5 C 0 km/h
2999 29-07-2009 00:12:21 17.2 C 7.47 g/m*3 17.2 C 0 km/h
3000 29-07-2009 00:24:21 17.1 C 7.71 g/m*3 17.1 C 0 km/h
Sensor: Nr:Datum:Temp:Abs-Feuchte:Windchill:Wind:
Aussen-T/F 3001 29-07-2009 00:36:21 16.9 C 7.77 g/m*3 16.9 C 0 km/h
3002 29-07-2009 00:48:21 16.6 C 7.91 g/m*3 16.6 C 0 km/h
3003 29-07-2009 01:00:21 16.4 C 7.96 g/m*3 16.4 C 0 km/h
3004 29-07-2009 01:12:22 16.1 C 8.09 g/m*3 16.1 C 0 km/h
3005 29-07-2009 01:24:22 16 C 8.17 g/m*3 16 C 0 km/h
3006 29-07-2009 01:36:22 15.8 C 8.35 g/m*3 15.8 C 0 km/h
3007 29-07-2009 01:48:22 15.5 C 8.2 g/m*3 15.5 C 0 km/h
3008 29-07-2009 02:00:22 15.3 C 8.36 g/m*3 15.3 C 0 km/h
3009 29-07-2009 02:12:22 15.1 C 8.26 g/m*3 15.1 C 0 km/h
3010 29-07-2009 02:24:22 15 C 8.46 g/m*3 15 C 0 km/h
3011 29-07-2009 02:36:22 15 C 8.59 g/m*3 15 C 0 km/h
3012 29-07-2009 02:48:22 14.7 C 8.56 g/m*3 14.7 C 0 km/h
3013 29-07-2009 03:00:22 14.7 C 8.56 g/m*3 14.7 C 0 km/h
3014 29-07-2009 03:12:22 14.6 C 8.63 g/m*3 14.6 C 0 km/h
3015 29-07-2009 03:24:22 14.3 C 8.6 g/m*3 14.3 C 0 km/h
3016 29-07-2009 03:36:22 14.1 C 8.5 g/m*3 14.1 C 0 km/h
3017 29-07-2009 03:48:22 13.9 C 8.51 g/m*3 13.9 C 0 km/h
3018 29-07-2009 04:00:22 14 C 8.56 g/m*3 14 C 0 km/h
3019 29-07-2009 04:12:22 13.7 C 8.64 g/m*3 13.7 C 0 km/h
3020 29-07-2009 04:24:22 13.6 C 8.59 g/m*3 13.6 C 0 km/h
3021 29-07-2009 04:36:22 13.5 C 8.54 g/m*3 13.5 C 0 km/h
3022 29-07-2009 04:48:22 13.2 C 8.61 g/m*3 13.2 C 0 km/h
3023 29-07-2009 05:00:22 13 C 8.51 g/m*3 13 C 0 km/h
3024 29-07-2009 05:12:23 12.9 C 8.57 g/m*3 12.9 C 0 km/h
3025 29-07-2009 05:24:23 12.9 C 8.57 g/m*3 12.9 C 0 km/h
Sensor: Nr:Datum:Temp:Abs-Feuchte:Windchill:Wind:
Aussen-T/F 3026 29-07-2009 05:36:23 12.8 C 8.51 g/m*3 12.8 C 0 km/h
3027 29-07-2009 05:48:23 12.6 C 8.41 g/m*3 12.6 C 0 km/h
3028 29-07-2009 06:00:23 12.6 C 8.41 g/m*3 12.6 C 0 km/h
3029 29-07-2009 06:12:23 12.5 C 8.47 g/m*3 12.5 C 0 km/h
3030 29-07-2009 06:24:23 12.5 C 8.47 g/m*3 12.5 C 0 km/h
3031 29-07-2009 06:36:23 12.6 C 8.63 g/m*3 12.6 C 0 km/h
3032 29-07-2009 06:48:23 12.6 C 8.63 g/m*3 12.6 C 0 km/h
3033 29-07-2009 07:00:21 12.7 C 8.68 g/m*3 12.7 C 0 km/h
3034 29-07-2009 07:12:21 12.8 C 8.74 g/m*3 12.8 C 0 km/h
3035 29-07-2009 07:24:21 12.7 C 8.79 g/m*3 12.7 C 0 km/h
3036 29-07-2009 07:36:21 12.5 C 8.8 g/m*3 12.5 C 0 km/h
3037 29-07-2009 07:48:21 12.7 C 8.91 g/m*3 12.7 C 0 km/h
3038 29-07-2009 08:00:21 13.1 C 9.01 g/m*3 13.1 C 0 km/h
3039 29-07-2009 08:12:21 13.2 C 8.96 g/m*3 13.2 C 0 km/h
3040 29-07-2009 08:24:20 13.4 C 9.07 g/m*3 13.4 C 0 km/h
3041 29-07-2009 08:36:21 13.8 C 9.06 g/m*3 13.8 C 0 km/h
3042 29-07-2009 08:48:20 14.2 C 9.04 g/m*3 14.2 C 0 km/h
3043 29-07-2009 09:00:20 14.5 C 9.2 g/m*3 14.5 C 0 km/h
3044 29-07-2009 09:12:20 15.4 C 9.07 g/m*3 15.4 C 0 km/h
3045 29-07-2009 09:24:20 16 C 9.13 g/m*3 16 C 0 km/h
3046 29-07-2009 09:36:20 16.8 C 9.44 g/m*3 16.8 C 0 km/h
3047 29-07-2009 09:48:20 17.4 C 9.19 g/m*3 17.4 C 0 km/h
3048 29-07-2009 10:00:20 18.4 C 9.44 g/m*3 18.4 C 0 km/h
3049 29-07-2009 10:12:20 19.2 C 9.4 g/m*3 19.2 C 0 km/h
3050 29-07-2009 10:24:20 20.1 C 9.39 g/m*3 20.1 C 0 km/h
Sensor: Nr:Datum:Temp:Abs-Feuchte:Windchill:Wind:
Aussen-T/F 3051 29-07-2009 10:36:19 20.8 C 9.6 g/m*3 20.8 C 0 km/h
3052 29-07-2009 10:48:20 21.6 C 8.72 g/m*3 21.6 C 0 km/h
3053 29-07-2009 11:00:19 22.5 C 8.59 g/m*3 22.5 C 0 km/h
3054 29-07-2009 11:12:19 22.9 C 8.58 g/m*3 22.9 C 0 km/h
3055 29-07-2009 11:24:19 24.1 C 7.88 g/m*3 24.1 C 0 km/h
3056 29-07-2009 11:36:19 24.8 C 7.74 g/m*3 24.8 C 0 km/h
3057 29-07-2009 11:48:19 24.9 C 8.24 g/m*3 24.9 C 0 km/h
3058 29-07-2009 12:00:19 25.7 C 7.9 g/m*3 25.7 C 0 km/h
3059 29-07-2009 12:12:19 25.9 C 7.75 g/m*3 25.9 C 0 km/h
3060 29-07-2009 12:24:18 26.7 C 7.85 g/m*3 26.7 C 0 km/h
3061 29-07-2009 12:36:19 27.2 C 7.81 g/m*3 27.2 C 0 km/h
3062 29-07-2009 12:48:18 28.1 C 7.93 g/m*3 28.1 C 0 km/h
3063 29-07-2009 13:00:18 28.2 C 6.87 g/m*3 28.2 C 0 km/h
3064 29-07-2009 13:12:18 28.5 C 6.99 g/m*3 28.5 C 0 km/h
3065 29-07-2009 13:24:18 30 C 6.67 g/m*3 30 C 0 km/h
3066 29-07-2009 13:36:18 30.4 C 6.51 g/m*3 30.4 C 0 km/h
3067 29-07-2009 13:48:17 29.8 C 6.6 g/m*3 29.8 C 0 km/h
3068 29-07-2009 14:00:18 29.8 C 6.9 g/m*3 29.8 C 0 km/h
3069 29-07-2009 14:12:18 30 C 6.67 g/m*3 30 C 0 km/h
3070 29-07-2009 14:24:17 30 C 7.58 g/m*3 30 C 0 km/h
3071 29-07-2009 14:36:17 30.3 C 7.7 g/m*3 30.3 C 0 km/h
3072 29-07-2009 14:48:18 30.2 C 6.74 g/m*3 30.2 C 0 km/h
3073 29-07-2009 15:00:17 30.3 C 7.4 g/m*3 30.3 C 0 km/h
3074 29-07-2009 15:12:17 30.6 C 7.2 g/m*3 30.6 C 0 km/h
3075 29-07-2009 15:24:17 30.8 C 6.97 g/m*3 30.8 C 0 km/h
Sensor: Nr:Datum:Temp:Abs-Feuchte:Windchill:Wind:
Aussen-T/F 3076 29-07-2009 15:36:16 30.7 C 6.61 g/m*3 30.7 C 0 km/h
3077 29-07-2009 15:48:17 31 C 7.04 g/m*3 31 C 0 km/h
3078 29-07-2009 16:00:16 31.3 C 6.83 g/m*3 31.3 C 0 km/h
3079 29-07-2009 16:12:16 31.4 C 6.87 g/m*3 31.4 C 0 km/h
3080 29-07-2009 16:24:16 31.4 C 6.87 g/m*3 31.4 C 0 km/h
3081 29-07-2009 16:36:16 31.6 C 6.94 g/m*3 31.6 C 0 km/h
3082 29-07-2009 16:48:16 31.3 C 7.15 g/m*3 31.3 C 0 km/h
3083 29-07-2009 17:00:15 31.7 C 7.31 g/m*3 31.7 C 0 km/h
3084 29-07-2009 17:12:15 31.7 C 7.31 g/m*3 31.7 C 0 km/h
3085 29-07-2009 17:24:16 31.3 C 7.81 g/m*3 31.3 C 0 km/h
3086 29-07-2009 17:36:16 31.8 C 6.68 g/m*3 31.8 C 0 km/h
3087 29-07-2009 17:48:15 32.2 C 7.17 g/m*3 32.2 C 0 km/h
3088 29-07-2009 18:00:16 31.5 C 7.56 g/m*3 31.5 C 0 km/h
3089 29-07-2009 18:12:16 31.3 C 6.83 g/m*3 31.3 C 0 km/h
3090 29-07-2009 18:24:15 31.5 C 6.9 g/m*3 31.5 C 0 km/h
3091 29-07-2009 18:36:15 31.1 C 8.04 g/m*3 31.1 C 0 km/h
3092 29-07-2009 18:48:15 30.7 C 6.61 g/m*3 30.7 C 0 km/h
3093 29-07-2009 19:00:15 30 C 7.88 g/m*3 30 C 0 km/h
3094 29-07-2009 19:12:15 29.5 C 8.56 g/m*3 29.5 C 0 km/h
3095 29-07-2009 19:24:14 29.4 C 8.81 g/m*3 29.4 C 0 km/h
3096 29-07-2009 19:36:14 28.6 C 8.71 g/m*3 28.6 C 0 km/h
3097 29-07-2009 19:48:14 27.6 C 9.31 g/m*3 27.6 C 0 km/h
3098 29-07-2009 20:00:14 26.9 C 9.47 g/m*3 26.9 C 0 km/h
3099 29-07-2009 20:12:14 26.2 C 9.11 g/m*3 26.2 C 0 km/h
3100 29-07-2009 20:24:14 25.7 C 9.1 g/m*3 25.7 C 0 km/h
Sensor: Nr:Datum:Temp:Abs-Feuchte:Windchill:Wind:
Aussen-T/F 3101 29-07-2009 20:36:14 25.2 C 8.85 g/m*3 25.2 C 0 km/h
3102 29-07-2009 20:48:14 24.6 C 8.78 g/m*3 24.6 C 0 km/h
3103 29-07-2009 21:00:13 24.5 C 8.95 g/m*3 24.5 C 0 km/h
3104 29-07-2009 21:12:13 24.1 C 8.53 g/m*3 24.1 C 0 km/h
3105 29-07-2009 21:24:14 23.7 C 8.98 g/m*3 23.7 C 0 km/h
3106 29-07-2009 21:36:13 23.4 C 8.83 g/m*3 23.4 C 0 km/h
3107 29-07-2009 21:48:13 23.4 C 8.83 g/m*3 23.4 C 0 km/h
3108 29-07-2009 22:00:13 23.3 C 8.99 g/m*3 23.3 C 0 km/h
3109 29-07-2009 22:12:14 23.2 C 8.94 g/m*3 23.2 C 0 km/h
3110 29-07-2009 22:24:12 23 C 8.84 g/m*3 23 C 0 km/h
3111 29-07-2009 22:37:13 23 C 8.84 g/m*3 23 C 0 km/h
3112 29-07-2009 22:49:13 22.7 C 9.09 g/m*3 22.7 C 0 km/h
3113 29-07-2009 23:01:13 22.7 C 8.69 g/m*3 22.7 C 0 km/h
3114 29-07-2009 23:13:13 22.4 C 8.94 g/m*3 22.4 C 0 km/h
3115 29-07-2009 23:25:13 22.3 C 9.08 g/m*3 22.3 C 0 km/h
3116 29-07-2009 23:37:13 22.4 C 9.14 g/m*3 22.4 C 0 km/h
3117 29-07-2009 23:49:13 22.3 C 8.89 g/m*3 22.3 C 0 km/h
3118 30-07-2009 00:01:13 22.6 C 9.04 g/m*3 22.6 C 0 km/h
3119 30-07-2009 00:13:13 22.2 C 9.23 g/m*3 22.2 C 0 km/h
3120 30-07-2009 00:25:13 22.3 C 8.89 g/m*3 22.3 C 0 km/h
3121 30-07-2009 00:37:13 22.3 C 9.08 g/m*3 22.3 C 0 km/h
3122 30-07-2009 00:49:13 22.4 C 8.94 g/m*3 22.4 C 0 km/h
3123 30-07-2009 01:01:13 22.5 C 8.79 g/m*3 22.5 C 0 km/h
3124 30-07-2009 01:13:13 22.5 C 8.99 g/m*3 22.5 C 0 km/h
3125 30-07-2009 01:25:13 22.3 C 9.48 g/m*3 22.3 C 0 km/h
Sensor: Nr:Datum:Temp:Abs-Feuchte:Windchill:Wind:
Aussen-T/F 3126 30-07-2009 01:37:13 22 C 9.7 g/m*3 22 C 0 km/h
3127 30-07-2009 01:49:13 21.7 C 9.73 g/m*3 21.7 C 0 km/h
3128 30-07-2009 02:01:13 21.5 C 10.56 g/m*3 21.5 C 0 km/h
3129 30-07-2009 02:13:14 21.6 C 10.24 g/m*3 21.6 C 0 km/h
3130 30-07-2009 02:25:14 21.6 C 11 g/m*3 21.6 C 0 km/h
3131 30-07-2009 02:37:14 20.7 C 11.52 g/m*3 20.7 C 0 km/h
3132 30-07-2009 02:49:14 19.9 C 12.54 g/m*3 19.9 C 0 km/h
3133 30-07-2009 03:01:14 19.7 C 12.91 g/m*3 19.7 C 0 km/h
3134 30-07-2009 03:13:14 18.9 C 13.12 g/m*3 18.9 C 0 km/h
3135 30-07-2009 03:25:14 18.7 C 13.29 g/m*3 18.7 C 0 km/h
3136 30-07-2009 03:37:14 18.4 C 13.37 g/m*3 18.4 C 0 km/h
3137 30-07-2009 03:49:14 18.3 C 13.6 g/m*3 18.3 C 0 km/h
3138 30-07-2009 04:01:14 18.2 C 13.52 g/m*3 18.2 C 0 km/h
3139 30-07-2009 04:13:14 18.2 C 13.68 g/m*3 18.2 C 0 km/h
3140 30-07-2009 04:25:14 18.1 C 13.6 g/m*3 18.1 C 0 km/h
3141 30-07-2009 04:37:14 18 C 13.52 g/m*3 18 C 0 km/h
3142 30-07-2009 04:49:14 18 C 13.36 g/m*3 18 C 0 km/h
3143 30-07-2009 05:01:14 18 C 13.36 g/m*3 18 C 0 km/h
3144 30-07-2009 05:13:14 17.9 C 13.28 g/m*3 17.9 C 0 km/h
3145 30-07-2009 05:25:14 17.7 C 13.13 g/m*3 17.7 C 0 km/h
3146 30-07-2009 05:37:14 17.7 C 13.28 g/m*3 17.7 C 0 km/h
3147 30-07-2009 05:49:14 17.4 C 13.04 g/m*3 17.4 C 0 km/h
3148 30-07-2009 06:01:15 17.5 C 13.12 g/m*3 17.5 C 0 km/h
3149 30-07-2009 06:13:15 17.7 C 13.43 g/m*3 17.7 C 0 km/h
3150 30-07-2009 06:25:15 17.8 C 13.36 g/m*3 17.8 C 0 km/h
Sensor: Nr:Datum:Temp:Abs-Feuchte:Windchill:Wind:
Aussen-T/F 3151 30-07-2009 06:37:15 17.9 C 13.28 g/m*3 17.9 C 0 km/h
3152 30-07-2009 06:49:15 17.8 C 12.45 g/m*3 17.8 C 0 km/h
3153 30-07-2009 07:01:13 17.8 C 11.84 g/m*3 17.8 C 0 km/h
3154 30-07-2009 07:13:13 17.9 C 11.45 g/m*3 17.9 C 0 km/h
3155 30-07-2009 07:25:13 18.1 C 10.82 g/m*3 18.1 C 0 km/h
3156 30-07-2009 07:37:12 18.4 C 10.85 g/m*3 18.4 C 0 km/h
3157 30-07-2009 07:49:13 18.4 C 10.38 g/m*3 18.4 C 0 km/h
3158 30-07-2009 08:01:12 18.1 C 9.89 g/m*3 18.1 C 0 km/h
3159 30-07-2009 08:13:12 18.2 C 10.26 g/m*3 18.2 C 0 km/h
3160 30-07-2009 08:25:12 18.2 C 10.1 g/m*3 18.2 C 0 km/h
3161 30-07-2009 08:37:12 18.2 C 10.26 g/m*3 18.2 C 0 km/h
3162 30-07-2009 08:49:12 18.5 C 10.28 g/m*3 18.5 C 0 km/h
3163 30-07-2009 09:01:12 19.1 C 10 g/m*3 19.1 C 0 km/h
3164 30-07-2009 09:13:12 19.1 C 9.67 g/m*3 19.1 C 0 km/h
3165 30-07-2009 09:25:11 19.2 C 9.73 g/m*3 19.2 C 0 km/h
3166 30-07-2009 09:37:12 19.4 C 9.01 g/m*3 19.4 C 0 km/h
3167 30-07-2009 09:49:11 19.6 C 8.95 g/m*3 19.6 C 0 km/h
3168 30-07-2009 10:01:11 19.6 C 8.61 g/m*3 19.6 C 0 km/h
3169 30-07-2009 10:13:11 19.6 C 8.1 g/m*3 19.6 C 0 km/h
3170 30-07-2009 10:25:11 19.7 C 8.49 g/m*3 19.7 C 0 km/h
3171 30-07-2009 10:37:11 20 C 7.95 g/m*3 20 C 0 km/h
3172 30-07-2009 10:49:11 20 C 7.6 g/m*3 20 C 0 km/h
3173 30-07-2009 11:01:11 20.4 C 7.43 g/m*3 20.4 C 0 km/h
3174 30-07-2009 11:13:11 20.4 C 7.08 g/m*3 20.4 C 0 km/h
3175 30-07-2009 11:25:11 21 C 6.96 g/m*3 21 C 0 km/h
Sensor: Nr:Datum:Temp:Abs-Feuchte:Windchill:Wind:
Aussen-T/F 3176 30-07-2009 11:37:10 21 C 6.78 g/m*3 21 C 0 km/h
3177 30-07-2009 11:49:11 20.6 C 6.62 g/m*3 20.6 C 0 km/h
3178 30-07-2009 12:01:10 20.7 C 6.66 g/m*3 20.7 C 0 km/h
3179 30-07-2009 12:13:10 21.3 C 6.15 g/m*3 21.3 C 0 km/h
3180 30-07-2009 12:25:10 21.3 C 6.15 g/m*3 21.3 C 0 km/h
3181 30-07-2009 12:37:09 21.5 C 6.03 g/m*3 21.5 C 0 km/h
3182 30-07-2009 12:49:10 21.5 C 6.22 g/m*3 21.5 C 0 km/h
3183 30-07-2009 13:01:09 21.8 C 6.14 g/m*3 21.8 C 0 km/h
3184 30-07-2009 13:13:09 22.3 C 6.12 g/m*3 22.3 C 0 km/h
3185 30-07-2009 13:25:09 22.4 C 5.96 g/m*3 22.4 C 0 km/h
3186 30-07-2009 13:37:10 22.4 C 6.16 g/m*3 22.4 C 0 km/h
3187 30-07-2009 13:49:10 22.5 C 5.99 g/m*3 22.5 C 0 km/h
3188 30-07-2009 14:01:09 23.3 C 5.85 g/m*3 23.3 C 0 km/h
3189 30-07-2009 14:13:09 23.1 C 5.79 g/m*3 23.1 C 0 km/h
3190 30-07-2009 14:25:09 24 C 6.09 g/m*3 24 C 0 km/h
3191 30-07-2009 14:37:08 23.5 C 5.92 g/m*3 23.5 C 0 km/h
3192 30-07-2009 14:49:09 24.1 C 5.91 g/m*3 24.1 C 0 km/h
3193 30-07-2009 15:01:08 24.7 C 4.98 g/m*3 24.7 C 0 km/h
3194 30-07-2009 15:13:08 24 C 5.44 g/m*3 24 C 0 km/h
3195 30-07-2009 15:25:08 24.5 C 5.15 g/m*3 24.5 C 0 km/h
3196 30-07-2009 15:37:09 25.7 C 5.03 g/m*3 25.7 C 0 km/h
3197 30-07-2009 15:49:08 24.5 C 5.6 g/m*3 24.5 C 0 km/h
3198 30-07-2009 16:01:08 24.4 C 5.56 g/m*3 24.4 C 0 km/h
3199 30-07-2009 16:13:08 23.9 C 5.84 g/m*3 23.9 C 0 km/h
3200 30-07-2009 16:25:08 23.7 C 5.78 g/m*3 23.7 C 0 km/h
Sensor: Nr:Datum:Temp:Abs-Feuchte:Windchill:Wind:
Aussen-T/F 3201 30-07-2009 16:37:08 24.4 C 5.56 g/m*3 24.4 C 0 km/h
3202 30-07-2009 16:49:07 25.3 C 5.38 g/m*3 25.3 C 0 km/h
3203 30-07-2009 17:01:08 24.5 C 5.15 g/m*3 24.5 C 0 km/h
3204 30-07-2009 17:13:08 24.9 C 5.72 g/m*3 24.9 C 0 km/h
3205 30-07-2009 17:25:07 25.2 C 5.12 g/m*3 25.2 C 0 km/h
3206 30-07-2009 17:37:07 25.9 C 5.81 g/m*3 25.9 C 0 km/h
3207 30-07-2009 17:49:06 24.9 C 5.49 g/m*3 24.9 C 0 km/h
3208 30-07-2009 18:01:07 25.6 C 5.24 g/m*3 25.6 C 0 km/h
3209 30-07-2009 18:13:07 25.6 C 5.24 g/m*3 25.6 C 0 km/h
3210 30-07-2009 18:25:06 24.5 C 5.15 g/m*3 24.5 C 0 km/h
3211 30-07-2009 18:37:06 24.3 C 5.53 g/m*3 24.3 C 0 km/h
3212 30-07-2009 18:49:06 24.6 C 5.4 g/m*3 24.6 C 0 km/h
3213 30-07-2009 19:01:06 25.9 C 5.08 g/m*3 25.9 C 0 km/h
3214 30-07-2009 19:13:06 25.3 C 4.68 g/m*3 25.3 C 0 km/h
3215 30-07-2009 19:25:06 24.6 C 4.5 g/m*3 24.6 C 0 km/h
3216 30-07-2009 19:37:06 24.4 C 5.12 g/m*3 24.4 C 0 km/h
3217 30-07-2009 19:49:06 23.9 C 5.19 g/m*3 23.9 C 0 km/h
3218 30-07-2009 20:01:05 23.5 C 5.29 g/m*3 23.5 C 0 km/h
3219 30-07-2009 20:13:05 22.7 C 5.46 g/m*3 22.7 C 0 km/h
3220 30-07-2009 20:25:06 22.5 C 5.79 g/m*3 22.5 C 0 km/h
3221 30-07-2009 20:37:05 22.1 C 5.86 g/m*3 22.1 C 0 km/h
3222 30-07-2009 20:49:05 21.9 C 5.98 g/m*3 21.9 C 0 km/h
3223 30-07-2009 21:01:05 21.5 C